EI603 / EI-CVA 7700 Squawk Report (9th of December, 2017)

Aircraft A320 Reg No. EI-CVA Age 18 years old
Model A320 Jet engines 2 First flight 09-05-00
Registered 22-06-00 Rollout 05-00 Delivered 22-06-00
Construction No. 1242 Line No. N/A Series 214
ADSHEX 4CA13D Airline name Aer Lingus Owner N/A
Airfield based Dublin~Co Dublin~EI First tracked 2011-04-01 15:13:04

Flight history for EI-CVA

Route Flight No Date Playback
Dublin (DUB) - Frankfurt Main (FRA) EI656 2018-10-19 18:07:00
Dubrovnik (DBV) - Dublin (DUB) EI447 2018-10-19 13:59:00
Dublin (DUB) - Dubrovnik (DBV) EI446 2018-10-19 10:53:00
Charles De Gaulle (CDG) - Dublin (DUB) EI529 2018-10-18 21:50:00
Dublin (DUB) - Charles De Gaulle (CDG) EI528 2018-10-18 19:21:00
Charles De Gaulle (CDG) - Dublin (DUB) EI527 2018-10-18 16:41:00
Dublin (DUB) - Charles De Gaulle (CDG) EI526 2018-10-18 15:19:00
Franz Josef Strauss (MUC) - Dublin (DUB) EI353 2018-10-18 11:47:00
Dublin (DUB) - Franz Josef Strauss (MUC) EI352 2018-10-18 09:29:00
Gatwick (LGW) - Dublin (DUB) EI245 2018-10-17 19:50:00
Dublin (DUB) - Gatwick (LGW) EI244 2018-10-17 17:56:00
Gatwick (LGW) - Dublin (DUB) EI237 2018-10-17 15:00:00
Dublin (DUB) - Gatwick (LGW) EI236 2018-10-17 14:04:00
Frankfurt Main (FRA) - Dublin (DUB) EI651 2018-10-17 10:51:00
Dublin (DUB) - Frankfurt Main (FRA) EI650 2018-10-17 08:51:00
Split (SPU) - Dublin (DUB) EI471 2018-10-17 06:19:00
Dublin (DUB) - Split (SPU) EI470 2018-10-16 21:24:00
Gatwick (LGW) - Dublin (DUB) EI231 2018-10-16 17:45:00
Dublin (DUB) - Gatwick (LGW) EI230 2018-10-16 08:49:00
Manchester (MAN) - Dublin (DUB) EI213 2018-10-16 07:45:00
Time Lat Lon Altitude Heading Speed Vertical Rate
2017-12-09 14:16:33 GMT 53.42692 -6.24650 0 151 6 0
2017-12-09 14:16:20 GMT 53.42721 -6.24676 0 101 7 0
2017-12-09 14:16:15 GMT 53.42727 -6.24694 0 75 7 0
2017-12-09 14:16:07 GMT 53.42719 -6.24737 0 64 10 0
2017-12-09 14:15:57 GMT 53.42694 -6.24799 0 53 11 0
2017-12-09 14:15:46 GMT 53.42668 -6.24870 0 84 12 0
2017-12-09 14:15:36 GMT 53.42688 -6.24944 0 143 12 0
2017-12-09 14:15:26 GMT 53.42728 -6.24989 0 146 10 0
2017-12-09 14:15:15 GMT 53.42763 -6.25033 0 129 10 0
2017-12-09 14:15:05 GMT 53.42768 -6.25104 0 53 12 0
2017-12-09 14:14:55 GMT 53.42730 -6.25171 0 45 15 0
2017-12-09 14:14:44 GMT 53.42668 -6.25279 0 45 23 0
2017-12-09 14:14:34 GMT 53.42594 -6.25395 0 45 23 0
2017-12-09 14:14:24 GMT 53.42531 -6.25512 0 42 21 0
2017-12-09 14:14:14 GMT 53.42468 -6.25617 0 45 22 0
2017-12-09 14:14:03 GMT 53.42401 -6.25734 0 45 20 0
2017-12-09 14:13:53 GMT 53.42338 -6.25838 0 45 20 0
2017-12-09 14:13:42 GMT 53.42281 -6.25952 0 64 21 0
2017-12-09 14:13:31 GMT 53.42258 -6.26105 0 92 22 0
2017-12-09 14:13:22 GMT 53.42266 -6.26279 0 95 28 0
2017-12-09 14:13:12 GMT 53.42277 -6.26474 0 95 26 0
2017-12-09 14:13:01 GMT 53.42288 -6.26671 0 95 24 0
2017-12-09 14:12:50 GMT 53.42300 -6.26884 0 95 29 0
2017-12-09 14:12:40 GMT 53.42312 -6.27081 0 95 26 0
2017-12-09 14:12:30 GMT 53.42321 -6.27263 0 95 24 0
2017-12-09 14:12:19 GMT 53.42331 -6.27449 0 95 22 0
2017-12-09 14:12:08 GMT 53.42341 -6.27620 0 95 20 0
2017-12-09 14:11:58 GMT 53.42348 -6.27747 0 95 19 0
2017-12-09 14:11:49 GMT 53.42355 -6.27874 0 95 17 0
2017-12-09 14:11:38 GMT 53.42360 -6.27998 0 95 13 0
2017-12-09 14:11:27 GMT 53.42362 -6.28091 0 53 12 0
2017-12-09 14:11:17 GMT 53.42321 -6.28125 0 343 13 0
2017-12-09 14:11:07 GMT 53.42278 -6.28063 0 300 21 0
2017-12-09 14:10:56 GMT 53.42214 -6.27874 0 295 28 0
2017-12-09 14:10:45 GMT 53.42167 -6.27590 0 275 47 0
2017-12-09 14:10:33 GMT 53.42139 -6.27109 0 275 70 0
2017-12-09 14:10:24 GMT 53.42110 -6.26586 0 275 100 0
2017-12-09 14:10:14 GMT 53.42056 -6.25688 175 275 127 0
2017-12-09 14:10:05 GMT 53.42009 -6.24799 300 276 125 -640
2017-12-09 14:09:54 GMT 53.41953 -6.23749 425 275 126 -576
2017-12-09 14:09:43 GMT 53.41901 -6.22729 550 275 126 -640
2017-12-09 14:09:34 GMT 53.41846 -6.21770 650 276 125 -704
2017-12-09 14:09:23 GMT 53.41790 -6.20776 775 276 125 -640
2017-12-09 14:09:13 GMT 53.41731 -6.19786 900 276 125 -576
2017-12-09 14:09:03 GMT 53.41678 -6.18789 1,025 276 125 -704
2017-12-09 14:08:52 GMT 53.41618 -6.17722 1,150 276 126 -704
2017-12-09 14:08:42 GMT 53.41562 -6.16729 1,275 276 126 -640
2017-12-09 14:08:31 GMT 53.41506 -6.15735 1,375 276 125 -576
2017-12-09 14:08:20 GMT 53.41447 -6.14685 1,500 276 126 -704
2017-12-09 14:08:10 GMT 53.41390 -6.13619 1,650 276 129 -896
2017-12-09 14:08:00 GMT 53.41334 -6.12649 1,800 276 127 -384
2017-12-09 14:07:50 GMT 53.41278 -6.11607 1,875 276 134 -640
2017-12-09 14:07:39 GMT 53.41214 -6.10495 2,000 276 143 -768
2017-12-09 14:07:36 GMT 53.41190 -6.10081 2,050 276 146 -896
2017-12-09 14:07:29 GMT 53.41150 -6.09357 2,150 276 147 -896
2017-12-09 14:07:18 GMT 53.41078 -6.08126 2,300 276 150 -768
2017-12-09 14:07:12 GMT 53.41036 -6.07350 2,400 276 152 -768
2017-12-09 14:07:08 GMT 53.41013 -6.06940 2,450 276 153 -768
2017-12-09 14:07:02 GMT 53.40971 -6.06243 2,525 276 155 -768
2017-12-09 14:06:58 GMT 53.40943 -6.05694 2,600 276 157 -832
2017-12-09 14:06:53 GMT 53.40907 -6.05064 0 276 159 0
2017-12-09 14:06:51 GMT 53.40898 -6.04899 2,700 276 158 -832
2017-12-09 14:06:47 GMT 53.40871 -6.04460 2,750 276 159 -832
2017-12-09 14:06:41 GMT 53.40827 -6.03715 2,850 276 159 -832
2017-12-09 14:06:36 GMT 53.40793 -6.03102 2,925 276 159 -832
2017-12-09 14:06:31 GMT 53.40756 -6.02420 3,000 276 160 -832
2017-12-09 14:06:27 GMT 53.40724 -6.01870 3,075 276 161 -832
2017-12-09 14:06:21 GMT 53.40682 -6.01162 3,150 276 162 -832
2017-12-09 14:06:16 GMT 53.40645 -6.00532 3,225 276 164 -896
2017-12-09 14:06:10 GMT 53.40603 -5.99845 3,325 276 165 -896
2017-12-09 14:06:06 GMT 53.40570 -5.99240 3,400 276 165 -896
2017-12-09 14:06:03 GMT 53.40543 -5.98803 3,450 276 165 -832
2017-12-09 14:06:01 GMT 53.40529 -5.98545 3,475 276 165 -832
2017-12-09 14:05:55 GMT 53.40491 -5.97882 3,550 276 165 -768
2017-12-09 14:05:50 GMT 53.40454 -5.97185 3,625 276 164 -768
2017-12-09 14:05:45 GMT 53.40422 -5.96620 3,700 276 164 -704
2017-12-09 14:05:40 GMT 53.40380 -5.95927 3,775 276 164 -768
2017-12-09 14:05:35 GMT 53.40347 -5.95322 3,825 276 165 -768
2017-12-09 14:05:29 GMT 53.40305 -5.94595 3,925 276 166 -896
2017-12-09 14:05:26 GMT 53.40277 -5.94134 3,975 276 167 -960
2017-12-09 14:05:24 GMT 53.40268 -5.93956 4,000 276 168 -960
2017-12-09 14:05:18 GMT 53.40226 -5.93205 4,100 276 169 -960
2017-12-09 14:05:14 GMT 53.40193 -5.92642 4,175 276 170 -1088
2017-12-09 14:05:09 GMT 53.40152 -5.91959 4,275 276 171 -1152
2017-12-09 14:05:05 GMT 53.40115 -5.91347 4,350 276 171 -1152
2017-12-09 14:05:03 GMT 53.40106 -5.91214 4,375 276 171 -1152
2017-12-09 14:04:58 GMT 53.40065 -5.90499 4,500 277 171 -1216
2017-12-09 14:04:56 GMT 53.40042 -5.90162 4,550 277 171 -1216
2017-12-09 14:04:53 GMT 53.40026 -5.89885 4,600 276 171 -1152
2017-12-09 14:04:46 GMT 53.39960 -5.88836 4,750 277 171 -1024
2017-12-09 14:04:43 GMT 53.39942 -5.88504 4,800 277 172 -896
2017-12-09 14:04:37 GMT 53.39891 -5.87793 4,900 278 172 -832
2017-12-09 14:04:35 GMT 53.39864 -5.87400 4,950 279 171 -832
2017-12-09 14:04:32 GMT 53.39836 -5.87086 4,975 279 171 -768
2017-12-09 14:04:25 GMT 53.39751 -5.86113 5,075 279 168 -576
2017-12-09 14:04:22 GMT 53.39722 -5.85783 5,100 279 167 -512
2017-12-09 14:04:17 GMT 53.39672 -5.85184 5,150 279 168 -192
2017-12-09 14:04:15 GMT 53.39635 -5.84818 5,175 280 169 -768
2017-12-09 14:04:12 GMT 53.39603 -5.84481 5,200 280 170 -832
2017-12-09 14:04:06 GMT 53.39509 -5.83689 5,325 285 170 -1280
2017-12-09 14:04:04 GMT 53.39479 -5.83476 5,350 285 170 -1280
2017-12-09 14:04:01 GMT 53.39424 -5.83146 5,425 287 169 -1536
2017-12-09 14:03:56 GMT 53.39305 -5.82487 5,550 290 169 -1024
2017-12-09 14:03:51 GMT 53.39169 -5.81888 5,625 294 174 -192
2017-12-09 14:03:46 GMT 53.38985 -5.81177 5,675 294 180 -1024
2017-12-09 14:03:44 GMT 53.38916 -5.80918 5,700 294 182 -768
2017-12-09 14:03:41 GMT 53.38825 -5.80563 5,750 294 183 -768
2017-12-09 14:03:33 GMT 53.38559 -5.79577 5,850 294 188 -576
2017-12-09 14:03:30 GMT 53.38458 -5.79191 5,875 294 190 -512
2017-12-09 14:03:25 GMT 53.38216 -5.78234 5,950 293 194 -896
2017-12-09 14:03:18 GMT 53.38033 -5.77485 6,025 291 198 -384
2017-12-09 14:03:14 GMT 53.37886 -5.76814 6,075 288 203 -576
2017-12-09 14:03:10 GMT 53.37785 -5.76280 6,100 287 204 -512
2017-12-09 14:03:01 GMT 53.37557 -5.74828 6,175 284 206 -512
2017-12-09 14:02:59 GMT 53.37526 -5.74585 6,225 283 211 -704
2017-12-09 14:02:54 GMT 53.37386 -5.73567 6,325 283 214 -1216
2017-12-09 14:02:49 GMT 53.37312 -5.72985 6,400 283 214 -1216
2017-12-09 14:02:41 GMT 53.37140 -5.71681 6,550 283 216 -1024
2017-12-09 14:02:39 GMT 53.37088 -5.71305 6,600 283 214 -1408
2017-12-09 14:02:31 GMT 53.36902 -5.69900 6,775 283 216 -960
2017-12-09 14:02:27 GMT 53.36852 -5.69492 6,825 283 215 -1024
2017-12-09 14:02:22 GMT 53.36737 -5.68613 6,925 283 218 -832
2017-12-09 14:02:18 GMT 53.36646 -5.67922 6,975 283 218 -960
2017-12-09 14:02:12 GMT 53.36520 -5.66983 7,125 284 215 -1664
2017-12-09 14:02:07 GMT 53.36407 -5.66173 7,250 284 216 -1728
2017-12-09 14:02:01 GMT 53.36247 -5.65011 7,475 284 211 -1280
2017-12-09 14:01:55 GMT 53.36133 -5.64211 7,625 284 212 -1472
2017-12-09 14:01:53 GMT 53.36073 -5.63795 7,675 284 211 -1280
2017-12-09 14:01:47 GMT 53.35952 -5.62888 7,800 283 212 -896
2017-12-09 14:01:41 GMT 53.35831 -5.62006 7,900 283 214 -640
2017-12-09 14:01:35 GMT 53.35706 -5.61046 7,950 282 216 -320
2017-12-09 14:01:31 GMT 53.35608 -5.60198 7,975 255 231 0
2017-12-09 14:01:26 GMT 53.35543 -5.59414 7,975 272 225 0
2017-12-09 14:01:22 GMT 53.35538 -5.58741 8,000 262 228 0
2017-12-09 14:01:15 GMT 53.35664 -5.57540 7,975 253 231 0
2017-12-09 14:01:10 GMT 53.35840 -5.56748 7,975 246 234 0
2017-12-09 14:01:05 GMT 53.36142 -5.55869 7,975 235 238 0
2017-12-09 14:00:55 GMT 53.36874 -5.54543 7,975 219 245 0
2017-12-09 14:00:51 GMT 53.37250 -5.54080 7,975 214 247 0
2017-12-09 14:00:46 GMT 53.37753 -5.53617 7,975 205 251 0
2017-12-09 14:00:43 GMT 53.38097 -5.53381 8,000 191 255 64
2017-12-09 14:00:39 GMT 53.38438 -5.53218 8,000 194 253 64
2017-12-09 14:00:34 GMT 53.39085 -5.53005 7,975 186 258 0
2017-12-09 14:00:28 GMT 53.39777 -5.52934 7,975 178 261 0
2017-12-09 14:00:24 GMT 53.40314 -5.52992 7,975 171 262 0
2017-12-09 14:00:18 GMT 53.41106 -5.53202 8,000 170 262 0
2017-12-09 14:00:13 GMT 53.41539 -5.53315 8,000 170 262 0
2017-12-09 14:00:09 GMT 53.42023 -5.53444 8,000 170 262 0
2017-12-09 14:00:07 GMT 53.42256 -5.53509 8,000 171 262 0
2017-12-09 14:00:03 GMT 53.42798 -5.53656 8,000 171 262 0
2017-12-09 13:59:58 GMT 53.43429 -5.53816 8,000 171 262 0
2017-12-09 13:59:53 GMT 53.44029 -5.53977 8,000 171 262 0
2017-12-09 13:59:50 GMT 53.44405 -5.54072 8,000 171 261 0
2017-12-09 13:59:47 GMT 53.44807 -5.54174 8,000 171 262 0
2017-12-09 13:59:42 GMT 53.45311 -5.54300 8,000 171 262 0
2017-12-09 13:59:39 GMT 53.45622 -5.54386 8,000 171 262 0
2017-12-09 13:59:37 GMT 53.45938 -5.54464 8,000 171 262 0
2017-12-09 13:59:31 GMT 53.46588 -5.54629 8,000 171 263 0
2017-12-09 13:59:31 GMT 53.46588 -5.54629 8,000 171 263 0
2017-12-09 13:59:29 GMT 53.46883 -5.54705 8,000 171 263 0
2017-12-09 13:59:26 GMT 53.47246 -5.54802 8,000 170 263 0
2017-12-09 13:59:21 GMT 53.47787 -5.54951 8,000 169 264 128
2017-12-09 13:59:18 GMT 53.48149 -5.55068 7,975 167 264 128
2017-12-09 13:59:10 GMT 53.49094 -5.55545 7,975 154 267 0
2017-12-09 13:59:08 GMT 53.49346 -5.55731 7,975 152 267 0
2017-12-09 13:59:05 GMT 53.49755 -5.56102 7,975 149 268 0
2017-12-09 13:59:00 GMT 53.50172 -5.56513 7,975 149 267 0
2017-12-09 13:59:00 GMT 53.50172 -5.56513 7,975 149 267 0
2017-12-09 13:58:58 GMT 53.50388 -5.56732 7,975 149 268 0
2017-12-09 13:58:50 GMT 53.51280 -5.57619 8,000 149 268 0
2017-12-09 13:58:48 GMT 53.51440 -5.57774 8,000 149 268 0
2017-12-09 13:58:43 GMT 53.52083 -5.58412 8,000 149 268 0
2017-12-09 13:58:40 GMT 53.52351 -5.58678 8,000 149 267 0
2017-12-09 13:58:38 GMT 53.52548 -5.58873 8,000 149 267 0
2017-12-09 13:58:32 GMT 53.53144 -5.59463 8,000 149 267 0
2017-12-09 13:58:29 GMT 53.53473 -5.59793 7,975 149 267 0
2017-12-09 13:58:27 GMT 53.53722 -5.60036 7,975 149 267 0
2017-12-09 13:58:24 GMT 53.54122 -5.60440 7,975 149 267 0
2017-12-09 13:58:19 GMT 53.54545 -5.60860 7,975 149 268 0
2017-12-09 13:58:17 GMT 53.54760 -5.61078 8,000 149 268 0
2017-12-09 13:58:15 GMT 53.55025 -5.61339 8,000 148 268 0
2017-12-09 13:58:10 GMT 53.55574 -5.61904 8,000 148 268 0
2017-12-09 13:58:08 GMT 53.55849 -5.62186 8,000 147 269 0
2017-12-09 13:58:05 GMT 53.56114 -5.62468 8,000 147 268 128
2017-12-09 13:57:58 GMT 53.56733 -5.63162 7,975 141 269 0
2017-12-09 13:57:56 GMT 53.56952 -5.63457 7,975 138 269 0
2017-12-09 13:57:54 GMT 53.57222 -5.63865 7,975 135 270 0
2017-12-09 13:57:47 GMT 53.57748 -5.64901 7,975 125 270 0
2017-12-09 13:57:44 GMT 53.58014 -5.65513 7,975 125 269 0
2017-12-09 13:57:40 GMT 53.58326 -5.66256 7,975 125 269 0
2017-12-09 13:57:38 GMT 53.58512 -5.66701 8,000 125 269 0
2017-12-09 13:57:36 GMT 53.58550 -5.66785 8,000 125 269 0
2017-12-09 13:57:34 GMT 53.58719 -5.67193 8,000 124 270 -64
2017-12-09 13:57:28 GMT 53.59121 -5.68171 8,000 124 269 0
2017-12-09 13:57:25 GMT 53.59378 -5.68793 8,000 124 270 0
2017-12-09 13:57:17 GMT 53.59895 -5.70010 8,000 126 270 128
2017-12-09 13:57:17 GMT 53.59895 -5.70010 8,000 126 270 128
2017-12-09 13:57:14 GMT 53.60120 -5.70504 7,975 132 271 0
2017-12-09 13:57:09 GMT 53.60554 -5.71258 8,000 140 271 0
2017-12-09 13:57:07 GMT 53.60770 -5.71556 8,000 145 269 0
2017-12-09 13:57:07 GMT 53.60770 -5.71556 8,000 145 269 0
2017-12-09 13:57:05 GMT 53.60971 -5.71791 8,000 149 268 0
2017-12-09 13:57:03 GMT 53.61091 -5.71919 8,000 152 268 0
2017-12-09 13:57:01 GMT 53.61493 -5.72278 8,000 195 253 -576
2017-12-09 13:56:58 GMT 53.61644 -5.72388 8,000 160 265 0
2017-12-09 13:56:55 GMT 53.62050 -5.72622 8,000 165 263 -64
2017-12-09 13:56:53 GMT 53.62349 -5.72749 8,000 172 260 -192
2017-12-09 13:56:49 GMT 53.62836 -5.72856 8,000 178 259 -192
2017-12-09 13:56:46 GMT 53.63148 -5.72864 8,025 183 258 -320
2017-12-09 13:56:44 GMT 53.63479 -5.72832 8,050 188 256 -448
2017-12-09 13:56:37 GMT 53.64157 -5.72600 8,100 197 252 -576
2017-12-09 13:56:34 GMT 53.64498 -5.72396 8,125 204 250 -576
2017-12-09 13:56:31 GMT 53.64894 -5.72073 8,150 208 248 -576
2017-12-09 13:56:29 GMT 53.65137 -5.71830 8,200 216 245 -640
2017-12-09 13:56:27 GMT 53.65173 -5.71783 8,200 216 245 -640
2017-12-09 13:56:24 GMT 53.65466 -5.71422 8,225 221 243 -640
2017-12-09 13:56:21 GMT 53.65695 -5.71087 8,275 224 243 -704
2017-12-09 13:56:17 GMT 53.66025 -5.70522 8,325 228 242 -640
2017-12-09 13:56:13 GMT 53.66400 -5.69837 8,375 228 244 -768
2017-12-09 13:56:07 GMT 53.66779 -5.69132 8,425 228 244 -576
2017-12-09 13:56:04 GMT 53.67054 -5.68615 8,450 228 244 -960
2017-12-09 13:56:02 GMT 53.67222 -5.68308 8,500 229 245 -768
2017-12-09 13:55:58 GMT 53.67496 -5.67767 8,550 232 246 -832
2017-12-09 13:55:54 GMT 53.67804 -5.67080 8,625 239 244 -960
2017-12-09 13:55:51 GMT 53.67934 -5.66714 8,650 243 242 -960
2017-12-09 13:55:48 GMT 53.68098 -5.66133 8,725 249 241 -1024
2017-12-09 13:55:43 GMT 53.68245 -5.65349 8,800 259 238 -1024
2017-12-09 13:55:41 GMT 53.68297 -5.64891 8,850 263 238 -1024
2017-12-09 13:55:36 GMT 53.68339 -5.63865 8,950 272 236 -1024
2017-12-09 13:55:33 GMT 53.68341 -5.63512 8,975 273 237 -960
2017-12-09 13:55:31 GMT 53.68327 -5.63143 9,025 273 237 -960
2017-12-09 13:55:28 GMT 53.68311 -5.62419 9,075 273 239 -832
2017-12-09 13:55:25 GMT 53.68302 -5.62056 9,100 273 239 -832
2017-12-09 13:55:23 GMT 53.68288 -5.61498 9,150 273 239 -768
2017-12-09 13:55:21 GMT 53.68282 -5.61142 9,175 273 241 -768
2017-12-09 13:55:17 GMT 53.68264 -5.60489 9,225 273 240 -768
2017-12-09 13:55:14 GMT 53.68255 -5.60004 9,250 273 240 -768
2017-12-09 13:55:12 GMT 53.68241 -5.59511 9,300 273 241 -768
2017-12-09 13:55:07 GMT 53.68218 -5.58568 9,375 273 242 -768
2017-12-09 13:55:05 GMT 53.68209 -5.58211 9,400 273 242 -768
2017-12-09 13:55:03 GMT 53.68199 -5.57807 9,425 273 243 -768
2017-12-09 13:55:01 GMT 53.68185 -5.57368 9,450 273 243 -768
2017-12-09 13:54:57 GMT 53.68167 -5.56619 9,500 273 243 -768
2017-12-09 13:54:54 GMT 53.68157 -5.56239 9,525 273 244 -768
2017-12-09 13:54:51 GMT 53.68144 -5.55657 9,575 273 244 -768
2017-12-09 13:54:45 GMT 53.68102 -5.54268 9,675 273 245 -704
2017-12-09 13:54:41 GMT 53.68085 -5.53601 9,725 273 245 -768
2017-12-09 13:54:34 GMT 53.68046 -5.52313 9,825 274 245 -768
2017-12-09 13:54:31 GMT 53.68030 -5.51726 9,850 274 245 -768
2017-12-09 13:54:26 GMT 53.67998 -5.50784 9,925 274 243 -704
2017-12-09 13:54:24 GMT 53.67985 -5.50415 9,950 274 243 -640
2017-12-09 13:54:20 GMT 53.67966 -5.49737 10,000 274 242 -640
2017-12-09 13:54:16 GMT 53.67934 -5.48861 10,050 274 241 -640
2017-12-09 13:54:13 GMT 53.67925 -5.48485 10,075 273 240 -640
2017-12-09 13:54:11 GMT 53.67906 -5.47920 10,125 273 239 -640
2017-12-09 13:54:09 GMT 53.67901 -5.47749 10,125 273 239 -640
2017-12-09 13:54:06 GMT 53.67878 -5.47006 10,175 273 237 -576
2017-12-09 13:54:04 GMT 53.67870 -5.46664 10,200 273 237 -576
2017-12-09 13:53:59 GMT 53.67847 -5.45895 10,225 273 236 -448
2017-12-09 13:53:56 GMT 53.67824 -5.45079 10,275 273 236 -768
2017-12-09 13:53:54 GMT 53.67806 -5.44671 10,300 274 237 -960
2017-12-09 13:53:49 GMT 53.67790 -5.43993 10,375 274 237 -1216
2017-12-09 13:53:47 GMT 53.67776 -5.43516 10,425 274 237 -1408
2017-12-09 13:53:45 GMT 53.67766 -5.43250 10,450 274 237 -1408
2017-12-09 13:53:43 GMT 53.67748 -5.42773 10,525 274 237 -1344
2017-12-09 13:53:41 GMT 53.67743 -5.42482 10,550 274 237 -1344
2017-12-09 13:53:39 GMT 53.67724 -5.42103 10,600 274 237 -1728
2017-12-09 13:53:35 GMT 53.67705 -5.41430 10,725 274 236 -1920
2017-12-09 13:53:33 GMT 53.67686 -5.41022 10,800 274 236 -1920
2017-12-09 13:53:31 GMT 53.67673 -5.40632 10,875 274 237 -1728
2017-12-09 13:53:28 GMT 53.67659 -5.40164 10,950 274 237 -1664
2017-12-09 13:53:25 GMT 53.67641 -5.39534 11,050 274 238 -1600
2017-12-09 13:53:23 GMT 53.67622 -5.39138 11,100 274 238 -1600
2017-12-09 13:53:21 GMT 53.67613 -5.38799 11,150 274 239 -1600
2017-12-09 13:53:18 GMT 53.67594 -5.38209 11,250 274 239 -1600
2017-12-09 13:53:14 GMT 53.67577 -5.37577 11,350 274 240 -1664
2017-12-09 13:53:12 GMT 53.67554 -5.36949 11,425 274 241 -1664
2017-12-09 13:53:09 GMT 53.67538 -5.36472 11,500 274 242 -1728
2017-12-09 13:53:07 GMT 53.67533 -5.36286 11,525 274 242 -1728
2017-12-09 13:53:03 GMT 53.67499 -5.35285 11,700 274 243 -1792
2017-12-09 13:53:00 GMT 53.67487 -5.34889 11,775 274 244 -1792
2017-12-09 13:52:57 GMT 53.67468 -5.34356 11,850 274 244 -1728
2017-12-09 13:52:54 GMT 53.67435 -5.33496 11,975 274 245 -1536
2017-12-09 13:52:51 GMT 53.67422 -5.33031 12,050 274 246 -1472
2017-12-09 13:52:48 GMT 53.67403 -5.32522 12,100 274 247 -1408
2017-12-09 13:52:46 GMT 53.67389 -5.32131 12,175 274 247 -1472
2017-12-09 13:52:44 GMT 53.67380 -5.31817 12,200 274 247 -1472
2017-12-09 13:52:42 GMT 53.67361 -5.31375 12,275 274 248 -1536
2017-12-09 13:52:40 GMT 53.67357 -5.31165 12,300 274 248 -1600
2017-12-09 13:52:38 GMT 53.67338 -5.30680 12,350 274 248 -1600
2017-12-09 13:52:36 GMT 53.67320 -5.30286 12,425 274 248 -1600
2017-12-09 13:52:34 GMT 53.67315 -5.29913 12,475 274 248 -1600
2017-12-09 13:52:32 GMT 53.67296 -5.29444 12,550 274 248 -1536
2017-12-09 13:52:28 GMT 53.67274 -5.28662 12,650 274 250 -1344
2017-12-09 13:52:26 GMT 53.67265 -5.28458 12,675 274 249 -1408
2017-12-09 13:52:24 GMT 53.67247 -5.27925 12,725 274 250 -1280
2017-12-09 13:52:21 GMT 53.67236 -5.27481 12,800 274 251 -1216
2017-12-09 13:52:19 GMT 53.67215 -5.26904 12,850 274 252 -1024
2017-12-09 13:52:16 GMT 53.67197 -5.26324 12,900 274 254 -896
2017-12-09 13:52:14 GMT 53.67175 -5.25898 12,925 274 255 -768
2017-12-09 13:52:12 GMT 53.67160 -5.25421 12,975 274 256 -704
2017-12-09 13:52:09 GMT 53.67151 -5.25052 13,000 274 266 -768
2017-12-09 13:52:07 GMT 53.67133 -5.24534 13,025 274 260 -704
2017-12-09 13:52:07 GMT 53.67133 -5.24534 13,025 274 266 -768
2017-12-09 13:52:05 GMT 53.67119 -5.24137 13,050 274 261 -768
2017-12-09 13:52:03 GMT 53.67105 -5.23773 13,075 274 262 -768
2017-12-09 13:52:01 GMT 53.67087 -5.23365 13,100 274 264 -896
2017-12-09 13:51:59 GMT 53.67068 -5.22769 13,125 274 265 -832
2017-12-09 13:51:57 GMT 53.67054 -5.22384 13,175 274 267 -768
2017-12-09 13:51:55 GMT 53.67046 -5.22149 13,175 274 268 -768
2017-12-09 13:51:53 GMT 53.67036 -5.21819 13,200 274 268 -832
2017-12-09 13:51:51 GMT 53.67017 -5.21317 13,225 274 269 -832
2017-12-09 13:51:49 GMT 53.67000 -5.20768 13,275 274 271 -832
2017-12-09 13:51:46 GMT 53.66977 -5.20148 13,325 274 273 -1536
2017-12-09 13:51:44 GMT 53.66970 -5.19831 13,350 274 273 -1344
2017-12-09 13:51:42 GMT 53.66956 -5.19484 13,375 274 273 -1536
2017-12-09 13:51:39 GMT 53.66933 -5.18765 13,450 274 273 -1600
2017-12-09 13:51:36 GMT 53.66910 -5.18078 13,550 274 273 -1536
2017-12-09 13:51:33 GMT 53.66891 -5.17537 13,625 274 273 -1536
2017-12-09 13:51:31 GMT 53.66872 -5.17001 13,675 274 273 -1536
2017-12-09 13:51:29 GMT 53.66858 -5.16569 13,750 274 273 -1536
2017-12-09 13:51:26 GMT 53.66831 -5.15832 13,825 274 273 -1536
2017-12-09 13:51:23 GMT 53.66812 -5.15290 13,900 274 273 -1472
2017-12-09 13:51:21 GMT 53.66798 -5.14788 13,950 274 273 -1536
2017-12-09 13:51:19 GMT 53.66784 -5.14475 14,000 274 273 -1472
2017-12-09 13:51:15 GMT 53.66753 -5.13603 14,100 274 273 -1536
2017-12-09 13:51:13 GMT 53.66737 -5.13191 14,150 274 273 -1536
2017-12-09 13:51:10 GMT 53.66719 -5.12682 14,225 274 272 -1536
2017-12-09 13:51:07 GMT 53.66691 -5.11834 14,325 274 272 -1536
2017-12-09 13:51:05 GMT 53.66679 -5.11484 14,375 274 272 -1536
2017-12-09 13:51:02 GMT 53.66661 -5.10974 14,450 274 272 -1536
2017-12-09 13:51:00 GMT 53.66643 -5.10503 14,500 274 272 -1536
2017-12-09 13:50:58 GMT 53.66625 -5.10048 14,550 274 272 -1536
2017-12-09 13:50:54 GMT 53.66597 -5.09193 14,650 274 271 -1472
2017-12-09 13:50:52 GMT 53.66579 -5.08804 14,700 274 271 -1472
2017-12-09 13:50:49 GMT 53.66561 -5.08255 14,775 274 271 -1472
2017-12-09 13:50:46 GMT 53.66523 -5.07278 14,900 274 271 -1472
2017-12-09 13:50:44 GMT 53.66519 -5.07148 14,900 274 271 -1536
2017-12-09 13:50:41 GMT 53.66496 -5.06540 14,975 274 271 -1536
2017-12-09 13:50:39 GMT 53.66483 -5.06124 15,025 274 271 -1536
2017-12-09 13:50:37 GMT 53.66460 -5.05575 15,100 274 271 -1536
2017-12-09 13:50:35 GMT 53.66440 -5.05048 15,175 274 271 -1472
2017-12-09 13:50:33 GMT 53.66432 -5.04861 15,200 274 271 -1472
2017-12-09 13:50:31 GMT 53.66419 -5.04429 15,250 274 271 -1472
2017-12-09 13:50:29 GMT 53.66398 -5.03901 15,300 274 271 -1472
2017-12-09 13:50:23 GMT 53.66354 -5.02750 15,450 274 272 -1472
2017-12-09 13:50:21 GMT 53.66337 -5.02221 15,500 274 272 -1472
2017-12-09 13:50:17 GMT 53.66309 -5.01502 15,600 274 272 -1472
2017-12-09 13:50:14 GMT 53.66277 -5.00678 15,700 274 272 -1536
2017-12-09 13:50:12 GMT 53.66263 -5.00294 15,750 274 272 -1536
2017-12-09 13:50:10 GMT 53.66235 -4.99533 15,850 274 272 -1536
2017-12-09 13:50:07 GMT 53.66230 -4.99345 15,875 274 272 -1536
2017-12-09 13:50:05 GMT 53.66207 -4.98707 15,950 274 272 -1536
2017-12-09 13:50:03 GMT 53.66197 -4.98448 15,975 274 272 -1536
2017-12-09 13:50:01 GMT 53.66171 -4.97751 16,075 274 272 -1536
2017-12-09 13:49:59 GMT 53.66165 -4.97568 16,100 274 272 -1536
2017-12-09 13:49:56 GMT 53.66135 -4.96825 16,200 274 271 -1536
2017-12-09 13:49:54 GMT 53.66123 -4.96420 16,250 274 271 -1536
2017-12-09 13:49:52 GMT 53.66109 -4.96089 16,275 274 270 -1536
2017-12-09 13:49:49 GMT 53.66093 -4.95640 16,350 274 270 -1536
2017-12-09 13:49:47 GMT 53.66061 -4.94895 16,425 274 270 -1472
2017-12-09 13:49:45 GMT 53.66049 -4.94490 16,475 274 269 -1536
2017-12-09 13:49:43 GMT 53.66030 -4.94078 16,525 274 269 -1472
2017-12-09 13:49:43 GMT 53.66030 -4.93989 16,550 274 269 -1472
2017-12-09 13:49:40 GMT 53.66016 -4.93609 16,575 274 269 -1472
2017-12-09 13:49:38 GMT 53.66002 -4.93263 16,625 274 269 -1472
2017-12-09 13:49:35 GMT 53.65974 -4.92527 16,725 274 270 -1536
2017-12-09 13:49:32 GMT 53.65956 -4.91999 16,775 274 270 -1472
2017-12-09 13:49:30 GMT 53.65928 -4.91307 16,875 274 270 -1472
2017-12-09 13:49:28 GMT 53.65919 -4.91073 16,900 274 271 -1472
2017-12-09 13:49:25 GMT 53.65892 -4.90398 16,975 274 273 -1408
2017-12-09 13:49:23 GMT 53.65874 -4.89810 17,050 274 272 -1472
2017-12-09 13:49:21 GMT 53.65862 -4.89619 17,075 274 272 -1472
2017-12-09 13:49:18 GMT 53.65837 -4.88962 17,150 274 273 -1408
2017-12-09 13:49:15 GMT 53.65816 -4.88391 17,225 274 274 -1408
2017-12-09 13:49:12 GMT 53.65788 -4.87664 17,300 274 274 -1536
2017-12-09 13:49:10 GMT 53.65778 -4.87354 17,325 274 275 -1536
2017-12-09 13:49:08 GMT 53.65760 -4.86896 17,375 274 276 -1216
2017-12-09 13:49:06 GMT 53.65741 -4.86365 17,450 274 276 -1856
2017-12-09 13:49:03 GMT 53.65723 -4.85894 17,500 274 276 -1920
2017-12-09 13:49:01 GMT 53.65695 -4.85192 17,600 274 275 -1344
2017-12-09 13:48:58 GMT 53.65671 -4.84634 17,700 274 275 -1344
2017-12-09 13:48:56 GMT 53.65659 -4.84215 17,750 274 275 -1024
2017-12-09 13:48:53 GMT 53.65630 -4.83512 17,800 274 274 -640
2017-12-09 13:48:50 GMT 53.65608 -4.83030 17,825 274 274 -576
2017-12-09 13:48:48 GMT 53.65592 -4.82583 17,850 274 275 -832
2017-12-09 13:48:46 GMT 53.65572 -4.82080 17,875 274 275 -704
2017-12-09 13:48:44 GMT 53.65544 -4.81444 17,925 274 275 -832
2017-12-09 13:48:42 GMT 53.65544 -4.81444 17,925 274 275 -832
2017-12-09 13:48:40 GMT 53.65527 -4.80999 17,950 274 275 -896
2017-12-09 13:48:38 GMT 53.65498 -4.80252 18,000 274 275 -896
2017-12-09 13:48:36 GMT 53.65480 -4.79828 18,025 274 275 -960
2017-12-09 13:48:33 GMT 53.65462 -4.79349 18,075 274 276 -768
2017-12-09 13:48:31 GMT 53.65439 -4.78792 18,100 274 276 -896
2017-12-09 13:48:29 GMT 53.65425 -4.78494 18,125 274 276 -832
2017-12-09 13:48:27 GMT 53.65392 -4.77703 18,175 274 277 -896
2017-12-09 13:48:25 GMT 53.65392 -4.77623 18,175 274 276 -896
2017-12-09 13:48:22 GMT 53.65370 -4.77081 18,225 274 277 -832
2017-12-09 13:48:20 GMT 53.65355 -4.76661 18,250 274 277 -832
2017-12-09 13:48:18 GMT 53.65334 -4.76132 18,300 274 278 -896
2017-12-09 13:48:16 GMT 53.65308 -4.75554 18,325 274 279 -960
2017-12-09 13:48:14 GMT 53.65306 -4.75441 18,350 274 279 -960
2017-12-09 13:48:10 GMT 53.65257 -4.74246 18,425 274 282 -960
2017-12-09 13:48:08 GMT 53.65247 -4.73997 18,450 274 282 -960
2017-12-09 13:48:06 GMT 53.65233 -4.73605 18,475 274 283 -960
2017-12-09 13:48:04 GMT 53.65206 -4.72970 18,525 274 284 -960
2017-12-09 13:48:01 GMT 53.65178 -4.72307 18,575 275 286 -960
2017-12-09 13:47:59 GMT 53.65159 -4.71766 18,625 274 290 -960
2017-12-09 13:47:56 GMT 53.65127 -4.70966 18,675 274 289 -1024
2017-12-09 13:47:53 GMT 53.65118 -4.70740 18,700 274 290 -960
2017-12-09 13:47:50 GMT 53.65077 -4.69721 18,775 274 293 -1024
2017-12-09 13:47:50 GMT 53.65082 -4.69870 18,750 274 292 -1024
2017-12-09 13:47:48 GMT 53.65077 -4.69634 18,775 274 293 -1024
2017-12-09 13:47:46 GMT 53.65048 -4.68922 18,825 274 295 -960
2017-12-09 13:47:43 GMT 53.65024 -4.68292 18,875 274 297 -896
2017-12-09 13:47:40 GMT 53.64999 -4.67672 18,925 274 299 -1088
2017-12-09 13:47:38 GMT 53.64982 -4.67177 18,975 274 300 -960
2017-12-09 13:47:36 GMT 53.64964 -4.66709 19,000 274 301 -960
2017-12-09 13:47:34 GMT 53.64955 -4.66386 19,025 274 303 -960
2017-12-09 13:47:32 GMT 53.64927 -4.65683 19,075 274 304 -1024
2017-12-09 13:47:28 GMT 53.64894 -4.64855 19,125 274 306 -832
2017-12-09 13:47:26 GMT 53.64876 -4.64368 19,175 274 308 -832
2017-12-09 13:47:24 GMT 53.64861 -4.63930 19,200 274 310 -896
2017-12-09 13:47:22 GMT 53.64844 -4.63505 19,225 274 310 -960
2017-12-09 13:47:19 GMT 53.64810 -4.62621 19,275 274 314 -896
2017-12-09 13:47:16 GMT 53.64782 -4.61886 19,325 274 316 -960
2017-12-09 13:47:14 GMT 53.64768 -4.61498 19,350 274 317 -896
2017-12-09 13:47:10 GMT 53.64734 -4.60625 19,400 274 321 -960
2017-12-09 13:47:08 GMT 53.64713 -4.60012 19,450 274 322 -960
2017-12-09 13:47:06 GMT 53.64684 -4.59358 19,475 274 325 -960
2017-12-09 13:47:04 GMT 53.64666 -4.58897 19,525 274 325 -960
2017-12-09 13:47:04 GMT 53.64675 -4.59107 19,500 274 325 -960
2017-12-09 13:47:02 GMT 53.64657 -4.58606 19,550 274 326 -960
2017-12-09 13:47:00 GMT 53.64629 -4.57896 19,575 274 329 -896
2017-12-09 13:46:57 GMT 53.64601 -4.57274 19,625 274 330 -960
2017-12-09 13:46:55 GMT 53.64578 -4.56694 19,650 274 333 -960
2017-12-09 13:46:53 GMT 53.64560 -4.56176 19,700 274 333 -960
2017-12-09 13:46:51 GMT 53.64537 -4.55650 19,725 274 335 -1024
2017-12-09 13:46:49 GMT 53.64517 -4.55157 19,750 274 338 -1024
2017-12-09 13:46:47 GMT 53.64496 -4.54654 19,800 274 338 -1024
2017-12-09 13:46:44 GMT 53.64452 -4.53582 19,875 274 342 -768
2017-12-09 13:46:44 GMT 53.64447 -4.53477 19,875 274 342 -768
2017-12-09 13:46:43 GMT 53.64456 -4.53687 19,875 274 342 -960
2017-12-09 13:46:41 GMT 53.64419 -4.52782 19,925 274 343 -640
2017-12-09 13:46:39 GMT 53.64400 -4.52268 19,950 274 343 -512
2017-12-09 13:46:37 GMT 53.64387 -4.51982 19,975 274 343 -320
2017-12-09 13:46:34 GMT 53.64349 -4.50973 20,000 274 343 0
2017-12-09 13:46:32 GMT 53.64331 -4.50510 20,000 274 343 0
2017-12-09 13:46:30 GMT 53.64304 -4.49874 20,000 274 343 64
2017-12-09 13:46:27 GMT 53.64279 -4.49260 20,000 274 344 0
2017-12-09 13:46:25 GMT 53.64258 -4.48697 20,000 274 344 0
2017-12-09 13:46:23 GMT 53.64235 -4.48172 20,000 274 344 0
2017-12-09 13:46:21 GMT 53.64219 -4.47766 20,000 274 344 64
2017-12-09 13:46:19 GMT 53.64200 -4.47224 20,000 274 344 64
2017-12-09 13:46:17 GMT 53.64173 -4.46538 19,975 274 344 -64
2017-12-09 13:46:15 GMT 53.64154 -4.46061 19,975 274 345 0
2017-12-09 13:46:13 GMT 53.64130 -4.45488 19,975 274 346 0
2017-12-09 13:46:10 GMT 53.64102 -4.44797 20,000 274 346 0
2017-12-09 13:46:08 GMT 53.64084 -4.44284 19,975 274 347 0
2017-12-09 13:46:06 GMT 53.64065 -4.43791 20,000 274 347 0
2017-12-09 13:46:04 GMT 53.64034 -4.43024 20,000 274 347 0
2017-12-09 13:46:02 GMT 53.64000 -4.42240 20,000 274 347 0
2017-12-09 13:46:00 GMT 53.63997 -4.42098 20,000 274 347 0
2017-12-09 13:45:58 GMT 53.63963 -4.41319 20,000 274 348 0
2017-12-09 13:45:56 GMT 53.63951 -4.41015 20,000 274 348 0
2017-12-09 13:45:53 GMT 53.63905 -4.39940 20,000 274 348 0
2017-12-09 13:45:53 GMT 53.63905 -4.39940 20,000 274 348 0
2017-12-09 13:45:50 GMT 53.63878 -4.39288 20,000 274 348 0
2017-12-09 13:45:50 GMT 53.63884 -4.39421 20,000 274 348 0
2017-12-09 13:45:47 GMT 53.63850 -4.38582 20,000 275 348 0
2017-12-09 13:45:45 GMT 53.63833 -4.38185 20,000 275 348 0
2017-12-09 13:45:43 GMT 53.63795 -4.37320 20,000 275 348 0
2017-12-09 13:45:41 GMT 53.63777 -4.36911 20,000 275 348 0
2017-12-09 13:45:39 GMT 53.63754 -4.36377 20,000 275 348 0
2017-12-09 13:45:36 GMT 53.63708 -4.35294 20,000 275 348 0
2017-12-09 13:45:34 GMT 53.63699 -4.35011 20,000 275 348 0
2017-12-09 13:45:32 GMT 53.63667 -4.34313 20,000 275 348 0
2017-12-09 13:45:30 GMT 53.63654 -4.33944 20,000 275 348 0
2017-12-09 13:45:27 GMT 53.63608 -4.32861 20,000 275 348 0
2017-12-09 13:45:24 GMT 53.63585 -4.32312 20,000 275 349 0
2017-12-09 13:45:22 GMT 53.63548 -4.31551 20,000 275 349 0
2017-12-09 13:45:22 GMT 53.63548 -4.31441 20,000 275 349 0
2017-12-09 13:45:20 GMT 53.63521 -4.30907 20,000 275 349 0
2017-12-09 13:45:18 GMT 53.63516 -4.30790 20,000 275 349 0
2017-12-09 13:45:15 GMT 53.63479 -4.29840 20,000 275 349 0
2017-12-09 13:45:13 GMT 53.63460 -4.29469 20,000 275 349 0
2017-12-09 13:45:11 GMT 53.63425 -4.28577 20,000 275 350 0
2017-12-09 13:45:09 GMT 53.63406 -4.28129 20,000 275 350 0
2017-12-09 13:45:07 GMT 53.63381 -4.27627 20,000 275 350 0
2017-12-09 13:45:05 GMT 53.63351 -4.26944 20,000 275 350 0
2017-12-09 13:45:02 GMT 53.63338 -4.26560 20,000 275 350 0
2017-12-09 13:45:00 GMT 53.63306 -4.25854 20,000 275 351 0
2017-12-09 13:44:58 GMT 53.63283 -4.25333 20,000 275 351 0
2017-12-09 13:44:55 GMT 53.63242 -4.24276 19,975 275 351 0
2017-12-09 13:44:52 GMT 53.63200 -4.23377 19,975 275 351 0
2017-12-09 13:44:50 GMT 53.63187 -4.23076 19,975 275 351 0
2017-12-09 13:44:48 GMT 53.63164 -4.22534 19,975 275 351 0
2017-12-09 13:44:46 GMT 53.63132 -4.21820 19,975 275 351 0
2017-12-09 13:44:44 GMT 53.63116 -4.21415 19,975 275 351 0
2017-12-09 13:44:42 GMT 53.63095 -4.20949 19,975 275 351 0
2017-12-09 13:44:39 GMT 53.63049 -4.19968 20,000 275 351 0
2017-12-09 13:44:37 GMT 53.63036 -4.19584 20,000 275 351 0
2017-12-09 13:44:35 GMT 53.63009 -4.18959 20,000 275 351 0
2017-12-09 13:44:33 GMT 53.62985 -4.18515 20,000 275 352 0
2017-12-09 13:44:33 GMT 53.62985 -4.18515 20,000 275 351 0
2017-12-09 13:44:31 GMT 53.62962 -4.17981 20,000 275 351 0
2017-12-09 13:44:29 GMT 53.62940 -4.17402 20,000 275 351 0
2017-12-09 13:44:27 GMT 53.62921 -4.17025 20,000 275 351 0
2017-12-09 13:44:25 GMT 53.62880 -4.16092 20,000 275 351 0
2017-12-09 13:44:23 GMT 53.62862 -4.15660 20,000 275 351 0
2017-12-09 13:44:19 GMT 53.62811 -4.14624 20,000 275 351 0
2017-12-09 13:44:17 GMT 53.62788 -4.14075 20,000 275 350 0
2017-12-09 13:44:15 GMT 53.62762 -4.13514 20,000 275 350 0
2017-12-09 13:44:13 GMT 53.62739 -4.12965 20,000 275 350 0
2017-12-09 13:44:13 GMT 53.62739 -4.12965 20,000 275 350 0
2017-12-09 13:44:11 GMT 53.62720 -4.12585 20,000 275 351 0
2017-12-09 13:44:09 GMT 53.62688 -4.11854 20,000 275 349 0
2017-12-09 13:44:07 GMT 53.62656 -4.11148 20,000 275 350 0
2017-12-09 13:44:05 GMT 53.62637 -4.10700 20,000 275 350 0
2017-12-09 13:44:03 GMT 53.62610 -4.10065 20,000 275 349 0
2017-12-09 13:44:01 GMT 53.62596 -4.09782 19,975 275 349 0
2017-12-09 13:43:59 GMT 53.62555 -4.08911 20,000 275 349 0
2017-12-09 13:43:57 GMT 53.62548 -4.08675 19,975 275 349 0
2017-12-09 13:43:55 GMT 53.62520 -4.08126 20,000 275 349 0
2017-12-09 13:43:53 GMT 53.62491 -4.07459 20,000 275 350 0
2017-12-09 13:43:51 GMT 53.62468 -4.06918 20,000 275 348 0
2017-12-09 13:43:49 GMT 53.62441 -4.06306 20,000 275 349 0
2017-12-09 13:43:47 GMT 53.62422 -4.05912 20,000 275 349 0
2017-12-09 13:43:46 GMT 53.62403 -4.05525 20,000 275 349 0
2017-12-09 13:43:44 GMT 53.62386 -4.05129 20,000 275 348 0
2017-12-09 13:43:42 GMT 53.62357 -4.04450 20,000 275 348 0
2017-12-09 13:43:40 GMT 53.62331 -4.03873 20,000 275 348 0
2017-12-09 13:43:38 GMT 53.62306 -4.03319 20,000 275 348 0
2017-12-09 13:43:36 GMT 53.62285 -4.02798 19,975 275 348 0
2017-12-09 13:43:34 GMT 53.62266 -4.02374 20,000 275 348 0
2017-12-09 13:43:32 GMT 53.62244 -4.01880 19,975 275 348 0
2017-12-09 13:43:30 GMT 53.62222 -4.01373 20,000 275 348 0
2017-12-09 13:43:28 GMT 53.62194 -4.00718 20,000 274 349 0
2017-12-09 13:43:25 GMT 53.62166 -4.00015 20,000 274 349 0
2017-12-09 13:43:23 GMT 53.62143 -3.99494 20,000 274 349 0
2017-12-09 13:43:21 GMT 53.62120 -3.98859 20,000 274 349 0
2017-12-09 13:43:19 GMT 53.62101 -3.98335 20,000 274 349 0
2017-12-09 13:43:17 GMT 53.62074 -3.97650 20,000 274 349 0
2017-12-09 13:43:15 GMT 53.62045 -3.96922 20,000 274 349 0
2017-12-09 13:43:13 GMT 53.62042 -3.96779 20,000 274 350 0
2017-12-09 13:43:11 GMT 53.62012 -3.95993 20,000 274 350 0
2017-12-09 13:43:09 GMT 53.61997 -3.95594 20,000 274 350 0
2017-12-09 13:43:06 GMT 53.61960 -3.94621 20,000 274 350 0
2017-12-09 13:43:03 GMT 53.61933 -3.93941 20,000 274 350 0
2017-12-09 13:43:01 GMT 53.61914 -3.93467 20,000 274 350 0
2017-12-09 13:42:59 GMT 53.61887 -3.92802 20,000 274 350 0
2017-12-09 13:42:57 GMT 53.61859 -3.92042 20,000 274 350 0
2017-12-09 13:42:55 GMT 53.61854 -3.91881 20,000 274 350 0
2017-12-09 13:42:53 GMT 53.61827 -3.91255 20,000 274 350 0
2017-12-09 13:42:51 GMT 53.61803 -3.90677 20,000 275 350 0
2017-12-09 13:42:49 GMT 53.61777 -3.90109 19,975 276 350 0
2017-12-09 13:42:48 GMT 53.61770 -3.89966 19,975 276 350 0
2017-12-09 13:42:47 GMT 53.61763 -3.89826 20,000 276 350 0
2017-12-09 13:42:45 GMT 53.61704 -3.88814 19,975 279 349 0
2017-12-09 13:42:42 GMT 53.61668 -3.88407 19,975 280 349 0
2017-12-09 13:42:40 GMT 53.61575 -3.87472 19,975 283 347 0
2017-12-09 13:42:38 GMT 53.61538 -3.87179 20,000 285 347 0
2017-12-09 13:42:35 GMT 53.61465 -3.86625 20,000 285 347 0
2017-12-09 13:42:33 GMT 53.61346 -3.85848 20,000 287 346 0
2017-12-09 13:42:31 GMT 53.61295 -3.85555 20,000 289 345 0
2017-12-09 13:42:29 GMT 53.61154 -3.84812 20,000 289 345 0
2017-12-09 13:42:27 GMT 53.61081 -3.84433 20,000 289 346 0
2017-12-09 13:42:25 GMT 53.60971 -3.83894 20,000 289 346 0
2017-12-09 13:42:23 GMT 53.60847 -3.83282 20,000 289 346 0
2017-12-09 13:42:21 GMT 53.60774 -3.82906 20,000 289 346 0
2017-12-09 13:42:19 GMT 53.60658 -3.82340 20,000 289 346 0
2017-12-09 13:42:17 GMT 53.60518 -3.81657 20,000 289 346 0
2017-12-09 13:42:15 GMT 53.60431 -3.81202 20,000 289 346 0
2017-12-09 13:42:13 GMT 53.60350 -3.80814 20,000 289 346 0
2017-12-09 13:42:11 GMT 53.60257 -3.80361 20,000 289 346 0
2017-12-09 13:42:09 GMT 53.60170 -3.79923 20,000 289 346 0
2017-12-09 13:42:07 GMT 53.60043 -3.79295 20,000 289 346 0
2017-12-09 13:42:05 GMT 53.59960 -3.78891 20,000 289 346 0
2017-12-09 13:42:03 GMT 53.59824 -3.78220 20,000 289 346 0
2017-12-09 13:42:01 GMT 53.59740 -3.77796 20,000 289 346 0
2017-12-09 13:41:59 GMT 53.59639 -3.77286 20,000 289 347 0
2017-12-09 13:41:57 GMT 53.59511 -3.76666 20,000 289 347 0
2017-12-09 13:41:55 GMT 53.59442 -3.76313 20,000 289 347 0
2017-12-09 13:41:53 GMT 53.59331 -3.75773 20,000 289 347 0
2017-12-09 13:41:51 GMT 53.59181 -3.75034 20,000 289 347 0
2017-12-09 13:41:48 GMT 53.59071 -3.74477 19,975 289 347 0
2017-12-09 13:41:46 GMT 53.58966 -3.73967 20,000 289 347 0
2017-12-09 13:41:44 GMT 53.58838 -3.73347 19,975 289 347 0
2017-12-09 13:41:42 GMT 53.58737 -3.72845 20,000 289 347 0
2017-12-09 13:41:40 GMT 53.58637 -3.72356 19,975 289 347 0
2017-12-09 13:41:40 GMT 53.58664 -3.72476 19,975 289 347 0
2017-12-09 13:41:38 GMT 53.58521 -3.71790 19,975 289 347 0
2017-12-09 13:41:36 GMT 53.58451 -3.71443 19,975 289 347 0
2017-12-09 13:41:34 GMT 53.58293 -3.70675 20,000 289 347 0
2017-12-09 13:41:31 GMT 53.58190 -3.70159 20,000 289 347 0
2017-12-09 13:41:29 GMT 53.58023 -3.69334 20,000 289 347 0
2017-12-09 13:41:27 GMT 53.57981 -3.69132 20,000 289 347 0
2017-12-09 13:41:25 GMT 53.57812 -3.68301 20,000 289 347 0
2017-12-09 13:41:23 GMT 53.57726 -3.67893 20,000 289 347 0
2017-12-09 13:41:20 GMT 53.57625 -3.67383 20,000 289 347 0
2017-12-09 13:41:18 GMT 53.57497 -3.66763 20,000 289 347 0
2017-12-09 13:41:16 GMT 53.57390 -3.66233 20,000 289 347 0
2017-12-09 13:41:14 GMT 53.57309 -3.65853 20,000 289 346 0
2017-12-09 13:41:12 GMT 53.57148 -3.65053 20,000 289 346 0
2017-12-09 13:41:10 GMT 53.57103 -3.64832 20,000 289 346 0
2017-12-09 13:41:10 GMT 53.57103 -3.64832 20,000 289 346 0
2017-12-09 13:41:08 GMT 53.56874 -3.63702 20,000 289 346 0
2017-12-09 13:41:06 GMT 53.56851 -3.63600 20,000 289 346 0
2017-12-09 13:41:04 GMT 53.56799 -3.63332 20,000 289 346 0
2017-12-09 13:41:02 GMT 53.56668 -3.62682 20,000 289 346 0
2017-12-09 13:41:00 GMT 53.56531 -3.62023 20,000 289 346 0
2017-12-09 13:40:58 GMT 53.56490 -3.61819 20,000 289 346 0
2017-12-09 13:40:56 GMT 53.56310 -3.60941 20,000 289 346 0
2017-12-09 13:40:54 GMT 53.56178 -3.60289 20,000 289 346 0
2017-12-09 13:40:51 GMT 53.56110 -3.59944 20,000 289 346 0
2017-12-09 13:40:49 GMT 53.56032 -3.59583 20,000 289 346 0
2017-12-09 13:40:49 GMT 53.56032 -3.59583 20,000 289 346 0
2017-12-09 13:40:47 GMT 53.55863 -3.58744 20,000 289 346 0
2017-12-09 13:40:45 GMT 53.55812 -3.58502 20,000 289 346 0
2017-12-09 13:40:43 GMT 53.55679 -3.57848 19,975 290 346 0
2017-12-09 13:40:41 GMT 53.55602 -3.57456 20,000 289 346 0
2017-12-09 13:40:39 GMT 53.55455 -3.56742 19,975 290 346 0
2017-12-09 13:40:37 GMT 53.55356 -3.56256 19,975 289 345 0
2017-12-09 13:40:35 GMT 53.55262 -3.55803 20,000 289 346 0
2017-12-09 13:40:33 GMT 53.55179 -3.55392 20,000 289 345 0
2017-12-09 13:40:31 GMT 53.55109 -3.55044 20,000 289 346 0
2017-12-09 13:40:31 GMT 53.55076 -3.54891 20,000 289 346 0
2017-12-09 13:40:29 GMT 53.54965 -3.54356 20,000 289 345 0
2017-12-09 13:40:27 GMT 53.54851 -3.53791 20,000 289 345 0
2017-12-09 13:40:24 GMT 53.54709 -3.53085 20,000 289 345 0
2017-12-09 13:40:21 GMT 53.54553 -3.52316 20,000 289 345 0
2017-12-09 13:40:19 GMT 53.54424 -3.51700 20,000 289 345 0
2017-12-09 13:40:17 GMT 53.54292 -3.51060 20,000 289 345 0
2017-12-09 13:40:15 GMT 53.54242 -3.50809 20,000 289 345 0
2017-12-09 13:40:13 GMT 53.54141 -3.50299 20,000 289 345 0
2017-12-09 13:40:11 GMT 53.54029 -3.49761 20,000 289 345 0
2017-12-09 13:40:09 GMT 53.53917 -3.49212 20,000 289 345 0
2017-12-09 13:40:07 GMT 53.53839 -3.48824 20,000 289 345 0
2017-12-09 13:40:05 GMT 53.53731 -3.48291 20,000 289 345 0
2017-12-09 13:40:03 GMT 53.53647 -3.47887 20,000 289 345 0
2017-12-09 13:40:01 GMT 53.53496 -3.47152 20,000 290 345 0
2017-12-09 13:39:59 GMT 53.53404 -3.46697 20,000 290 345 0
2017-12-09 13:39:57 GMT 53.53326 -3.46320 20,000 290 345 0
2017-12-09 13:39:55 GMT 53.53195 -3.45698 20,000 290 345 0
2017-12-09 13:39:53 GMT 53.53107 -3.45253 20,000 290 345 0
2017-12-09 13:39:53 GMT 53.53107 -3.45253 20,000 290 345 0
2017-12-09 13:39:50 GMT 53.52949 -3.44494 20,000 290 345 0
2017-12-09 13:39:48 GMT 53.52814 -3.43832 20,000 290 345 0
2017-12-09 13:39:46 GMT 53.52736 -3.43448 20,000 290 345 0
2017-12-09 13:39:44 GMT 53.52655 -3.43072 20,000 290 346 0
2017-12-09 13:39:44 GMT 53.52637 -3.42967 20,000 290 346 0
2017-12-09 13:39:42 GMT 53.52443 -3.42028 20,000 290 347 0
2017-12-09 13:39:39 GMT 53.52339 -3.41538 20,000 290 347 0
2017-12-09 13:39:37 GMT 53.52242 -3.41063 20,000 290 347 0
2017-12-09 13:39:35 GMT 53.52136 -3.40560 20,000 290 347 0
2017-12-09 13:39:32 GMT 53.51990 -3.39846 20,000 290 347 0
2017-12-09 13:39:30 GMT 53.51907 -3.39438 20,000 290 347 0
2017-12-09 13:39:28 GMT 53.51785 -3.38856 20,000 290 347 0
2017-12-09 13:39:25 GMT 53.51608 -3.37991 20,000 290 347 0
2017-12-09 13:39:23 GMT 53.51482 -3.37385 20,000 290 347 0
2017-12-09 13:39:21 GMT 53.51390 -3.36951 20,000 290 346 0
2017-12-09 13:39:19 GMT 53.51268 -3.36367 20,000 290 347 0
2017-12-09 13:39:17 GMT 53.51250 -3.36271 20,000 290 347 0
2017-12-09 13:39:15 GMT 53.51129 -3.35679 20,000 290 347 0
2017-12-09 13:39:13 GMT 53.50947 -3.34792 20,000 290 347 0
2017-12-09 13:39:11 GMT 53.50836 -3.34251 20,000 290 346 0
2017-12-09 13:39:09 GMT 53.50779 -3.33976 20,000 290 346 0
2017-12-09 13:39:07 GMT 53.50691 -3.33564 20,000 290 346 0
2017-12-09 13:39:04 GMT 53.50488 -3.32572 20,000 290 347 0
2017-12-09 13:39:02 GMT 53.50438 -3.32321 20,000 290 348 0
2017-12-09 13:39:02 GMT 53.50438 -3.32321 20,000 290 348 0
2017-12-09 13:38:59 GMT 53.50244 -3.31391 20,000 290 348 0
2017-12-09 13:38:57 GMT 53.50163 -3.30994 20,000 290 348 0
2017-12-09 13:38:55 GMT 53.50053 -3.30470 20,000 290 348 0
2017-12-09 13:38:55 GMT 53.50053 -3.30470 20,000 290 348 0
2017-12-09 13:38:53 GMT 53.49988 -3.30155 20,000 290 348 0
2017-12-09 13:38:51 GMT 53.49838 -3.29409 20,000 290 348 0
2017-12-09 13:38:49 GMT 53.49715 -3.28805 20,000 290 349 0
2017-12-09 13:38:47 GMT 53.49653 -3.28524 20,000 290 349 0
2017-12-09 13:38:47 GMT 53.49653 -3.28524 20,000 290 349 0
2017-12-09 13:38:45 GMT 53.49504 -3.27813 20,000 290 349 64
2017-12-09 13:38:43 GMT 53.49401 -3.27288 19,975 290 349 64
2017-12-09 13:38:41 GMT 53.49312 -3.26859 19,975 290 349 64
2017-12-09 13:38:39 GMT 53.49184 -3.26247 19,975 290 350 128
2017-12-09 13:38:37 GMT 53.49088 -3.25792 19,975 290 350 256
2017-12-09 13:38:35 GMT 53.48959 -3.25155 19,975 290 350 384
2017-12-09 13:38:33 GMT 53.48909 -3.24921 19,950 290 350 384
2017-12-09 13:38:31 GMT 53.48781 -3.24309 19,950 290 349 576
2017-12-09 13:38:29 GMT 53.48666 -3.23766 19,925 290 349 704
2017-12-09 13:38:27 GMT 53.48582 -3.23362 19,900 290 348 896
2017-12-09 13:38:25 GMT 53.48447 -3.22699 19,875 290 348 960
2017-12-09 13:38:23 GMT 53.48355 -3.22276 19,850 290 348 960
2017-12-09 13:38:21 GMT 53.48250 -3.21758 19,800 290 348 896
2017-12-09 13:38:19 GMT 53.48122 -3.21138 19,775 290 348 896
2017-12-09 13:38:17 GMT 53.47986 -3.20502 19,725 290 347 896
2017-12-09 13:38:15 GMT 53.47943 -3.20283 19,725 290 347 896
2017-12-09 13:38:13 GMT 53.47847 -3.19828 19,700 290 347 896
2017-12-09 13:38:11 GMT 53.47702 -3.19145 19,650 290 347 832
2017-12-09 13:38:09 GMT 53.47572 -3.18509 19,600 290 346 832
2017-12-09 13:38:09 GMT 53.47595 -3.18636 19,625 290 343 1152
2017-12-09 13:38:07 GMT 53.47511 -3.18232 19,600 290 346 832
2017-12-09 13:38:05 GMT 53.47421 -3.17795 19,575 290 346 896
2017-12-09 13:38:03 GMT 53.47316 -3.17285 19,550 290 345 960
2017-12-09 13:38:01 GMT 53.47201 -3.16736 19,500 290 345 1024
2017-12-09 13:37:59 GMT 53.47060 -3.16051 19,450 290 343 1152
2017-12-09 13:37:57 GMT 53.47000 -3.15786 19,425 290 342 1152
2017-12-09 13:37:55 GMT 53.46860 -3.15081 19,375 290 341 1216
2017-12-09 13:37:53 GMT 53.46780 -3.14727 19,350 290 340 1280
2017-12-09 13:37:53 GMT 53.46780 -3.14727 19,350 290 340 1280
2017-12-09 13:37:51 GMT 53.46683 -3.14266 19,300 290 338 1472
2017-12-09 13:37:49 GMT 53.46584 -3.13793 19,275 290 338 1472
2017-12-09 13:37:47 GMT 53.46464 -3.13215 19,200 290 337 1536
2017-12-09 13:37:45 GMT 53.46362 -3.12739 19,150 290 335 1920
2017-12-09 13:37:43 GMT 53.46269 -3.12286 19,100 290 334 1920
2017-12-09 13:37:41 GMT 53.46143 -3.11697 19,025 290 334 1920
2017-12-09 13:37:39 GMT 53.46057 -3.11282 18,950 290 333 1920
2017-12-09 13:37:37 GMT 53.45859 -3.10339 18,825 290 333 1920
2017-12-09 13:37:35 GMT 53.45810 -3.10113 18,800 290 332 1920
2017-12-09 13:37:33 GMT 53.45741 -3.09775 18,750 290 331 1920
2017-12-09 13:37:33 GMT 53.45691 -3.09540 18,725 290 331 1920
2017-12-09 13:37:31 GMT 53.45636 -3.09281 18,700 290 331 1920
2017-12-09 13:37:29 GMT 53.45514 -3.08692 18,600 290 329 1984
2017-12-09 13:37:27 GMT 53.45440 -3.08344 18,550 290 330 1984
2017-12-09 13:37:25 GMT 53.45343 -3.07884 18,500 290 329 1984
2017-12-09 13:37:23 GMT 53.45224 -3.07311 18,400 290 329 2048
2017-12-09 13:37:21 GMT 53.45105 -3.06738 18,325 290 328 2112
2017-12-09 13:37:19 GMT 53.45036 -3.06401 18,275 290 328 2176
2017-12-09 13:37:17 GMT 53.44940 -3.05969 18,225 290 327 2112
2017-12-09 13:37:15 GMT 53.44812 -3.05341 18,125 290 327 2176
2017-12-09 13:37:12 GMT 53.44686 -3.04741 18,025 290 326 2688
2017-12-09 13:37:11 GMT 53.44662 -3.04644 18,000 290 326 2688
2017-12-09 13:37:11 GMT 53.44662 -3.04644 18,000 290 326 2688
2017-12-09 13:37:09 GMT 53.44492 -3.03819 17,850 290 326 2752
2017-12-09 13:37:07 GMT 53.44318 -3.02988 17,675 290 326 2816
2017-12-09 13:37:04 GMT 53.44286 -3.02869 17,650 290 326 2816
2017-12-09 13:37:02 GMT 53.44153 -3.02203 17,525 290 326 2752
2017-12-09 13:37:00 GMT 53.44080 -3.01857 17,450 290 326 2688
2017-12-09 13:36:58 GMT 53.44006 -3.01502 17,375 290 326 2688
2017-12-09 13:36:56 GMT 53.43857 -3.00791 17,250 290 326 2624
2017-12-09 13:36:53 GMT 53.43750 -3.00296 17,150 290 326 2624
2017-12-09 13:36:53 GMT 53.43782 -3.00437 17,175 290 326 2624
2017-12-09 13:36:51 GMT 53.43654 -2.99809 17,050 290 326 2688
2017-12-09 13:36:48 GMT 53.43475 -2.98974 16,900 290 326 2752
2017-12-09 13:36:46 GMT 53.43359 -2.98416 16,800 290 326 2816
2017-12-09 13:36:44 GMT 53.43238 -2.97835 16,675 290 326 2880
2017-12-09 13:36:44 GMT 53.43260 -2.97957 16,700 290 326 2880
2017-12-09 13:36:42 GMT 53.43168 -2.97511 16,600 290 326 2944
2017-12-09 13:36:40 GMT 53.43123 -2.97298 16,550 290 326 3008
2017-12-09 13:36:38 GMT 53.42990 -2.96662 16,425 290 326 3200
2017-12-09 13:36:36 GMT 53.42898 -2.96219 16,325 290 326 3328
2017-12-09 13:36:34 GMT 53.42793 -2.95713 16,200 290 327 3392
2017-12-09 13:36:32 GMT 53.42637 -2.94975 16,025 290 327 3328
2017-12-09 13:36:30 GMT 53.42583 -2.94716 15,975 290 328 3328
2017-12-09 13:36:28 GMT 53.42459 -2.94135 15,825 290 329 3008
2017-12-09 13:36:26 GMT 53.42325 -2.93497 15,700 290 329 3008
2017-12-09 13:36:23 GMT 53.42249 -2.93131 15,600 290 329 3008
2017-12-09 13:36:21 GMT 53.42180 -2.92801 15,525 290 329 3008
2017-12-09 13:36:19 GMT 53.42029 -2.92071 15,375 290 329 2944
2017-12-09 13:36:17 GMT 53.41869 -2.91323 15,225 290 329 2816
2017-12-09 13:36:14 GMT 53.41818 -2.91067 15,175 290 329 2752
2017-12-09 13:36:12 GMT 53.41678 -2.90403 15,050 290 329 2816
2017-12-09 13:36:10 GMT 53.41553 -2.89819 14,925 290 329 3072
2017-12-09 13:36:07 GMT 53.41415 -2.89145 14,775 290 329 3136
2017-12-09 13:36:05 GMT 53.41342 -2.88807 14,700 290 329 3008
2017-12-09 13:36:03 GMT 53.41223 -2.88234 14,575 290 329 2816
2017-12-09 13:36:01 GMT 53.41073 -2.87519 14,450 290 329 2624
2017-12-09 13:36:01 GMT 53.41073 -2.87519 14,450 290 329 2624
2017-12-09 13:35:59 GMT 53.40980 -2.87091 14,350 290 328 2240
2017-12-09 13:35:57 GMT 53.40880 -2.86602 14,275 290 328 2240
2017-12-09 13:35:55 GMT 53.40793 -2.86202 14,200 290 328 2112
2017-12-09 13:35:53 GMT 53.40729 -2.85903 14,150 290 327 1984
2017-12-09 13:35:51 GMT 53.40584 -2.85216 14,050 290 326 2048
2017-12-09 13:35:49 GMT 53.40491 -2.84774 14,000 290 325 2176
2017-12-09 13:35:49 GMT 53.40515 -2.84893 14,000 290 325 2176
2017-12-09 13:35:47 GMT 53.40436 -2.84514 13,950 290 325 2240
2017-12-09 13:35:45 GMT 53.40305 -2.83892 13,850 290 323 2688
2017-12-09 13:35:43 GMT 53.40179 -2.83278 13,725 290 323 2624
2017-12-09 13:35:43 GMT 53.40179 -2.83278 13,725 290 323 2624
2017-12-09 13:35:41 GMT 53.40111 -2.82976 13,675 290 323 2688
2017-12-09 13:35:39 GMT 53.40015 -2.82498 13,575 290 322 2944
2017-12-09 13:35:37 GMT 53.39909 -2.82017 13,475 290 322 3072
2017-12-09 13:35:35 GMT 53.39845 -2.81705 13,400 290 322 3136
2017-12-09 13:35:33 GMT 53.39723 -2.81113 13,275 290 322 3392
2017-12-09 13:35:31 GMT 53.39621 -2.80636 13,150 290 322 3776
2017-12-09 13:35:29 GMT 53.39523 -2.80176 13,025 290 323 3776
2017-12-09 13:35:29 GMT 53.39502 -2.80065 13,000 290 323 3648
2017-12-09 13:35:29 GMT 53.39476 -2.79941 12,950 290 323 3776
2017-12-09 13:35:27 GMT 53.39424 -2.79688 12,875 290 323 3584
2017-12-09 13:35:25 GMT 53.39310 -2.79155 12,750 290 324 3456
2017-12-09 13:35:23 GMT 53.39234 -2.78802 12,650 290 324 3200
2017-12-09 13:35:21 GMT 53.39122 -2.78276 12,525 290 325 3136
2017-12-09 13:35:19 GMT 53.39006 -2.77720 12,400 290 325 2944
2017-12-09 13:35:17 GMT 53.38930 -2.77366 12,325 290 324 2752
2017-12-09 13:35:17 GMT 53.38930 -2.77366 12,325 290 324 2752
2017-12-09 13:35:15 GMT 53.38834 -2.76904 12,225 290 324 2560
2017-12-09 13:35:15 GMT 53.38811 -2.76815 12,225 290 324 2560
2017-12-09 13:35:13 GMT 53.38694 -2.76250 12,100 290 323 2368
2017-12-09 13:35:11 GMT 53.38637 -2.75984 12,075 290 322 2176
2017-12-09 13:35:09 GMT 53.38499 -2.75353 11,975 290 321 1920
2017-12-09 13:35:07 GMT 53.38399 -2.74862 11,900 290 320 1792
2017-12-09 13:35:05 GMT 53.38327 -2.74529 11,850 290 319 1664
2017-12-09 13:35:03 GMT 53.38224 -2.74052 11,775 290 317 1472
2017-12-09 13:35:01 GMT 53.38156 -2.73740 11,750 290 315 1216
2017-12-09 13:35:01 GMT 53.38156 -2.73740 11,750 290 316 1408
2017-12-09 13:34:59 GMT 53.37996 -2.73059 11,675 290 313 1088
2017-12-09 13:34:57 GMT 53.37926 -2.72671 11,650 290 309 1024
2017-12-09 13:34:57 GMT 53.37926 -2.72671 11,650 290 311 1024
2017-12-09 13:34:55 GMT 53.37817 -2.72155 11,600 290 309 1024
2017-12-09 13:34:53 GMT 53.37767 -2.71927 11,575 290 307 1024
2017-12-09 13:34:51 GMT 53.37647 -2.71362 11,550 290 304 1024
2017-12-09 13:34:49 GMT 53.37535 -2.70837 11,500 290 300 1024
2017-12-09 13:34:47 GMT 53.37414 -2.70280 11,450 290 297 960
2017-12-09 13:34:45 GMT 53.37341 -2.69942 11,425 290 295 960
2017-12-09 13:34:43 GMT 53.37295 -2.69730 11,400 290 294 1024
2017-12-09 13:34:41 GMT 53.37117 -2.68914 11,350 290 290 960
2017-12-09 13:34:39 GMT 53.37048 -2.68584 11,325 290 288 960
2017-12-09 13:34:37 GMT 53.36995 -2.68349 11,300 290 286 960
2017-12-09 13:34:35 GMT 53.36865 -2.67735 11,250 290 282 960
2017-12-09 13:34:33 GMT 53.36758 -2.67242 11,200 290 274 1408
2017-12-09 13:34:33 GMT 53.36797 -2.67431 11,225 290 279 1024
2017-12-09 13:34:30 GMT 53.36651 -2.66750 11,150 290 275 1344
2017-12-09 13:34:28 GMT 53.36595 -2.66475 11,125 290 272 1536
2017-12-09 13:34:26 GMT 53.36483 -2.65958 11,050 290 270 1792
2017-12-09 13:34:24 GMT 53.36435 -2.65744 11,025 290 269 1920
2017-12-09 13:34:22 GMT 53.36357 -2.65368 10,950 290 267 2112
2017-12-09 13:34:20 GMT 53.36247 -2.64873 10,850 290 265 2368
2017-12-09 13:34:18 GMT 53.36188 -2.64574 10,800 290 264 2624
2017-12-09 13:34:16 GMT 53.36101 -2.64190 10,700 290 263 2816
2017-12-09 13:34:14 GMT 53.35995 -2.63688 10,575 290 262 3072
2017-12-09 13:34:14 GMT 53.35995 -2.63688 10,575 290 262 3072
2017-12-09 13:34:12 GMT 53.35954 -2.63499 10,525 290 262 3200
2017-12-09 13:34:10 GMT 53.35827 -2.62913 10,350 290 261 3840
2017-12-09 13:34:09 GMT 53.35766 -2.62646 10,250 291 262 3584
2017-12-09 13:34:09 GMT 53.35827 -2.62913 10,350 290 261 3712
2017-12-09 13:34:07 GMT 53.35707 -2.62361 10,150 291 262 3584
2017-12-09 13:34:05 GMT 53.35625 -2.61969 10,025 291 262 3264
2017-12-09 13:34:03 GMT 53.35542 -2.61592 9,900 290 263 3200
2017-12-09 13:34:00 GMT 53.35436 -2.61119 9,775 291 263 3008
2017-12-09 13:33:58 GMT 53.35341 -2.60674 9,650 291 263 2816
2017-12-09 13:33:58 GMT 53.35341 -2.60674 9,650 291 263 2816
2017-12-09 13:33:56 GMT 53.35278 -2.60392 9,575 291 263 2688
2017-12-09 13:33:54 GMT 53.35171 -2.59913 9,475 291 261 2304
2017-12-09 13:33:52 GMT 53.35089 -2.59529 9,375 291 261 2176
2017-12-09 13:33:52 GMT 53.35110 -2.59633 9,400 291 261 2176
2017-12-09 13:33:50 GMT 53.35026 -2.59253 9,325 291 260 1984
2017-12-09 13:33:48 GMT 53.34892 -2.58634 9,200 291 256 2240
2017-12-09 13:33:46 GMT 53.34821 -2.58308 9,150 291 255 2496
2017-12-09 13:33:44 GMT 53.34742 -2.57944 9,050 291 254 2624
2017-12-09 13:33:42 GMT 53.34654 -2.57559 8,950 291 253 2816
2017-12-09 13:33:39 GMT 53.34535 -2.57002 8,800 291 252 3136
2017-12-09 13:33:37 GMT 53.34472 -2.56733 8,725 291 251 3328
2017-12-09 13:33:35 GMT 53.34416 -2.56474 8,625 291 251 3392
2017-12-09 13:33:33 GMT 53.34302 -2.55942 8,450 291 251 3264
2017-12-09 13:33:31 GMT 53.34242 -2.55691 8,375 291 251 3072
2017-12-09 13:33:29 GMT 53.34164 -2.55307 8,250 291 251 2816
2017-12-09 13:33:25 GMT 53.33965 -2.54447 8,025 291 250 2752
2017-12-09 13:33:23 GMT 53.33945 -2.54357 8,000 291 249 2688
2017-12-09 13:33:21 GMT 53.33834 -2.53865 7,875 291 248 2880
2017-12-09 13:33:19 GMT 53.33752 -2.53486 7,775 291 247 2880
2017-12-09 13:33:17 GMT 53.33698 -2.53243 7,700 291 245 3264
2017-12-09 13:33:15 GMT 53.33592 -2.52791 7,550 291 245 3328
2017-12-09 13:33:13 GMT 53.33523 -2.52475 7,450 291 245 3520
2017-12-09 13:33:11 GMT 53.33386 -2.51885 7,225 291 245 3648
2017-12-09 13:33:09 GMT 53.33369 -2.51797 7,200 291 245 3648
2017-12-09 13:33:07 GMT 53.33234 -2.51199 6,975 291 245 3648
2017-12-09 13:33:05 GMT 53.33189 -2.51006 6,925 291 245 3648
2017-12-09 13:33:03 GMT 53.33136 -2.50771 6,825 291 246 3648
2017-12-09 13:33:01 GMT 53.33038 -2.50351 6,675 291 246 3712
2017-12-09 13:32:59 GMT 53.32938 -2.49900 6,525 291 246 3776
2017-12-09 13:32:54 GMT 53.32722 -2.48953 6,175 291 246 3648
2017-12-09 13:32:51 GMT 53.32613 -2.48472 6,000 291 247 3520
2017-12-09 13:32:49 GMT 53.32562 -2.48228 5,925 290 247 3264
2017-12-09 13:32:47 GMT 53.32484 -2.47859 5,800 290 247 3264
2017-12-09 13:32:45 GMT 53.32384 -2.47396 5,650 289 246 3008
2017-12-09 13:32:43 GMT 53.32315 -2.47035 5,550 286 246 2944
2017-12-09 13:32:40 GMT 53.32233 -2.46586 5,425 274 242 3520
2017-12-09 13:32:38 GMT 53.32178 -2.46196 5,300 280 243 3200
2017-12-09 13:32:36 GMT 53.32132 -2.45756 5,175 277 242 3392
2017-12-09 13:32:34 GMT 53.32109 -2.45450 5,075 276 243 3456
2017-12-09 13:32:32 GMT 53.32091 -2.45160 4,975 274 242 3520
2017-12-09 13:32:29 GMT 53.32077 -2.44524 4,775 271 242 3520
2017-12-09 13:32:27 GMT 53.32072 -2.44289 4,700 271 242 3328
2017-12-09 13:32:24 GMT 53.32072 -2.43402 4,400 271 241 3136
2017-12-09 13:32:21 GMT 53.32068 -2.42884 4,250 271 240 2688
2017-12-09 13:32:19 GMT 53.32068 -2.42617 4,200 271 239 2624
2017-12-09 13:32:17 GMT 53.32068 -2.42437 4,150 271 238 2624
2017-12-09 13:32:15 GMT 53.32065 -2.41966 4,025 271 236 2240
2017-12-09 13:32:15 GMT 53.32065 -2.41901 4,025 271 236 2240
2017-12-09 13:32:12 GMT 53.32063 -2.41440 3,925 271 234 1984
2017-12-09 13:32:10 GMT 53.32059 -2.41017 3,825 271 231 1728
2017-12-09 13:32:08 GMT 53.32056 -2.40641 3,775 271 228 1472
2017-12-09 13:32:08 GMT 53.32056 -2.40641 3,775 271 228 1472
2017-12-09 13:32:06 GMT 53.32056 -2.40286 3,725 271 228 1472
2017-12-09 13:32:04 GMT 53.32059 -2.40028 3,675 270 224 1344
2017-12-09 13:32:02 GMT 53.32056 -2.39599 3,625 271 220 1408
2017-12-09 13:32:00 GMT 53.32056 -2.39251 3,575 271 218 1408
2017-12-09 13:32:00 GMT 53.32056 -2.39251 3,575 271 218 1408
2017-12-09 13:31:58 GMT 53.32051 -2.38751 3,500 271 216 1408
2017-12-09 13:31:56 GMT 53.32051 -2.38516 3,475 271 213 1152
2017-12-09 13:31:54 GMT 53.32050 -2.38278 3,425 271 211 1216
2017-12-09 13:31:51 GMT 53.32050 -2.37878 3,375 271 210 1216
2017-12-09 13:31:49 GMT 53.32045 -2.37368 3,300 272 206 1344
2017-12-09 13:31:49 GMT 53.32045 -2.37368 3,300 272 206 1344
2017-12-09 13:31:47 GMT 53.32045 -2.37171 3,275 272 204 1472
2017-12-09 13:31:45 GMT 53.32036 -2.36771 3,225 272 200 1216
2017-12-09 13:31:43 GMT 53.32033 -2.36440 3,175 271 197 1024
2017-12-09 13:31:39 GMT 53.32028 -2.35867 3,100 269 190 448
2017-12-09 13:31:37 GMT 53.32037 -2.35632 3,100 268 188 320
2017-12-09 13:31:34 GMT 53.32051 -2.35261 3,075 262 181 960
2017-12-09 13:31:32 GMT 53.32077 -2.34974 3,050 259 179 1088
2017-12-09 13:31:29 GMT 53.32137 -2.34519 3,000 249 176 1024
2017-12-09 13:31:27 GMT 53.32196 -2.34252 2,950 243 175 832
2017-12-09 13:31:25 GMT 53.32270 -2.34001 2,925 241 174 832
2017-12-09 13:31:23 GMT 53.32335 -2.33815 2,900 236 172 896
2017-12-09 13:31:21 GMT 53.32425 -2.33593 2,850 233 170 1024
2017-12-09 13:31:19 GMT 53.32526 -2.33381 2,825 232 168 1216
2017-12-09 13:31:17 GMT 53.32649 -2.33122 2,775 231 163 1344
2017-12-09 13:31:15 GMT 53.32754 -2.32910 2,725 231 158 1344
2017-12-09 13:31:13 GMT 53.32815 -2.32773 2,675 231 158 1344
2017-12-09 13:31:11 GMT 53.32915 -2.32573 2,625 231 156 1344
2017-12-09 13:31:09 GMT 53.33015 -2.32369 2,575 231 154 1344
2017-12-09 13:31:06 GMT 53.33148 -2.32094 2,500 231 149 1408
2017-12-09 13:31:04 GMT 53.33231 -2.31929 2,450 231 147 1344
2017-12-09 13:31:01 GMT 53.33346 -2.31690 2,400 231 144 1280
2017-12-09 13:30:58 GMT 53.33478 -2.31427 2,325 231 141 1280
2017-12-09 13:30:56 GMT 53.33579 -2.31223 2,275 231 137 1792
2017-12-09 13:30:53 GMT 53.33684 -2.31011 2,175 231 135 2048
2017-12-09 13:30:51 GMT 53.33762 -2.30846 2,125 231 134 2560
2017-12-09 13:30:47 GMT 53.33926 -2.30509 1,925 232 135 2752
2017-12-09 13:30:45 GMT 53.34032 -2.30297 1,800 232 135 2752
2017-12-09 13:30:43 GMT 53.34081 -2.30188 1,725 231 136 2816
2017-12-09 13:30:36 GMT 53.34366 -2.29606 1,375 232 140 3072
2017-12-09 13:30:34 GMT 53.34480 -2.29371 1,225 232 140 3136
2017-12-09 13:30:32 GMT 53.34535 -2.29253 1,150 232 141 3136
2017-12-09 13:30:26 GMT 53.34775 -2.28766 850 232 144 2560
2017-12-09 13:30:23 GMT 53.34891 -2.28516 700 232 144 2496
2017-12-09 13:30:21 GMT 53.34989 -2.28314 625 232 144 2496
2017-12-09 13:30:18 GMT 53.35115 -2.28047 500 232 146 2048
2017-12-09 13:30:15 GMT 53.35204 -2.27864 425 232 146 1984
2017-12-09 13:30:06 GMT 53.35610 -2.27013 0 230 135 0
2017-12-09 13:29:57 GMT 53.35897 -2.26415 0 230 96 0
2017-12-09 13:29:55 GMT 53.35936 -2.26332 0 230 88 0
2017-12-09 13:29:47 GMT 53.36115 -2.25965 0 233 50 0
2017-12-09 13:29:44 GMT 53.36149 -2.25891 0 230 35 0
2017-12-09 13:29:37 GMT 53.36192 -2.25799 0 230 7 0
2017-12-09 13:29:35 GMT 53.36196 -2.25793 0 230 7 0
2017-12-09 13:29:27 GMT 53.36207 -2.25767 0 222 6 0
2017-12-09 13:29:25 GMT 53.36209 -2.25761 0 213 7 0
2017-12-09 13:29:17 GMT 53.36232 -2.25740 0 163 10 0
2017-12-09 13:29:15 GMT 53.36236 -2.25741 0 154 11 0
2017-12-09 13:29:04 GMT 53.36282 -2.25810 0 112 14 0
2017-12-09 13:28:54 GMT 53.36288 -2.25902 0 73 12 0
2017-12-09 13:28:37 GMT 53.36268 -2.25999 0 92 6 0
2017-12-09 13:28:23 GMT 53.36269 -2.26030 0 98 0 0
2017-12-09 13:27:53 GMT 53.36269 -2.26030 0 98 0 0
2017-12-09 13:26:57 GMT 53.36269 -2.26030 0 98 0 0
2017-12-09 13:26:47 GMT 53.36269 -2.26030 0 98 0 0
2017-12-09 13:26:37 GMT 53.36269 -2.26030 0 98 0 0
2017-12-09 13:26:22 GMT 53.36269 -2.26030 0 98 0 0
2017-12-09 13:26:07 GMT 53.36269 -2.26030 0 98 0 0
2017-12-09 13:25:37 GMT 53.36269 -2.26030 0 98 0 0
2017-12-09 13:25:18 GMT 53.36270 -2.26030 0 98 0 0
2017-12-09 13:25:10 GMT 53.36270 -2.26032 0 98 0 0
2017-12-09 13:24:54 GMT 53.36272 -2.26048 0 87 4 0
2017-12-09 13:24:41 GMT 53.36269 -2.26095 0 59 7 0
2017-12-09 13:24:27 GMT 53.36244 -2.26156 0 50 11 0
2017-12-09 13:24:02 GMT 53.36158 -2.26286 0 50 8 0
2017-12-09 13:23:56 GMT 53.36145 -2.26312 0 50 11 0
2017-12-09 13:23:46 GMT 53.36104 -2.26397 0 50 21 0
2017-12-09 13:23:35 GMT 53.36046 -2.26518 0 50 17 0
2017-12-09 13:23:30 GMT 53.36018 -2.26573 0 50 20 0
2017-12-09 13:23:26 GMT 53.36000 -2.26613 0 50 22 0
2017-12-09 13:23:19 GMT 53.35957 -2.26702 0 50 21 0
2017-12-09 13:23:16 GMT 53.35940 -2.26740 0 53 21 0
2017-12-09 13:23:06 GMT 53.35892 -2.26856 0 53 18 0
2017-12-09 13:22:55 GMT 53.35843 -2.26964 0 59 17 0
2017-12-09 13:22:46 GMT 53.35807 -2.27064 0 56 17 0
2017-12-09 13:22:34 GMT 53.35756 -2.27177 0 50 16 0
2017-12-09 13:22:28 GMT 53.35729 -2.27231 0 50 15 0
2017-12-09 13:22:25 GMT 53.35720 -2.27252 0 50 15 0
2017-12-09 13:22:15 GMT 53.35678 -2.27336 0 50 14 0
2017-12-09 13:22:04 GMT 53.35637 -2.27421 0 42 13 0
We lost coverage of the aircraft here for a total of 215 minutes
2017-12-09 09:47:16 GMT 53.35608 -2.27898 0 5 22 0
2017-12-09 09:47:03 GMT 53.35492 -2.27919 0 11 20 0
2017-12-09 09:46:57 GMT 53.35443 -2.27948 0 39 18 0
2017-12-09 09:46:34 GMT 53.35317 -2.28147 0 45 12 0
2017-12-09 09:46:24 GMT 53.35283 -2.28196 0 22 12 0
2017-12-09 09:46:20 GMT 53.35261 -2.28204 0 345 11 0
2017-12-09 09:46:04 GMT 53.35243 -2.28053 0 264 27 0
2017-12-09 09:45:48 GMT 53.35303 -2.27674 0 239 41 0
2017-12-09 09:45:43 GMT 53.35345 -2.27564 0 233 48 0
2017-12-09 09:45:39 GMT 53.35403 -2.27444 0 230 58 0
2017-12-09 09:45:35 GMT 53.35484 -2.27276 0 230 76 0
2017-12-09 09:45:32 GMT 53.35534 -2.27170 0 230 82 0
2017-12-09 09:45:29 GMT 53.35606 -2.27021 0 230 96 0
2017-12-09 09:45:22 GMT 53.35836 -2.26545 175 231 122 0
2017-12-09 09:45:18 GMT 53.35976 -2.26254 175 232 124 -256
2017-12-09 09:45:11 GMT 53.36261 -2.25667 275 231 123 -576
2017-12-09 09:45:09 GMT 53.36311 -2.25559 300 231 123 -640
2017-12-09 09:45:03 GMT 53.36548 -2.25074 375 232 123 -704
2017-12-09 09:44:59 GMT 53.36664 -2.24827 425 232 123 -512
2017-12-09 09:44:56 GMT 53.36778 -2.24592 450 232 123 -640
2017-12-09 09:44:54 GMT 53.36832 -2.24477 475 231 123 -640
2017-12-09 09:44:52 GMT 53.36906 -2.24325 500 231 123 -640
2017-12-09 09:44:50 GMT 53.36986 -2.24170 525 232 123 -448
2017-12-09 09:44:48 GMT 53.37039 -2.24058 525 232 123 -704
2017-12-09 09:44:44 GMT 53.37186 -2.23750 575 232 123 -640
2017-12-09 09:44:42 GMT 53.37284 -2.23548 600 231 123 -704
2017-12-09 09:44:40 GMT 53.37351 -2.23407 625 231 123 -704
2017-12-09 09:44:37 GMT 53.37474 -2.23148 675 231 123 -704
2017-12-09 09:44:34 GMT 53.37547 -2.23007 700 232 123 -576
2017-12-09 09:44:31 GMT 53.37698 -2.22691 750 231 123 -704
2017-12-09 09:44:27 GMT 53.37790 -2.22497 775 232 123 -704
2017-12-09 09:44:23 GMT 53.37926 -2.22215 825 231 123 -704
2017-12-09 09:44:21 GMT 53.38060 -2.21932 875 231 123 -576
2017-12-09 09:44:18 GMT 53.38147 -2.21759 900 232 124 -640
2017-12-09 09:44:14 GMT 53.38276 -2.21496 925 231 125 -704
2017-12-09 09:44:10 GMT 53.38431 -2.21170 975 232 125 -640
2017-12-09 09:44:07 GMT 53.38559 -2.20906 1,025 232 125 -640
2017-12-09 09:44:04 GMT 53.38657 -2.20712 1,050 232 125 -704
2017-12-09 09:44:00 GMT 53.38788 -2.20433 1,100 232 125 -704
2017-12-09 09:43:58 GMT 53.38856 -2.20299 1,125 232 125 -640
2017-12-09 09:43:56 GMT 53.38934 -2.20127 1,150 232 125 -640
2017-12-09 09:43:53 GMT 53.39020 -2.19953 1,175 232 125 -576
2017-12-09 09:43:50 GMT 53.39182 -2.19617 1,225 232 125 -576
2017-12-09 09:43:47 GMT 53.39278 -2.19413 1,250 232 126 -576
2017-12-09 09:43:45 GMT 53.39355 -2.19258 1,275 231 129 -576
2017-12-09 09:43:43 GMT 53.39393 -2.19177 1,275 232 127 -576
2017-12-09 09:43:39 GMT 53.39557 -2.18840 1,325 231 129 -576
2017-12-09 09:43:36 GMT 53.39648 -2.18652 1,375 231 130 -704
2017-12-09 09:43:32 GMT 53.39798 -2.18345 1,400 232 130 -768
2017-12-09 09:43:29 GMT 53.39946 -2.18031 1,475 232 133 -832
2017-12-09 09:43:27 GMT 53.40026 -2.17861 1,500 232 133 -832
2017-12-09 09:43:25 GMT 53.40086 -2.17739 1,525 232 133 -832
2017-12-09 09:43:23 GMT 53.40152 -2.17602 1,550 232 134 -768
2017-12-09 09:43:19 GMT 53.40333 -2.17214 1,625 232 135 -832
2017-12-09 09:43:17 GMT 53.40412 -2.17053 1,650 232 137 -704
2017-12-09 09:43:12 GMT 53.40596 -2.16682 1,700 232 140 -768
2017-12-09 09:43:09 GMT 53.40761 -2.16337 1,750 232 146 -704
2017-12-09 09:43:06 GMT 53.40827 -2.16196 1,775 232 148 -640
2017-12-09 09:43:03 GMT 53.40980 -2.15874 1,800 232 150 -832
2017-12-09 09:42:58 GMT 53.41199 -2.15429 1,875 231 152 -640
2017-12-09 09:42:56 GMT 53.41406 -2.14995 1,950 231 155 -896
2017-12-09 09:42:53 GMT 53.41434 -2.14940 1,950 231 155 -896
2017-12-09 09:42:49 GMT 53.41580 -2.14642 2,000 232 157 -512
2017-12-09 09:42:47 GMT 53.41702 -2.14387 2,025 232 159 -832
2017-12-09 09:42:44 GMT 53.41855 -2.14064 2,075 232 160 -896
2017-12-09 09:42:41 GMT 53.42000 -2.13765 2,125 232 160 -896
2017-12-09 09:42:39 GMT 53.42083 -2.13595 2,150 232 161 -768
2017-12-09 09:42:37 GMT 53.42152 -2.13449 2,175 232 160 -768
2017-12-09 09:42:35 GMT 53.42242 -2.13264 2,225 232 160 -768
2017-12-09 09:42:34 GMT 53.42335 -2.13070 2,250 232 160 -768
2017-12-09 09:42:32 GMT 53.42381 -2.12973 2,250 232 159 -768
2017-12-09 09:42:28 GMT 53.42614 -2.12480 2,325 232 159 -768
2017-12-09 09:42:26 GMT 53.42725 -2.12248 2,375 232 159 -832
2017-12-09 09:42:22 GMT 53.42828 -2.12036 2,400 232 159 -832
2017-12-09 09:42:20 GMT 53.42931 -2.11832 2,425 232 160 -832
2017-12-09 09:42:17 GMT 53.43103 -2.11471 2,475 232 160 -960
2017-12-09 09:42:15 GMT 53.43191 -2.11285 2,525 232 160 -832
2017-12-09 09:42:13 GMT 53.43317 -2.11026 2,550 232 160 -896
2017-12-09 09:42:11 GMT 53.43361 -2.10930 2,575 232 161 -960
2017-12-09 09:42:07 GMT 53.43559 -2.10526 2,650 232 161 -960
2017-12-09 09:42:05 GMT 53.43654 -2.10325 2,675 232 161 -960
2017-12-09 09:42:02 GMT 53.43783 -2.10057 2,725 232 161 -960
2017-12-09 09:41:59 GMT 53.43974 -2.09658 2,800 232 161 -960
2017-12-09 09:41:57 GMT 53.44057 -2.09486 2,825 232 161 -960
2017-12-09 09:41:55 GMT 53.44109 -2.09378 2,850 232 162 -960
2017-12-09 09:41:51 GMT 53.44313 -2.08942 2,925 232 162 -896
2017-12-09 09:41:48 GMT 53.44450 -2.08662 2,975 232 162 -832
2017-12-09 09:41:45 GMT 53.44592 -2.08364 3,025 232 163 -832
2017-12-09 09:41:42 GMT 53.44734 -2.08065 3,075 232 163 -896
2017-12-09 09:41:38 GMT 53.44922 -2.07665 3,125 232 164 -832
2017-12-09 09:41:36 GMT 53.45021 -2.07456 3,150 232 165 -832
2017-12-09 09:41:34 GMT 53.45091 -2.07312 3,175 232 165 -768
2017-12-09 09:41:32 GMT 53.45212 -2.07052 3,225 232 165 -768
2017-12-09 09:41:30 GMT 53.45305 -2.06858 3,250 232 165 -768
2017-12-09 09:41:28 GMT 53.45398 -2.06664 3,275 232 166 -768
2017-12-09 09:41:26 GMT 53.45538 -2.06365 3,325 232 166 -704
2017-12-09 09:41:24 GMT 53.45617 -2.06204 3,325 233 166 -768
2017-12-09 09:41:22 GMT 53.45709 -2.05994 3,375 233 167 -704
2017-12-09 09:41:20 GMT 53.45824 -2.05742 3,400 233 168 -704
2017-12-09 09:41:18 GMT 53.45896 -2.05590 3,425 233 168 -640
2017-12-09 09:41:18 GMT 53.45896 -2.05590 3,425 233 168 -640
2017-12-09 09:41:15 GMT 53.45980 -2.05404 3,450 233 169 -576
2017-12-09 09:41:13 GMT 53.46080 -2.05178 3,450 233 172 -192
2017-12-09 09:41:11 GMT 53.46185 -2.04950 3,475 234 171 -256
2017-12-09 09:41:07 GMT 53.46378 -2.04526 3,500 233 174 0
2017-12-09 09:41:05 GMT 53.46538 -2.04168 3,500 234 184 256
2017-12-09 09:41:03 GMT 53.46604 -2.04023 3,475 234 181 512
2017-12-09 09:41:01 GMT 53.46683 -2.03845 3,475 234 184 256
2017-12-09 09:40:57 GMT 53.46886 -2.03388 3,450 234 188 0
2017-12-09 09:40:55 GMT 53.46986 -2.03153 3,450 235 189 -64
2017-12-09 09:40:53 GMT 53.47138 -2.02800 3,450 235 190 0
2017-12-09 09:40:50 GMT 53.47211 -2.02627 3,450 236 191 0
2017-12-09 09:40:47 GMT 53.47404 -2.02148 3,450 239 194 0
2017-12-09 09:40:45 GMT 53.47476 -2.01952 3,450 241 195 0
2017-12-09 09:40:43 GMT 53.47600 -2.01575 3,450 244 197 0
2017-12-09 09:40:41 GMT 53.47700 -2.01230 3,425 251 201 128
2017-12-09 09:40:40 GMT 53.47684 -2.01292 3,450 248 199 64
2017-12-09 09:40:37 GMT 53.47829 -2.00618 3,425 267 206 0
2017-12-09 09:40:35 GMT 53.47865 -2.00367 3,425 265 205 0
2017-12-09 09:40:32 GMT 53.47893 -2.00129 3,425 265 205 0
2017-12-09 09:40:30 GMT 53.47912 -1.99822 3,425 267 207 0
2017-12-09 09:40:28 GMT 53.47930 -1.99305 3,425 268 211 -128
2017-12-09 09:40:25 GMT 53.47939 -1.98829 3,425 269 215 -64
2017-12-09 09:40:23 GMT 53.47944 -1.98643 3,425 268 215 -128
2017-12-09 09:40:21 GMT 53.47954 -1.98069 3,450 269 215 -64
2017-12-09 09:40:19 GMT 53.47958 -1.97810 3,450 269 215 0
2017-12-09 09:40:16 GMT 53.47968 -1.97374 3,450 269 216 -128
2017-12-09 09:40:13 GMT 53.47975 -1.96954 3,450 269 217 -128
2017-12-09 09:40:11 GMT 53.47982 -1.96429 3,475 269 218 -192
2017-12-09 09:40:09 GMT 53.47986 -1.96267 3,475 269 219 -256
2017-12-09 09:40:06 GMT 53.47996 -1.95694 3,475 269 220 -384
2017-12-09 09:40:04 GMT 53.47996 -1.95524 3,500 269 221 -384
2017-12-09 09:40:02 GMT 53.48007 -1.94882 3,525 269 223 -576
2017-12-09 09:40:00 GMT 53.48007 -1.94709 3,525 269 223 -576
2017-12-09 09:39:58 GMT 53.48014 -1.94078 3,575 269 226 -576
2017-12-09 09:39:56 GMT 53.48016 -1.93885 3,575 270 227 -576
2017-12-09 09:39:53 GMT 53.48021 -1.93038 3,625 270 231 -576
2017-12-09 09:39:49 GMT 53.48030 -1.92496 3,650 270 234 -576
2017-12-09 09:39:46 GMT 53.48035 -1.92072 3,675 270 234 -576
2017-12-09 09:39:44 GMT 53.48038 -1.91800 3,700 269 235 -576
2017-12-09 09:39:41 GMT 53.48042 -1.91211 3,725 269 238 -576
2017-12-09 09:39:39 GMT 53.48044 -1.91044 3,725 269 238 -576
2017-12-09 09:39:34 GMT 53.48058 -1.89899 3,800 269 241 -768
2017-12-09 09:39:32 GMT 53.48062 -1.89710 3,825 269 242 -832
2017-12-09 09:39:30 GMT 53.48065 -1.89248 3,850 269 244 -960
2017-12-09 09:39:28 GMT 53.48075 -1.88755 3,900 269 244 -1856
2017-12-09 09:39:25 GMT 53.48085 -1.88204 4,000 269 244 -1920
2017-12-09 09:39:24 GMT 53.48084 -1.88294 3,975 269 244 -1920
2017-12-09 09:39:22 GMT 53.48093 -1.87842 4,050 269 243 -1856
2017-12-09 09:39:20 GMT 53.48103 -1.87244 4,175 268 243 -2048
2017-12-09 09:39:18 GMT 53.48112 -1.86885 4,250 268 241 -2304
2017-12-09 09:39:15 GMT 53.48121 -1.86339 4,375 268 240 -2496
2017-12-09 09:39:13 GMT 53.48126 -1.86162 4,425 268 240 -2496
2017-12-09 09:39:11 GMT 53.48140 -1.85692 4,525 268 239 -2432
2017-12-09 09:39:09 GMT 53.48149 -1.85324 4,600 268 239 -2560
2017-12-09 09:39:09 GMT 53.48149 -1.85324 4,600 268 239 -2560
2017-12-09 09:39:07 GMT 53.48158 -1.84876 4,725 268 239 -2368
2017-12-09 09:39:04 GMT 53.48168 -1.84425 4,825 268 239 -2368
2017-12-09 09:39:02 GMT 53.48182 -1.83859 4,950 268 239 -2304
2017-12-09 09:38:59 GMT 53.48199 -1.83291 5,075 268 239 -2176
2017-12-09 09:38:57 GMT 53.48205 -1.83003 5,150 268 239 -2048
2017-12-09 09:38:55 GMT 53.48209 -1.82844 5,175 268 239 -2048
2017-12-09 09:38:53 GMT 53.48222 -1.82357 5,275 268 240 -1536
2017-12-09 09:38:50 GMT 53.48236 -1.81800 5,350 268 241 -1408
2017-12-09 09:38:48 GMT 53.48250 -1.81353 5,425 268 241 -1088
2017-12-09 09:38:46 GMT 53.48264 -1.80835 5,475 268 243 -768
2017-12-09 09:38:44 GMT 53.48268 -1.80568 5,500 268 243 -640
2017-12-09 09:38:42 GMT 53.48277 -1.80270 5,500 268 244 -448
2017-12-09 09:38:40 GMT 53.48289 -1.79869 5,525 268 244 -448
2017-12-09 09:38:38 GMT 53.48300 -1.79391 5,550 268 244 -448
2017-12-09 09:38:36 GMT 53.48303 -1.79303 5,550 268 244 -448
2017-12-09 09:38:34 GMT 53.48318 -1.78724 5,575 268 244 -448
2017-12-09 09:38:31 GMT 53.48332 -1.77963 5,625 268 245 -448
2017-12-09 09:38:29 GMT 53.48337 -1.77774 5,625 268 245 -448
2017-12-09 09:38:27 GMT 53.48351 -1.77319 5,650 268 245 -384
2017-12-09 09:38:27 GMT 53.48345 -1.77413 5,650 268 245 -448
2017-12-09 09:38:25 GMT 53.48354 -1.77025 5,650 268 245 -512
2017-12-09 09:38:23 GMT 53.48359 -1.76767 5,675 268 246 -512
2017-12-09 09:38:21 GMT 53.48373 -1.76234 5,700 268 246 -448
2017-12-09 09:38:19 GMT 53.48377 -1.75967 5,700 268 246 -448
2017-12-09 09:38:17 GMT 53.48391 -1.75466 5,725 268 247 -448
2017-12-09 09:38:17 GMT 53.48392 -1.75381 5,725 268 247 -448
2017-12-09 09:38:15 GMT 53.48396 -1.75191 5,750 268 247 -512
2017-12-09 09:38:13 GMT 53.48410 -1.74534 5,775 269 247 -448
2017-12-09 09:38:11 GMT 53.48410 -1.74513 5,775 269 247 -448
2017-12-09 09:38:09 GMT 53.48419 -1.74053 5,800 269 247 -448
2017-12-09 09:38:07 GMT 53.48428 -1.73655 5,800 269 247 -448
2017-12-09 09:38:05 GMT 53.48433 -1.73388 5,825 268 247 -448
2017-12-09 09:38:03 GMT 53.48443 -1.72954 5,850 268 247 -384
2017-12-09 09:38:01 GMT 53.48447 -1.72574 5,850 268 247 -384
2017-12-09 09:37:59 GMT 53.48461 -1.72001 5,875 268 247 -384
2017-12-09 09:37:57 GMT 53.48470 -1.71591 5,900 268 247 -384
2017-12-09 09:37:55 GMT 53.48475 -1.71387 5,900 268 247 -384
2017-12-09 09:37:53 GMT 53.48484 -1.70886 5,925 268 247 -384
2017-12-09 09:37:51 GMT 53.48492 -1.70602 5,925 268 247 -448
2017-12-09 09:37:48 GMT 53.48506 -1.70068 5,950 268 246 -320
2017-12-09 09:37:48 GMT 53.48506 -1.70068 5,950 268 246 -320
2017-12-09 09:37:46 GMT 53.48517 -1.69472 5,975 268 246 -448
2017-12-09 09:37:44 GMT 53.48524 -1.69268 5,975 268 246 -448
2017-12-09 09:37:42 GMT 53.48531 -1.68866 6,000 268 246 -448
2017-12-09 09:37:40 GMT 53.48538 -1.68656 6,000 268 246 -448
2017-12-09 09:37:38 GMT 53.48550 -1.68107 6,025 268 246 -448
2017-12-09 09:37:36 GMT 53.48559 -1.67687 6,050 268 246 -448
2017-12-09 09:37:34 GMT 53.48564 -1.67420 6,050 268 246 -448
2017-12-09 09:37:32 GMT 53.48575 -1.66874 6,075 268 246 -512
2017-12-09 09:37:31 GMT 53.48577 -1.66774 6,100 268 246 -512
2017-12-09 09:37:30 GMT 53.48584 -1.66553 6,100 268 246 -512
2017-12-09 09:37:28 GMT 53.48589 -1.66184 6,125 268 247 -448
2017-12-09 09:37:26 GMT 53.48596 -1.65861 6,125 268 247 -512
2017-12-09 09:37:24 GMT 53.48607 -1.65352 6,150 268 247 -512
2017-12-09 09:37:22 GMT 53.48615 -1.65053 6,175 268 247 -512
2017-12-09 09:37:20 GMT 53.48625 -1.64654 6,200 268 248 -384
2017-12-09 09:37:17 GMT 53.48633 -1.64165 6,225 268 247 -448
2017-12-09 09:37:14 GMT 53.48652 -1.63470 6,250 268 247 -448
2017-12-09 09:37:13 GMT 53.48652 -1.63284 6,250 268 247 -448
2017-12-09 09:37:11 GMT 53.48662 -1.62951 6,275 268 247 -384
2017-12-09 09:37:09 GMT 53.48671 -1.62646 6,275 268 247 -384
2017-12-09 09:37:06 GMT 53.48685 -1.61911 6,300 268 246 -384
2017-12-09 09:37:03 GMT 53.48698 -1.61224 6,325 268 245 -320
2017-12-09 09:37:01 GMT 53.48708 -1.60863 6,350 268 245 -320
2017-12-09 09:36:59 GMT 53.48717 -1.60578 6,350 268 246 -384
2017-12-09 09:36:57 GMT 53.48722 -1.60320 6,350 268 245 -384
2017-12-09 09:36:55 GMT 53.48731 -1.59932 6,375 268 246 -384
2017-12-09 09:36:53 GMT 53.48735 -1.59608 6,375 268 246 -512
2017-12-09 09:36:51 GMT 53.48744 -1.59113 6,400 269 248 -512
2017-12-09 09:36:49 GMT 53.48753 -1.58760 6,425 269 249 -576
2017-12-09 09:36:47 GMT 53.48758 -1.58462 6,425 269 250 -704
2017-12-09 09:36:45 GMT 53.48768 -1.57969 6,475 269 253 -832
2017-12-09 09:36:43 GMT 53.48776 -1.57646 6,500 269 253 -832
2017-12-09 09:36:41 GMT 53.48781 -1.57167 6,525 269 255 -768
2017-12-09 09:36:39 GMT 53.48792 -1.56709 6,550 269 257 -704
2017-12-09 09:36:36 GMT 53.48796 -1.56264 6,575 269 258 -768
2017-12-09 09:36:34 GMT 53.48806 -1.55966 6,600 269 259 -832
2017-12-09 09:36:32 GMT 53.48810 -1.55473 6,650 269 261 -1024
2017-12-09 09:36:30 GMT 53.48822 -1.54852 6,700 269 262 -1152
2017-12-09 09:36:28 GMT 53.48827 -1.54656 6,725 269 262 -1280
2017-12-09 09:36:26 GMT 53.48836 -1.54123 6,775 269 263 -1344
2017-12-09 09:36:24 GMT 53.48845 -1.53589 6,825 269 263 -1152
2017-12-09 09:36:22 GMT 53.48852 -1.53211 6,875 269 263 -1024
2017-12-09 09:36:20 GMT 53.48857 -1.52872 6,900 269 264 -832
2017-12-09 09:36:18 GMT 53.48863 -1.52577 6,925 269 264 -768
2017-12-09 09:36:16 GMT 53.48868 -1.52278 6,950 269 266 -320
2017-12-09 09:36:14 GMT 53.48877 -1.51745 6,975 269 266 -256
2017-12-09 09:36:12 GMT 53.48886 -1.51258 6,975 268 267 -64
2017-12-09 09:36:10 GMT 53.48894 -1.50900 7,000 268 267 -64
2017-12-09 09:36:08 GMT 53.48899 -1.50618 7,000 268 268 -64
2017-12-09 09:36:06 GMT 53.48913 -1.50117 7,000 268 269 0
2017-12-09 09:36:04 GMT 53.48917 -1.49826 7,000 269 270 0
2017-12-09 09:36:02 GMT 53.48932 -1.49186 7,000 269 270 0
2017-12-09 09:36:00 GMT 53.48936 -1.48986 7,000 269 271 0
2017-12-09 09:35:58 GMT 53.48946 -1.48213 7,000 270 273 -64
2017-12-09 09:35:56 GMT 53.48946 -1.48009 7,000 270 274 -64
2017-12-09 09:35:54 GMT 53.48950 -1.47637 7,000 271 275 0
2017-12-09 09:35:51 GMT 53.48945 -1.47023 7,000 272 276 -128
2017-12-09 09:35:49 GMT 53.48932 -1.46205 7,000 273 278 0
2017-12-09 09:35:47 GMT 53.48931 -1.46142 7,000 273 278 0
2017-12-09 09:35:45 GMT 53.48917 -1.45625 7,000 274 280 0
2017-12-09 09:35:43 GMT 53.48903 -1.45238 7,000 274 283 0
2017-12-09 09:35:41 GMT 53.48877 -1.44604 7,000 274 285 0
2017-12-09 09:35:39 GMT 53.48872 -1.44470 7,000 274 286 0
2017-12-09 09:35:37 GMT 53.48845 -1.43803 7,000 274 289 0
2017-12-09 09:35:37 GMT 53.48854 -1.44031 7,000 274 289 0
2017-12-09 09:35:35 GMT 53.48836 -1.43576 7,000 274 291 0
2017-12-09 09:35:33 GMT 53.48817 -1.43081 7,000 275 295 0
2017-12-09 09:35:33 GMT 53.48817 -1.43081 7,000 275 294 0
2017-12-09 09:35:31 GMT 53.48790 -1.42399 7,000 275 298 0
2017-12-09 09:35:29 GMT 53.48776 -1.42116 7,000 275 304 64
2017-12-09 09:35:27 GMT 53.48744 -1.41425 6,975 275 304 64
2017-12-09 09:35:25 GMT 53.48731 -1.41158 6,975 275 307 64
2017-12-09 09:35:23 GMT 53.48712 -1.40711 6,975 275 308 0
2017-12-09 09:35:21 GMT 53.48685 -1.40068 6,975 275 313 128
2017-12-09 09:35:19 GMT 53.48671 -1.39817 6,975 275 314 64
2017-12-09 09:35:17 GMT 53.48644 -1.39220 6,975 275 317 64
2017-12-09 09:35:15 GMT 53.48619 -1.38751 6,975 275 322 64
2017-12-09 09:35:13 GMT 53.48598 -1.38271 6,975 275 326 64
2017-12-09 09:35:12 GMT 53.48591 -1.38145 6,975 275 326 64
2017-12-09 09:35:10 GMT 53.48552 -1.37313 6,950 275 330 192
2017-12-09 09:35:08 GMT 53.48531 -1.36949 6,950 275 331 0
2017-12-09 09:35:06 GMT 53.48502 -1.36301 6,975 275 334 -64
2017-12-09 09:35:04 GMT 53.48475 -1.35730 6,975 275 336 0
2017-12-09 09:35:04 GMT 53.48475 -1.35730 6,975 275 336 0
2017-12-09 09:35:01 GMT 53.48438 -1.34970 6,975 275 335 0
2017-12-09 09:34:59 GMT 53.48419 -1.34518 6,975 275 335 -128
2017-12-09 09:34:57 GMT 53.48410 -1.34284 6,975 275 335 0
2017-12-09 09:34:55 GMT 53.48383 -1.33664 6,975 275 335 0
2017-12-09 09:34:52 GMT 53.48351 -1.32990 6,975 275 335 -64
2017-12-09 09:34:50 GMT 53.48321 -1.32329 6,975 275 335 0
2017-12-09 09:34:48 GMT 53.48303 -1.31876 7,000 275 336 0
2017-12-09 09:34:46 GMT 53.48275 -1.31198 7,000 275 336 0
2017-12-09 09:34:44 GMT 53.48259 -1.30847 6,975 275 336 0
2017-12-09 09:34:42 GMT 53.48222 -1.30078 7,000 275 337 -64
2017-12-09 09:34:39 GMT 53.48196 -1.29429 7,000 275 336 0
2017-12-09 09:34:37 GMT 53.48177 -1.29000 7,000 275 336 0
2017-12-09 09:34:35 GMT 53.48145 -1.28250 7,000 275 337 0
2017-12-09 09:34:32 GMT 53.48117 -1.27603 7,000 275 337 -64
2017-12-09 09:34:30 GMT 53.48089 -1.26973 7,000 275 337 -64
2017-12-09 09:34:27 GMT 53.48062 -1.26374 7,000 275 337 0
2017-12-09 09:34:25 GMT 53.48025 -1.25589 7,000 275 337 0
2017-12-09 09:34:23 GMT 53.48014 -1.25309 7,000 275 337 0
2017-12-09 09:34:21 GMT 53.47996 -1.24937 7,000 275 337 0
2017-12-09 09:34:19 GMT 53.47975 -1.24397 7,000 275 338 0
2017-12-09 09:34:17 GMT 53.47929 -1.23408 7,000 275 338 -192
2017-12-09 09:34:15 GMT 53.47916 -1.23086 7,000 275 339 -384
2017-12-09 09:34:13 GMT 53.47888 -1.22514 7,025 275 340 -448
2017-12-09 09:34:10 GMT 53.47861 -1.21851 7,050 275 342 -640
2017-12-09 09:34:08 GMT 53.47837 -1.21367 7,050 275 341 -640
2017-12-09 09:34:06 GMT 53.47819 -1.20928 7,075 275 342 -768
2017-12-09 09:34:03 GMT 53.47778 -1.20073 7,125 275 344 -832
2017-12-09 09:34:01 GMT 53.47742 -1.19280 7,175 275 345 -896
2017-12-09 09:33:59 GMT 53.47730 -1.18975 7,200 275 345 -896
2017-12-09 09:33:57 GMT 53.47702 -1.18402 7,225 275 345 -896
2017-12-09 09:33:55 GMT 53.47673 -1.17836 7,275 275 345 -896
2017-12-09 09:33:53 GMT 53.47655 -1.17467 7,300 275 345 -960
2017-12-09 09:33:51 GMT 53.47619 -1.16802 7,350 275 346 -960
2017-12-09 09:33:49 GMT 53.47600 -1.16384 7,375 275 346 -960
2017-12-09 09:33:47 GMT 53.47568 -1.15757 7,400 275 346 -832
2017-12-09 09:33:45 GMT 53.47531 -1.15011 7,450 275 345 -896
2017-12-09 09:33:43 GMT 53.47513 -1.14736 7,475 275 345 -896
2017-12-09 09:33:41 GMT 53.47485 -1.14164 7,500 275 345 -896
2017-12-09 09:33:39 GMT 53.47451 -1.13490 7,550 275 345 -960
2017-12-09 09:33:36 GMT 53.47400 -1.12537 7,600 276 344 -960
2017-12-09 09:33:34 GMT 53.47385 -1.12233 7,625 276 344 -1024
2017-12-09 09:33:32 GMT 53.47372 -1.11996 7,650 276 344 -1024
2017-12-09 09:33:30 GMT 53.47330 -1.11221 7,700 276 344 -1024
2017-12-09 09:33:28 GMT 53.47279 -1.10326 7,775 276 344 -1280
2017-12-09 09:33:28 GMT 53.47307 -1.10805 7,725 276 344 -1024
2017-12-09 09:33:25 GMT 53.47237 -1.09532 7,800 276 343 -1280
2017-12-09 09:33:23 GMT 53.47218 -1.09185 7,850 276 343 -1344
2017-12-09 09:33:21 GMT 53.47190 -1.08652 7,900 276 343 -1344
2017-12-09 09:33:19 GMT 53.47174 -1.08317 7,950 275 342 -1408
2017-12-09 09:33:16 GMT 53.47133 -1.07525 8,025 275 342 -1344
2017-12-09 09:33:14 GMT 53.47102 -1.06899 8,075 275 342 -1344
2017-12-09 09:33:12 GMT 53.47087 -1.06520 8,100 275 342 -1344
2017-12-09 09:33:10 GMT 53.47037 -1.05288 8,200 273 343 -1344
2017-12-09 09:33:08 GMT 53.47037 -1.05288 8,200 274 342 -1280
2017-12-09 09:33:06 GMT 53.47023 -1.04872 8,250 273 343 -1344
2017-12-09 09:33:04 GMT 53.47009 -1.04152 8,325 271 345 -1344
2017-12-09 09:33:02 GMT 53.47005 -1.03750 8,350 270 345 -1344
2017-12-09 09:32:58 GMT 53.47013 -1.02706 8,450 269 346 -1152
2017-12-09 09:32:55 GMT 53.47032 -1.01780 8,525 267 345 -1280
2017-12-09 09:32:53 GMT 53.47046 -1.01349 8,575 267 345 -1280
2017-12-09 09:32:51 GMT 53.47069 -1.00840 8,600 265 346 -1280
2017-12-09 09:32:49 GMT 53.47102 -1.00194 8,650 265 347 -1408
2017-12-09 09:32:47 GMT 53.47119 -0.99905 8,700 265 347 -1472
2017-12-09 09:32:45 GMT 53.47158 -0.99224 8,750 265 350 -1792
2017-12-09 09:32:43 GMT 53.47188 -0.98720 8,800 265 350 -1792
2017-12-09 09:32:41 GMT 53.47214 -0.98198 8,875 265 351 -1984
2017-12-09 09:32:39 GMT 53.47260 -0.97334 8,975 265 355 -2048
2017-12-09 09:32:37 GMT 53.47283 -0.96938 9,025 265 355 -2048
2017-12-09 09:32:35 GMT 53.47307 -0.96491 9,100 265 356 -2240
2017-12-09 09:32:33 GMT 53.47335 -0.96009 9,150 265 357 -2432
2017-12-09 09:32:31 GMT 53.47372 -0.95306 9,275 265 358 -2624
2017-12-09 09:32:28 GMT 53.47417 -0.94553 9,400 265 359 -3008
2017-12-09 09:32:25 GMT 53.47465 -0.93755 9,550 265 360 -3456
2017-12-09 09:32:23 GMT 53.47499 -0.93062 9,725 267 359 -3520
2017-12-09 09:32:21 GMT 53.47527 -0.92442 9,850 267 359 -3584
2017-12-09 09:32:18 GMT 53.47544 -0.91582 10,050 272 357 -3776
2017-12-09 09:32:16 GMT 53.47544 -0.91469 10,075 272 357 -3776
2017-12-09 09:32:14 GMT 53.47513 -0.90449 10,325 278 354 -3584
2017-12-09 09:32:12 GMT 53.47507 -0.90322 10,350 278 354 -3584
2017-12-09 09:32:10 GMT 53.47435 -0.89531 10,525 282 353 -3328
2017-12-09 09:32:07 GMT 53.47344 -0.88747 10,700 285 352 -2752
2017-12-09 09:32:05 GMT 53.47279 -0.88362 10,775 288 352 -2624
2017-12-09 09:32:03 GMT 53.47124 -0.87530 10,900 291 352 -2432
2017-12-09 09:32:01 GMT 53.47060 -0.87236 10,950 295 352 -1792
2017-12-09 09:31:59 GMT 53.46930 -0.86695 11,050 295 352 -1792
2017-12-09 09:31:56 GMT 53.46757 -0.86070 11,125 297 353 -1344
2017-12-09 09:31:54 GMT 53.46547 -0.85379 11,175 298 355 -768
2017-12-09 09:31:52 GMT 53.46436 -0.85031 11,200 298 356 -704
2017-12-09 09:31:50 GMT 53.46236 -0.84393 11,250 298 357 -768
2017-12-09 09:31:48 GMT 53.46133 -0.84078 11,275 298 357 -960
2017-12-09 09:31:46 GMT 53.45947 -0.83480 11,325 299 357 -1600
2017-12-09 09:31:44 GMT 53.45824 -0.83088 11,375 299 357 -1536
2017-12-09 09:31:44 GMT 53.45824 -0.83088 11,375 299 357 -1536
2017-12-09 09:31:41 GMT 53.45519 -0.82139 11,475 299 356 -1344
2017-12-09 09:31:39 GMT 53.45370 -0.81668 11,525 299 353 -1344
2017-12-09 09:31:37 GMT 53.45265 -0.81338 11,550 298 352 -1408
2017-12-09 09:31:35 GMT 53.45147 -0.80976 11,600 298 352 -1408
2017-12-09 09:31:33 GMT 53.44998 -0.80499 11,650 298 352 -1472
2017-12-09 09:31:31 GMT 53.44780 -0.79800 11,725 298 350 -1408
2017-12-09 09:31:27 GMT 53.44532 -0.79005 11,800 298 348 -1600
2017-12-09 09:31:25 GMT 53.44309 -0.78286 11,875 298 348 -1728
2017-12-09 09:31:23 GMT 53.44239 -0.78043 11,900 298 348 -1792
2017-12-09 09:31:21 GMT 53.44062 -0.77470 11,975 298 350 -2432
2017-12-09 09:31:18 GMT 53.43838 -0.76743 12,100 297 349 -2944
2017-12-09 09:31:16 GMT 53.43694 -0.76250 12,175 297 350 -2880
2017-12-09 09:31:14 GMT 53.43585 -0.75900 12,250 297 350 -2752
2017-12-09 09:31:12 GMT 53.43379 -0.75217 12,400 297 351 -2304
2017-12-09 09:31:10 GMT 53.43266 -0.74844 12,450 297 353 -2112
2017-12-09 09:31:10 GMT 53.43266 -0.74844 12,450 298 352 -2176
2017-12-09 09:31:08 GMT 53.43100 -0.74291 12,550 297 353 -2048
2017-12-09 09:31:06 GMT 53.42995 -0.73946 12,600 297 354 -1920
2017-12-09 09:31:04 GMT 53.42802 -0.73310 12,675 298 355 -1792
2017-12-09 09:31:02 GMT 53.42721 -0.73043 12,725 298 355 -1664
2017-12-09 09:31:00 GMT 53.42473 -0.72243 12,800 298 356 -1280
2017-12-09 09:30:57 GMT 53.42354 -0.71851 12,850 298 356 -1152
2017-12-09 09:30:55 GMT 53.42023 -0.70789 12,925 298 361 -64
2017-12-09 09:30:53 GMT 53.41995 -0.70692 12,925 298 359 -576
2017-12-09 09:30:51 GMT 53.41832 -0.70171 12,950 298 360 -384
2017-12-09 09:30:49 GMT 53.41713 -0.69787 12,975 298 361 -64
2017-12-09 09:30:47 GMT 53.41512 -0.69135 12,975 298 362 0
2017-12-09 09:30:45 GMT 53.41406 -0.68790 13,000 298 361 -64
2017-12-09 09:30:43 GMT 53.41213 -0.68172 12,975 298 362 0
2017-12-09 09:30:41 GMT 53.41055 -0.67663 13,000 298 364 0
2017-12-09 09:30:39 GMT 53.40887 -0.67130 13,000 298 364 0
2017-12-09 09:30:36 GMT 53.40687 -0.66475 13,000 298 365 0
2017-12-09 09:30:34 GMT 53.40537 -0.65989 13,000 298 366 -128
2017-12-09 09:30:32 GMT 53.40331 -0.65337 13,000 298 367 -320
2017-12-09 09:30:30 GMT 53.40212 -0.64945 13,000 298 369 -320
2017-12-09 09:30:28 GMT 53.40083 -0.64529 13,025 298 369 -448
2017-12-09 09:30:25 GMT 53.39800 -0.63611 13,050 297 371 -896
2017-12-09 09:30:21 GMT 53.39514 -0.62670 13,100 294 368 -1408
2017-12-09 09:30:19 GMT 53.39230 -0.61701 13,175 296 369 -1152
2017-12-09 09:30:17 GMT 53.39230 -0.61701 13,175 295 369 -1216
2017-12-09 09:30:15 GMT 53.39095 -0.61225 13,225 295 369 -1216
2017-12-09 09:30:13 GMT 53.38913 -0.60554 13,275 294 368 -1408
2017-12-09 09:30:11 GMT 53.38802 -0.60111 13,325 293 369 -1536
2017-12-09 09:30:09 GMT 53.38669 -0.59577 13,375 292 368 -1728
2017-12-09 09:30:07 GMT 53.38555 -0.59076 13,425 291 369 -1920
2017-12-09 09:30:05 GMT 53.38394 -0.58353 13,500 290 370 -2112
2017-12-09 09:30:03 GMT 53.38285 -0.57832 13,575 289 371 -2368
2017-12-09 09:30:01 GMT 53.38192 -0.57355 13,650 287 372 -2624
2017-12-09 09:30:01 GMT 53.38165 -0.57223 13,675 287 372 -2624
2017-12-09 09:29:59 GMT 53.38083 -0.56768 13,725 287 372 -2624
2017-12-09 09:29:57 GMT 53.38010 -0.56336 13,800 287 372 -2880
2017-12-09 09:29:55 GMT 53.37923 -0.55842 13,900 287 372 -3008
2017-12-09 09:29:53 GMT 53.37790 -0.55057 14,025 287 373 -3200
2017-12-09 09:29:50 GMT 53.37694 -0.54508 14,150 287 373 -3328
2017-12-09 09:29:48 GMT 53.37549 -0.53655 14,325 286 372 -3840
2017-12-09 09:29:47 GMT 53.37503 -0.53364 14,400 286 372 -3968
2017-12-09 09:29:47 GMT 53.37524 -0.53503 14,375 286 372 -3968
2017-12-09 09:29:46 GMT 53.37479 -0.53229 14,425 286 371 -3904
2017-12-09 09:29:44 GMT 53.37358 -0.52540 14,600 286 371 -3584
2017-12-09 09:29:42 GMT 53.37291 -0.52130 14,675 286 371 -3200
2017-12-09 09:29:40 GMT 53.37172 -0.51408 14,825 286 372 -2944
2017-12-09 09:29:38 GMT 53.37103 -0.51024 14,900 286 372 -2944
2017-12-09 09:29:36 GMT 53.37030 -0.50569 14,975 286 373 -3008
2017-12-09 09:29:34 GMT 53.36888 -0.49744 15,150 286 374 -3008
2017-12-09 09:29:32 GMT 53.36833 -0.49415 15,200 286 374 -3008
2017-12-09 09:29:30 GMT 53.36765 -0.48991 15,275 286 374 -3008
2017-12-09 09:29:26 GMT 53.36539 -0.47653 15,525 286 377 -2176
2017-12-09 09:29:24 GMT 53.36427 -0.46975 15,600 286 378 -1792
2017-12-09 09:29:22 GMT 53.36362 -0.46595 15,650 286 378 -1472
2017-12-09 09:29:20 GMT 53.36269 -0.46030 15,700 286 379 -1280
2017-12-09 09:29:18 GMT 53.36169 -0.45421 15,750 286 380 -1152
2017-12-09 09:29:16 GMT 53.36060 -0.44761 15,800 286 382 -896
2017-12-09 09:29:14 GMT 53.35957 -0.44147 15,850 286 382 -832
2017-12-09 09:29:12 GMT 53.35886 -0.43686 15,875 286 383 -704
2017-12-09 09:29:09 GMT 53.35757 -0.42917 15,925 286 384 -576
2017-12-09 09:29:07 GMT 53.35673 -0.42386 15,925 286 385 -384
2017-12-09 09:29:05 GMT 53.35538 -0.41544 15,950 286 385 -256
2017-12-09 09:29:03 GMT 53.35468 -0.41126 15,975 286 385 -128
2017-12-09 09:29:01 GMT 53.35329 -0.40262 15,975 286 384 -64
2017-12-09 09:28:59 GMT 53.35282 -0.39963 15,975 286 384 -64
2017-12-09 09:28:59 GMT 53.35282 -0.39963 15,975 286 384 -64
2017-12-09 09:28:57 GMT 53.35204 -0.39488 15,975 286 384 0
2017-12-09 09:28:55 GMT 53.35098 -0.38852 16,000 286 384 0
2017-12-09 09:28:53 GMT 53.34965 -0.38052 16,000 286 383 0
2017-12-09 09:28:51 GMT 53.34914 -0.37741 16,000 286 383 0
2017-12-09 09:28:49 GMT 53.34831 -0.37216 16,000 286 383 0
2017-12-09 09:28:47 GMT 53.34691 -0.36376 16,000 286 383 -64
2017-12-09 09:28:44 GMT 53.34593 -0.35803 16,000 286 383 -64
2017-12-09 09:28:42 GMT 53.34444 -0.34890 16,025 286 381 -320
2017-12-09 09:28:40 GMT 53.34389 -0.34576 16,025 286 381 -384
2017-12-09 09:28:38 GMT 53.34281 -0.33928 16,025 286 383 -704
2017-12-09 09:28:36 GMT 53.34193 -0.33403 16,025 286 385 -768
2017-12-09 09:28:34 GMT 53.34128 -0.32982 16,050 286 385 -896
2017-12-09 09:28:32 GMT 53.33988 -0.32151 16,125 286 385 -1152
2017-12-09 09:28:29 GMT 53.33917 -0.31711 16,150 286 385 -1216
2017-12-09 09:28:27 GMT 53.33802 -0.31004 16,200 286 384 -1344
2017-12-09 09:28:25 GMT 53.33699 -0.30374 16,250 285 383 -1408
2017-12-09 09:28:23 GMT 53.33606 -0.29792 16,300 285 381 -1600
2017-12-09 09:28:21 GMT 53.33481 -0.28993 16,375 285 381 -1728
2017-12-09 09:28:21 GMT 53.33437 -0.28690 16,400 285 380 -1856
2017-12-09 09:28:20 GMT 53.33453 -0.28823 16,400 285 381 -1792
2017-12-09 09:28:19 GMT 53.33418 -0.28580 16,425 285 380 -1856
2017-12-09 09:28:17 GMT 53.33313 -0.27882 16,500 284 380 -2048
2017-12-09 09:28:15 GMT 53.33254 -0.27497 16,550 284 380 -2176
2017-12-09 09:28:13 GMT 53.33136 -0.26666 16,650 283 380 -2432
2017-12-09 09:28:11 GMT 53.33071 -0.26141 16,700 283 381 -2496
2017-12-09 09:28:08 GMT 53.32993 -0.25551 16,800 282 382 -2688
2017-12-09 09:28:06 GMT 53.32936 -0.25107 16,875 282 382 -2752
2017-12-09 09:28:04 GMT 53.32809 -0.23982 17,075 281 383 -3264
2017-12-09 09:28:02 GMT 53.32732 -0.23275 17,200 280 383 -3136
2017-12-09 09:28:00 GMT 53.32700 -0.22993 17,250 280 384 -3072
2017-12-09 09:27:58 GMT 53.32640 -0.22396 17,375 280 385 -2816
2017-12-09 09:27:56 GMT 53.32596 -0.21973 17,425 280 385 -2624
2017-12-09 09:27:56 GMT 53.32596 -0.21973 17,425 280 385 -2624
2017-12-09 09:27:54 GMT 53.32549 -0.21496 17,500 280 385 -2496
2017-12-09 09:27:52 GMT 53.32494 -0.20922 17,600 280 386 -1984
2017-12-09 09:27:50 GMT 53.32424 -0.20212 17,700 280 387 -1728
2017-12-09 09:27:48 GMT 53.32370 -0.19697 17,750 280 392 -320
2017-12-09 09:27:46 GMT 53.32284 -0.18854 17,825 280 389 -960
2017-12-09 09:27:44 GMT 53.32242 -0.18410 17,850 280 389 -832
2017-12-09 09:27:42 GMT 53.32187 -0.17868 17,875 280 390 -640
2017-12-09 09:27:42 GMT 53.32187 -0.17868 17,875 280 390 -640
2017-12-09 09:27:40 GMT 53.32126 -0.17255 17,900 280 391 -512
2017-12-09 09:27:38 GMT 53.32056 -0.16544 17,950 280 391 -448
2017-12-09 09:27:36 GMT 53.31996 -0.15938 17,950 280 392 -256
2017-12-09 09:27:34 GMT 53.31921 -0.15208 17,975 280 392 0
2017-12-09 09:27:34 GMT 53.31940 -0.15381 17,975 280 392 0
2017-12-09 09:27:32 GMT 53.31876 -0.14777 17,975 280 392 0
2017-12-09 09:27:30 GMT 53.31814 -0.14153 17,975 280 392 64
2017-12-09 09:27:28 GMT 53.31786 -0.13846 17,975 280 392 64
2017-12-09 09:27:26 GMT 53.31702 -0.13042 17,975 280 392 64
2017-12-09 09:27:24 GMT 53.31661 -0.12634 17,975 280 392 0
2017-12-09 09:27:22 GMT 53.31601 -0.12030 17,975 280 392 64
2017-12-09 09:27:20 GMT 53.31525 -0.11293 17,975 280 392 0
2017-12-09 09:27:18 GMT 53.31455 -0.10547 17,975 280 392 0
2017-12-09 09:27:16 GMT 53.31409 -0.10123 17,975 280 392 0
2017-12-09 09:27:14 GMT 53.31326 -0.09283 17,975 280 392 0
2017-12-09 09:27:12 GMT 53.31302 -0.09023 17,975 280 391 0
2017-12-09 09:27:10 GMT 53.31223 -0.08240 17,975 280 391 0
2017-12-09 09:27:10 GMT 53.31223 -0.08240 17,975 280 391 0
2017-12-09 09:27:07 GMT 53.31152 -0.07510 17,975 280 389 64
2017-12-09 09:27:05 GMT 53.31088 -0.06851 17,975 280 388 0
2017-12-09 09:27:03 GMT 53.31004 -0.05994 17,975 280 387 0
2017-12-09 09:27:02 GMT 53.31013 -0.06107 17,975 280 387 0
2017-12-09 09:27:00 GMT 53.30944 -0.05396 17,975 280 387 0
2017-12-09 09:26:58 GMT 53.30901 -0.04967 17,975 280 387 0
2017-12-09 09:26:56 GMT 53.30800 -0.03963 17,975 280 386 -192
2017-12-09 09:26:54 GMT 53.30771 -0.03643 18,000 280 386 -256
2017-12-09 09:26:52 GMT 53.30683 -0.02763 18,000 280 385 -448
2017-12-09 09:26:50 GMT 53.30655 -0.02456 18,025 280 385 -448
2017-12-09 09:26:48 GMT 53.30562 -0.01546 18,050 280 383 -704
2017-12-09 09:26:45 GMT 53.30515 -0.01066 18,050 280 383 -768
2017-12-09 09:26:43 GMT 53.30470 -0.00612 18,075 280 383 -896
2017-12-09 09:26:41 GMT 53.30365 0.00432 18,125 280 381 -960
2017-12-09 09:26:38 GMT 53.30310 0.01004 18,175 280 378 -1280
2017-12-09 09:26:38 GMT 53.30310 0.01004 18,175 280 379 -1088
2017-12-09 09:26:38 GMT 53.30310 0.01004 18,175 280 379 -1152
2017-12-09 09:26:36 GMT 53.30255 0.01551 18,200 280 379 -1216
2017-12-09 09:26:34 GMT 53.30185 0.02246 18,250 280 377 -1408
2017-12-09 09:26:32 GMT 53.30136 0.02786 18,300 280 377 -1536
2017-12-09 09:26:30 GMT 53.30054 0.03594 18,375 279 378 -1920
2017-12-09 09:26:28 GMT 53.30012 0.04031 18,400 279 378 -1920
2017-12-09 09:26:28 GMT 53.29999 0.04167 18,425 279 378 -1920
2017-12-09 09:26:26 GMT 53.29971 0.04457 18,450 279 378 -2048
2017-12-09 09:26:24 GMT 53.29903 0.05203 18,550 279 378 -2176
2017-12-09 09:26:24 GMT 53.29891 0.05348 18,550 279 378 -2240
2017-12-09 09:26:24 GMT 53.29891 0.05348 18,550 279 378 -2176
2017-12-09 09:26:22 GMT 53.29863 0.05639 18,600 279 378 -2240
2017-12-09 09:26:20 GMT 53.29798 0.06333 18,675 279 379 -2560
2017-12-09 09:26:18 GMT 53.29756 0.06802 18,750 279 380 -2624
2017-12-09 09:26:16 GMT 53.29688 0.07526 18,850 279 381 -3008
2017-12-09 09:26:13 GMT 53.29628 0.08216 19,000 279 381 -3008
2017-12-09 09:26:11 GMT 53.29573 0.08797 19,100 279 381 -3008
2017-12-09 09:26:09 GMT 53.29514 0.09440 19,200 279 381 -2880
2017-12-09 09:26:07 GMT 53.29436 0.10319 19,350 279 382 -2560
2017-12-09 09:26:05 GMT 53.29421 0.10461 19,375 279 382 -2560
2017-12-09 09:26:03 GMT 53.29333 0.11455 19,525 280 382 -2112
2017-12-09 09:26:00 GMT 53.29248 0.12297 19,650 282 382 -1472
2017-12-09 09:25:58 GMT 53.29234 0.12470 19,675 282 382 -1472
2017-12-09 09:25:56 GMT 53.29129 0.13450 19,775 282 382 -1472
2017-12-09 09:25:54 GMT 53.29056 0.14094 19,825 282 382 -1216
2017-12-09 09:25:54 GMT 53.29072 0.13943 19,825 282 382 -1344
2017-12-09 09:25:52 GMT 53.29042 0.14212 19,850 282 382 -1216
2017-12-09 09:25:50 GMT 53.28946 0.14957 19,900 284 382 -832
2017-12-09 09:25:48 GMT 53.28872 0.15494 19,925 285 381 -576
2017-12-09 09:25:46 GMT 53.28799 0.15985 19,950 286 381 -576
2017-12-09 09:25:44 GMT 53.28703 0.16597 19,975 287 380 -704
2017-12-09 09:25:42 GMT 53.28602 0.17198 20,025 288 379 -1152
2017-12-09 09:25:40 GMT 53.28458 0.17990 20,075 289 376 -960
2017-12-09 09:25:38 GMT 53.28401 0.18284 20,100 289 376 -1024
2017-12-09 09:25:36 GMT 53.28285 0.18871 20,125 290 375 -1088
2017-12-09 09:25:34 GMT 53.28108 0.19686 20,200 291 369 -1216
2017-12-09 09:25:32 GMT 53.28049 0.19972 20,225 291 368 -1280
2017-12-09 09:25:29 GMT 53.27870 0.20772 20,275 291 367 -1472
2017-12-09 09:25:27 GMT 53.27745 0.21343 20,325 291 366 -1600
2017-12-09 09:25:25 GMT 53.27629 0.21860 20,400 291 366 -1728
2017-12-09 09:25:23 GMT 53.27503 0.22441 20,450 291 366 -1920
2017-12-09 09:25:21 GMT 53.27376 0.23008 20,525 291 366 -2048
2017-12-09 09:25:19 GMT 53.27257 0.23556 20,575 291 367 -2432
2017-12-09 09:25:16 GMT 53.27110 0.24217 20,675 291 367 -2496
2017-12-09 09:25:14 GMT 53.26973 0.24840 20,775 291 368 -2752
2017-12-09 09:25:12 GMT 53.26856 0.25357 20,875 291 368 -2880
2017-12-09 09:25:10 GMT 53.26805 0.25600 20,925 291 368 -2944
2017-12-09 09:25:08 GMT 53.26600 0.26521 21,075 290 369 -3392
2017-12-09 09:25:05 GMT 53.26479 0.27070 21,200 290 369 -3456
2017-12-09 09:25:03 GMT 53.26307 0.27870 21,400 290 368 -3712
2017-12-09 09:25:03 GMT 53.26337 0.27740 21,350 290 368 -3712
2017-12-09 09:25:00 GMT 53.26167 0.28516 21,525 290 369 -3648
2017-12-09 09:24:58 GMT 53.26057 0.29027 21,650 290 369 -3520
2017-12-09 09:24:56 GMT 53.25888 0.29836 21,850 289 369 -3776
2017-12-09 09:24:54 GMT 53.25860 0.29970 21,875 289 369 -3776
2017-12-09 09:24:52 GMT 53.25632 0.31093 22,150 287 366 -3392
2017-12-09 09:24:50 GMT 53.25581 0.31327 22,225 289 367 -4096
2017-12-09 09:24:48 GMT 53.25508 0.31703 22,325 288 367 -4224
2017-12-09 09:24:45 GMT 53.25380 0.32363 22,500 288 367 -4224
2017-12-09 09:24:43 GMT 53.25232 0.33145 22,700 288 367 -3904
2017-12-09 09:24:41 GMT 53.25180 0.33411 22,775 287 366 -3712
2017-12-09 09:24:39 GMT 53.24963 0.34623 23,050 287 366 -3136
2017-12-09 09:24:37 GMT 53.24915 0.34874 23,125 287 366 -3008
2017-12-09 09:24:34 GMT 53.24757 0.35760 23,300 287 365 -3008
2017-12-09 09:24:32 GMT 53.24689 0.36129 23,375 287 365 -3072
2017-12-09 09:24:30 GMT 53.24617 0.36538 23,450 287 365 -3008
2017-12-09 09:24:28 GMT 53.24524 0.37048 23,550 287 365 -2816
2017-12-09 09:24:26 GMT 53.24431 0.37572 23,625 287 365 -2496
2017-12-09 09:24:24 GMT 53.24296 0.38315 23,750 287 365 -1728
2017-12-09 09:24:22 GMT 53.24204 0.38829 23,825 287 365 -1344
2017-12-09 09:24:20 GMT 53.24077 0.39502 23,875 287 366 -960
2017-12-09 09:24:18 GMT 53.24016 0.39849 23,900 287 366 -832
2017-12-09 09:24:16 GMT 53.23951 0.40213 23,925 287 366 -704
2017-12-09 09:24:13 GMT 53.23787 0.41105 23,975 287 367 -512
2017-12-09 09:24:11 GMT 53.23650 0.41858 24,025 287 367 -896
2017-12-09 09:24:09 GMT 53.23581 0.42227 24,025 287 366 -1152
2017-12-09 09:24:07 GMT 53.23480 0.42776 24,075 287 365 -1024
2017-12-09 09:24:05 GMT 53.23389 0.43302 24,125 287 364 -1024
2017-12-09 09:24:03 GMT 53.23244 0.44091 24,175 287 362 -1280
2017-12-09 09:24:01 GMT 53.23201 0.44338 24,200 287 362 -1280
2017-12-09 09:23:59 GMT 53.23062 0.45100 24,250 287 361 -1344
2017-12-09 09:23:57 GMT 53.22992 0.45480 24,275 287 360 -1472
2017-12-09 09:23:55 GMT 53.22857 0.46223 24,350 288 359 -1728
2017-12-09 09:23:52 GMT 53.22778 0.46643 24,375 288 359 -1728
2017-12-09 09:23:50 GMT 53.22634 0.47435 24,475 288 359 -1984
2017-12-09 09:23:48 GMT 53.22518 0.48073 24,550 288 361 -2240
2017-12-09 09:23:46 GMT 53.22448 0.48437 24,600 288 362 -2368
2017-12-09 09:23:44 GMT 53.22317 0.49132 24,700 288 362 -2560
2017-12-09 09:23:42 GMT 53.22220 0.49673 24,800 288 363 -2752
2017-12-09 09:23:40 GMT 53.22176 0.49909 24,850 288 363 -3200
2017-12-09 09:23:38 GMT 53.22080 0.50424 24,925 288 363 -3200
2017-12-09 09:23:36 GMT 53.21938 0.51196 25,075 287 363 -3136
2017-12-09 09:23:34 GMT 53.21866 0.51587 25,175 287 364 -3008
2017-12-09 09:23:32 GMT 53.21768 0.52137 25,275 287 364 -2944
2017-12-09 09:23:30 GMT 53.21666 0.52718 25,400 287 365 -2944
2017-12-09 09:23:28 GMT 53.21596 0.53106 25,475 287 366 -3008
2017-12-09 09:23:26 GMT 53.21457 0.53888 25,625 286 367 -3136
2017-12-09 09:23:24 GMT 53.21352 0.54531 25,750 285 367 -3328
2017-12-09 09:23:22 GMT 53.21292 0.54916 25,825 284 368 -3520
2017-12-09 09:23:20 GMT 53.21200 0.55497 25,950 284 368 -3520
2017-12-09 09:23:18 GMT 53.21164 0.55740 26,000 284 368 -3520
2017-12-09 09:23:16 GMT 53.21008 0.56839 26,250 283 369 -3584
2017-12-09 09:23:14 GMT 53.21008 0.56839 26,250 283 369 -3584
2017-12-09 09:23:12 GMT 53.20939 0.57379 26,375 282 369 -3648
2017-12-09 09:23:10 GMT 53.20842 0.58090 26,550 282 369 -3648
2017-12-09 09:23:08 GMT 53.20752 0.58832 26,700 281 370 -3584
2017-12-09 09:23:08 GMT 53.20752 0.58832 26,700 281 370 -3584
2017-12-09 09:23:08 GMT 53.20739 0.58979 26,725 281 370 -3520
2017-12-09 09:23:06 GMT 53.20692 0.59405 26,825 281 370 -3520
2017-12-09 09:23:04 GMT 53.20647 0.59797 26,925 281 370 -3520
2017-12-09 09:23:02 GMT 53.20578 0.60417 27,050 281 370 -3648
2017-12-09 09:23:00 GMT 53.20530 0.60845 27,150 281 370 -3776
2017-12-09 09:22:58 GMT 53.20432 0.61712 27,350 281 370 -3712
2017-12-09 09:22:56 GMT 53.20377 0.62206 27,450 281 371 -3648
2017-12-09 09:22:52 GMT 53.20250 0.63357 27,725 281 370 -3200
2017-12-09 09:22:50 GMT 53.20212 0.63729 27,775 281 373 -2752
2017-12-09 09:22:48 GMT 53.20157 0.64223 27,875 281 372 -2816
2017-12-09 09:22:46 GMT 53.20106 0.64686 27,950 281 373 -2752
2017-12-09 09:22:44 GMT 53.20032 0.65393 28,075 281 373 -2752
2017-12-09 09:22:42 GMT 53.19967 0.65999 28,200 281 374 -2880
2017-12-09 09:22:40 GMT 53.19901 0.66572 28,300 281 374 -2944
2017-12-09 09:22:38 GMT 53.19859 0.66993 28,375 280 375 -2880
2017-12-09 09:22:36 GMT 53.19776 0.67760 28,500 280 375 -2688
2017-12-09 09:22:33 GMT 53.19669 0.68786 28,675 280 376 -2560
2017-12-09 09:22:31 GMT 53.19626 0.69222 28,750 280 377 -2560
2017-12-09 09:22:29 GMT 53.19585 0.69614 28,800 280 377 -2560
2017-12-09 09:22:27 GMT 53.19530 0.70140 28,900 280 377 -2368
2017-12-09 09:22:25 GMT 53.19445 0.70967 29,025 280 377 -2624
2017-12-09 09:22:22 GMT 53.19356 0.71858 29,175 280 377 -2624
2017-12-09 09:22:20 GMT 53.19329 0.72162 29,225 280 377 -2624
2017-12-09 09:22:18 GMT 53.19268 0.72736 29,300 280 376 -2624
2017-12-09 09:22:16 GMT 53.19189 0.73536 29,425 280 375 -2496
2017-12-09 09:22:16 GMT 53.19175 0.73713 29,450 280 375 -2432
2017-12-09 09:22:14 GMT 53.19132 0.74126 29,525 280 375 -2496
2017-12-09 09:22:12 GMT 53.19081 0.74652 29,600 280 375 -2496
2017-12-09 09:22:12 GMT 53.19081 0.74652 29,600 280 375 -2496
2017-12-09 09:22:10 GMT 53.19026 0.75209 29,675 280 375 -2816
2017-12-09 09:22:08 GMT 53.18966 0.75814 29,775 280 375 -3200
2017-12-09 09:22:05 GMT 53.18898 0.76528 29,925 280 374 -3648
2017-12-09 09:22:05 GMT 53.18898 0.76528 29,925 280 374 -3648
2017-12-09 09:22:03 GMT 53.18840 0.77122 30,050 280 374 -3840
2017-12-09 09:22:01 GMT 53.18798 0.77575 30,150 279 373 -4096
2017-12-09 09:21:59 GMT 53.18747 0.78121 30,275 279 372 -4352
2017-12-09 09:21:57 GMT 53.18696 0.78665 30,425 279 371 -4608
2017-12-09 09:21:55 GMT 53.18619 0.79462 30,650 280 368 -4864
2017-12-09 09:21:55 GMT 53.18603 0.79602 30,700 280 368 -4864
2017-12-09 09:21:53 GMT 53.18550 0.80145 30,850 280 367 -5120
2017-12-09 09:21:51 GMT 53.18504 0.80632 31,025 280 365 -5120
2017-12-09 09:21:49 GMT 53.18449 0.81197 31,200 280 364 -4992
2017-12-09 09:21:48 GMT 53.18431 0.81377 31,250 280 363 -4864
2017-12-09 09:21:46 GMT 53.18358 0.82131 31,475 280 362 -4672
2017-12-09 09:21:44 GMT 53.18317 0.82523 31,600 280 362 -4416
2017-12-09 09:21:41 GMT 53.18234 0.83355 31,825 280 361 -3968
2017-12-09 09:21:39 GMT 53.18189 0.83834 31,950 280 360 -3776
2017-12-09 09:21:37 GMT 53.18129 0.84454 32,075 280 360 -3648
2017-12-09 09:21:37 GMT 53.18129 0.84454 32,075 280 360 -3648
2017-12-09 09:21:35 GMT 53.18102 0.84712 32,150 280 360 -3520
2017-12-09 09:21:33 GMT 53.18042 0.85324 32,275 280 360 -3456
2017-12-09 09:21:31 GMT 53.17974 0.86065 32,450 279 361 -3200
2017-12-09 09:21:29 GMT 53.17923 0.86598 32,550 279 361 -3136
2017-12-09 09:21:27 GMT 53.17859 0.87286 32,700 279 361 -3264
2017-12-09 09:21:25 GMT 53.17795 0.87953 32,825 283 361 0
2017-12-09 09:21:22 GMT 53.17769 0.88246 32,900 279 361 -3520
2017-12-09 09:21:20 GMT 53.17694 0.89044 33,075 279 360 -3648
2017-12-09 09:21:18 GMT 53.17648 0.89571 33,200 279 360 -3584
2017-12-09 09:21:18 GMT 53.17648 0.89571 33,200 279 360 -3584
2017-12-09 09:21:16 GMT 53.17584 0.90260 33,350 279 360 -3584
2017-12-09 09:21:14 GMT 53.17546 0.90726 33,450 279 360 -3584
2017-12-09 09:21:12 GMT 53.17525 0.90975 33,525 279 360 -3584
2017-12-09 09:21:10 GMT 53.17462 0.91679 33,675 278 360 -3584
2017-12-09 09:21:08 GMT 53.17397 0.92447 33,825 278 359 -3520
2017-12-09 09:21:06 GMT 53.17355 0.92984 33,975 278 359 -3456
2017-12-09 09:21:04 GMT 53.17310 0.93541 34,100 278 359 -3328
2017-12-09 09:21:02 GMT 53.17276 0.93949 34,175 278 359 -3328
2017-12-09 09:21:00 GMT 53.17220 0.94507 34,300 278 359 -3328
2017-12-09 09:20:58 GMT 53.17183 0.95048 34,425 278 359 -3264
2017-12-09 09:20:56 GMT 53.17117 0.95864 34,600 278 359 -3200
2017-12-09 09:20:54 GMT 53.17094 0.96170 34,650 278 359 -3136
2017-12-09 09:20:52 GMT 53.17072 0.96452 34,700 278 358 -3072
2017-12-09 09:20:50 GMT 53.17010 0.97278 34,875 278 358 -2816
2017-12-09 09:20:47 GMT 53.16943 0.98124 35,025 278 358 -2688
2017-12-09 09:20:47 GMT 53.16943 0.98124 35,025 278 358 -2688
2017-12-09 09:20:45 GMT 53.16903 0.98651 35,100 278 359 -2496
2017-12-09 09:20:43 GMT 53.16870 0.99057 35,175 278 359 -2304
2017-12-09 09:20:41 GMT 53.16829 0.99607 35,275 278 359 -2176
2017-12-09 09:20:39 GMT 53.16782 1.00194 35,350 278 360 -1920
2017-12-09 09:20:37 GMT 53.16737 1.00815 35,425 278 360 -1856
2017-12-09 09:20:35 GMT 53.16673 1.01600 35,525 278 362 -1856
2017-12-09 09:20:35 GMT 53.16673 1.01600 35,525 278 361 -1920
2017-12-09 09:20:35 GMT 53.16673 1.01600 35,525 278 362 -1856
2017-12-09 09:20:33 GMT 53.16655 1.01867 35,550 279 361 -1792
2017-12-09 09:20:31 GMT 53.16605 1.02456 35,625 278 361 -1856
2017-12-09 09:20:29 GMT 53.16559 1.02997 35,700 279 361 -1664
2017-12-09 09:20:27 GMT 53.16508 1.03577 35,775 280 361 -1216
2017-12-09 09:20:25 GMT 53.16463 1.04064 35,825 280 361 -1216
2017-12-09 09:20:23 GMT 53.16412 1.04613 35,850 281 361 -576
2017-12-09 09:20:21 GMT 53.16349 1.05194 35,900 281 361 -640
2017-12-09 09:20:19 GMT 53.16243 1.06144 35,950 282 361 -384
2017-12-09 09:20:17 GMT 53.16225 1.06301 35,950 283 361 -256
2017-12-09 09:20:15 GMT 53.16126 1.07092 35,975 283 361 -128
2017-12-09 09:20:15 GMT 53.16156 1.06858 35,950 283 361 -256
2017-12-09 09:20:13 GMT 53.16056 1.07642 35,975 283 361 0
2017-12-09 09:20:11 GMT 53.15986 1.08175 35,975 283 361 0
2017-12-09 09:20:09 GMT 53.15927 1.08623 36,000 283 362 0
2017-12-09 09:20:08 GMT 53.15941 1.08521 36,000 283 362 0
2017-12-09 09:20:08 GMT 53.15927 1.08623 36,000 283 362 0
2017-12-09 09:20:06 GMT 53.15845 1.09235 35,975 283 362 0
2017-12-09 09:20:04 GMT 53.15772 1.09807 36,000 283 362 0
2017-12-09 09:20:02 GMT 53.15642 1.10784 36,000 283 362 0
2017-12-09 09:20:00 GMT 53.15600 1.11148 36,000 283 362 0
2017-12-09 09:19:58 GMT 53.15584 1.11284 36,000 283 362 0
2017-12-09 09:19:56 GMT 53.15451 1.12233 36,000 283 362 0
2017-12-09 09:19:56 GMT 53.15483 1.11988 36,000 283 362 0
2017-12-09 09:19:54 GMT 53.15423 1.12472 36,000 283 362 0
2017-12-09 09:19:52 GMT 53.15318 1.13253 36,000 283 362 0
2017-12-09 09:19:52 GMT 53.15318 1.13253 36,000 283 362 0
2017-12-09 09:19:50 GMT 53.15245 1.13810 36,000 283 362 0
2017-12-09 09:19:48 GMT 53.15185 1.14258 36,000 283 362 0
2017-12-09 09:19:46 GMT 53.15106 1.14864 36,000 283 361 0
2017-12-09 09:19:44 GMT 53.15076 1.15113 36,000 283 361 0
2017-12-09 09:19:42 GMT 53.14993 1.15717 36,000 283 361 0
2017-12-09 09:19:40 GMT 53.14888 1.16512 36,000 283 361 0
2017-12-09 09:19:38 GMT 53.14851 1.16785 36,000 283 361 0
2017-12-09 09:19:36 GMT 53.14799 1.17198 36,000 283 361 0
2017-12-09 09:19:36 GMT 53.14799 1.17198 36,000 283 361 0
2017-12-09 09:19:34 GMT 53.14696 1.17978 36,000 283 361 0
2017-12-09 09:19:32 GMT 53.14636 1.18417 36,000 283 361 0
2017-12-09 09:19:30 GMT 53.14563 1.19029 36,000 283 361 0
2017-12-09 09:19:27 GMT 53.14422 1.20009 36,000 283 361 0
2017-12-09 09:19:25 GMT 53.14407 1.20143 36,000 283 361 0
2017-12-09 09:19:23 GMT 53.14292 1.20987 35,975 283 361 0
2017-12-09 09:19:20 GMT 53.14206 1.21650 36,000 283 361 0
2017-12-09 09:19:18 GMT 53.14115 1.22344 35,975 283 361 0
2017-12-09 09:19:15 GMT 53.14005 1.23180 36,000 283 362 0
2017-12-09 09:19:13 GMT 53.13918 1.23824 36,000 283 362 0
2017-12-09 09:19:11 GMT 53.13881 1.24106 36,000 283 362 0
2017-12-09 09:19:09 GMT 53.13789 1.24776 36,000 283 362 0
2017-12-09 09:19:06 GMT 53.13696 1.25486 36,000 283 362 0
2017-12-09 09:19:04 GMT 53.13638 1.25943 36,000 283 362 0
2017-12-09 09:19:02 GMT 53.13528 1.26739 36,000 283 362 0
2017-12-09 09:19:02 GMT 53.13528 1.26739 36,000 283 362 0
2017-12-09 09:19:00 GMT 53.13459 1.27280 36,000 283 362 0
2017-12-09 09:18:58 GMT 53.13421 1.27554 36,000 283 362 0
2017-12-09 09:18:55 GMT 53.13291 1.28540 36,000 283 362 0
2017-12-09 09:18:53 GMT 53.13203 1.29207 35,975 283 362 0
2017-12-09 09:18:51 GMT 53.13156 1.29574 35,975 283 362 0
2017-12-09 09:18:49 GMT 53.13058 1.30261 35,975 283 362 0
2017-12-09 09:18:47 GMT 53.12988 1.30810 35,975 283 362 0
2017-12-09 09:18:45 GMT 53.12933 1.31232 35,975 283 362 0
2017-12-09 09:18:43 GMT 53.12867 1.31731 35,975 283 362 0
2017-12-09 09:18:41 GMT 53.12791 1.32307 35,975 283 362 0
2017-12-09 09:18:39 GMT 53.12718 1.32856 36,000 283 362 0
2017-12-09 09:18:37 GMT 53.12630 1.33524 35,975 283 362 0
2017-12-09 09:18:35 GMT 53.12541 1.34179 36,000 283 362 0
2017-12-09 09:18:33 GMT 53.12503 1.34480 36,000 283 362 0
2017-12-09 09:18:31 GMT 53.12416 1.35132 36,000 283 362 0
2017-12-09 09:18:29 GMT 53.12332 1.35754 36,000 283 361 0
2017-12-09 09:18:27 GMT 53.12247 1.36387 36,000 283 361 0
2017-12-09 09:18:27 GMT 53.12247 1.36387 36,000 283 361 0
2017-12-09 09:18:25 GMT 53.12211 1.36675 36,000 283 361 0
2017-12-09 09:18:22 GMT 53.12127 1.37281 36,000 283 361 0
2017-12-09 09:18:20 GMT 53.12013 1.38122 36,000 283 361 0
2017-12-09 09:18:18 GMT 53.11958 1.38545 36,000 283 361 0
2017-12-09 09:18:16 GMT 53.11862 1.39276 36,000 283 361 0
2017-12-09 09:18:14 GMT 53.11801 1.39720 36,000 283 361 0
2017-12-09 09:18:12 GMT 53.11708 1.40407 36,000 283 361 0
2017-12-09 09:18:12 GMT 53.11764 1.39987 36,000 283 361 0
2017-12-09 09:18:10 GMT 53.11665 1.40719 36,000 283 361 0
2017-12-09 09:18:08 GMT 53.11606 1.41166 36,000 283 361 0
2017-12-09 09:18:06 GMT 53.11527 1.41764 36,000 283 361 0
2017-12-09 09:18:04 GMT 53.11414 1.42610 36,000 283 362 0
2017-12-09 09:18:02 GMT 53.11377 1.42877 35,975 283 361 0
2017-12-09 09:18:00 GMT 53.11298 1.43436 35,975 283 361 0
2017-12-09 09:17:58 GMT 53.11205 1.44155 35,975 283 362 0
2017-12-09 09:17:55 GMT 53.11131 1.44688 35,975 283 362 0
2017-12-09 09:17:53 GMT 53.11057 1.45263 35,975 283 362 0
2017-12-09 09:17:51 GMT 53.10947 1.46079 36,000 283 362 0
2017-12-09 09:17:49 GMT 53.10924 1.46236 36,000 283 362 0
2017-12-09 09:17:47 GMT 53.10833 1.46926 36,000 283 362 0
2017-12-09 09:17:45 GMT 53.10777 1.47346 36,000 283 361 0
2017-12-09 09:17:45 GMT 53.10777 1.47346 36,000 283 361 64
2017-12-09 09:17:43 GMT 53.10703 1.47887 36,000 283 361 0
2017-12-09 09:17:41 GMT 53.10594 1.48684 36,000 283 361 64
2017-12-09 09:17:39 GMT 53.10558 1.48951 36,000 283 361 64
2017-12-09 09:17:37 GMT 53.10480 1.49548 36,000 283 361 0
2017-12-09 09:17:35 GMT 53.10420 1.49971 35,975 283 361 0
2017-12-09 09:17:33 GMT 53.10302 1.50868 35,975 283 361 0
2017-12-09 09:17:31 GMT 53.10260 1.51172 35,975 283 361 0
2017-12-09 09:17:29 GMT 53.10167 1.51854 35,975 283 361 0
2017-12-09 09:17:27 GMT 53.10072 1.52569 35,975 283 361 0
2017-12-09 09:17:24 GMT 53.09948 1.53461 36,000 283 361 0
2017-12-09 09:17:22 GMT 53.09883 1.53946 36,000 283 361 0
2017-12-09 09:17:20 GMT 53.09809 1.54503 36,000 283 361 0
2017-12-09 09:17:18 GMT 53.09734 1.55056 36,000 283 361 0
2017-12-09 09:17:16 GMT 53.09702 1.55311 36,000 283 361 0
2017-12-09 09:17:14 GMT 53.09627 1.55852 36,000 283 361 0
2017-12-09 09:17:12 GMT 53.09514 1.56685 36,000 283 361 0
2017-12-09 09:17:10 GMT 53.09478 1.56971 36,000 283 361 0
2017-12-09 09:17:08 GMT 53.09371 1.57732 35,975 283 361 0
2017-12-09 09:17:06 GMT 53.09317 1.58150 36,000 283 361 0
2017-12-09 09:17:04 GMT 53.09264 1.58548 36,000 283 361 0
2017-12-09 09:17:02 GMT 53.09166 1.59279 36,000 283 361 0
2017-12-09 09:17:00 GMT 53.09106 1.59694 36,000 283 361 0
2017-12-09 09:16:58 GMT 53.09061 1.60034 36,000 283 361 0
2017-12-09 09:16:58 GMT 53.09061 1.60034 36,000 283 361 0
2017-12-09 09:16:56 GMT 53.08948 1.60879 36,000 283 362 64
2017-12-09 09:16:54 GMT 53.08910 1.61146 36,000 283 362 0
2017-12-09 09:16:52 GMT 53.08795 1.61987 36,000 283 360 0
2017-12-09 09:16:50 GMT 53.08722 1.62537 36,000 283 362 0
2017-12-09 09:16:47 GMT 53.08631 1.63218 36,000 283 362 0
2017-12-09 09:16:45 GMT 53.08557 1.63751 36,000 283 362 0
2017-12-09 09:16:43 GMT 53.08501 1.64136 35,975 283 361 0
2017-12-09 09:16:41 GMT 53.08370 1.65109 36,000 283 361 0
2017-12-09 09:16:39 GMT 53.08333 1.65376 36,000 283 361 0
2017-12-09 09:16:37 GMT 53.08278 1.65787 36,000 283 361 0
2017-12-09 09:16:35 GMT 53.08170 1.66568 36,000 283 360 0
2017-12-09 09:16:33 GMT 53.08128 1.66882 36,000 283 360 0
2017-12-09 09:16:31 GMT 53.08058 1.67396 36,000 283 361 0
2017-12-09 09:16:29 GMT 53.07953 1.68152 36,000 283 360 0
2017-12-09 09:16:27 GMT 53.07898 1.68541 36,000 283 360 0
2017-12-09 09:16:25 GMT 53.07844 1.68938 36,000 283 360 0
2017-12-09 09:16:23 GMT 53.07733 1.69739 36,000 283 359 64
2017-12-09 09:16:21 GMT 53.07692 1.70044 36,000 283 359 64
2017-12-09 09:16:19 GMT 53.07574 1.70877 36,000 283 359 0
2017-12-09 09:16:17 GMT 53.07542 1.71144 36,000 283 359 0
2017-12-09 09:16:15 GMT 53.07463 1.71700 36,000 283 359 0
2017-12-09 09:16:13 GMT 53.07344 1.72562 35,975 283 359 0
2017-12-09 09:16:11 GMT 53.07272 1.73066 36,000 283 358 0
2017-12-09 09:16:09 GMT 53.07220 1.73451 36,000 283 358 0
2017-12-09 09:16:09 GMT 53.07220 1.73451 36,000 283 358 0
2017-12-09 09:16:07 GMT 53.07152 1.73950 36,000 283 359 0
2017-12-09 09:16:07 GMT 53.07169 1.73819 36,000 283 358 0
2017-12-09 09:16:05 GMT 53.07097 1.74332 36,000 283 358 0
2017-12-09 09:16:03 GMT 53.07024 1.74866 36,000 283 358 0
2017-12-09 09:16:01 GMT 53.06955 1.75381 36,000 283 358 0
2017-12-09 09:15:59 GMT 53.06822 1.76315 35,975 283 358 64
2017-12-09 09:15:57 GMT 53.06758 1.76788 36,000 284 358 0
2017-12-09 09:15:55 GMT 53.06704 1.77194 35,975 284 358 0
2017-12-09 09:15:53 GMT 53.06648 1.77589 35,975 284 358 0
2017-12-09 09:15:51 GMT 53.06555 1.78261 35,975 284 359 0
2017-12-09 09:15:49 GMT 53.06466 1.78904 35,975 284 359 0
2017-12-09 09:15:47 GMT 53.06387 1.79474 35,975 284 359 0
2017-12-09 09:15:44 GMT 53.06259 1.80389 36,000 284 359 0
2017-12-09 09:15:42 GMT 53.06200 1.80809 36,000 284 359 0
2017-12-09 09:15:40 GMT 53.06145 1.81220 36,000 284 359 0
2017-12-09 09:15:38 GMT 53.06057 1.81847 36,000 283 358 0
2017-12-09 09:15:35 GMT 53.05962 1.82518 36,000 283 358 64
2017-12-09 09:15:33 GMT 53.05888 1.83060 36,000 283 357 64
2017-12-09 09:15:33 GMT 53.05908 1.82930 36,000 283 358 64
2017-12-09 09:15:31 GMT 53.05819 1.83558 36,000 283 357 128
2017-12-09 09:15:29 GMT 53.05742 1.84120 36,000 283 357 128
2017-12-09 09:15:29 GMT 53.05703 1.84413 36,000 283 357 128
2017-12-09 09:15:27 GMT 53.05682 1.84547 36,000 283 357 128
2017-12-09 09:15:25 GMT 53.05554 1.85463 35,975 283 357 0
2017-12-09 09:15:23 GMT 53.05536 1.85623 35,975 283 356 0
2017-12-09 09:15:21 GMT 53.05449 1.86256 35,975 283 356 64
2017-12-09 09:15:19 GMT 53.05391 1.86658 35,975 283 357 0
2017-12-09 09:15:17 GMT 53.05298 1.87332 35,975 283 357 0
2017-12-09 09:15:17 GMT 53.05298 1.87332 35,975 283 357 0
2017-12-09 09:15:14 GMT 53.05183 1.88187 35,975 283 357 0
2017-12-09 09:15:12 GMT 53.05133 1.88545 35,975 283 358 0
2017-12-09 09:15:09 GMT 53.05018 1.89373 36,000 283 358 0
2017-12-09 09:15:07 GMT 53.04921 1.90071 36,000 283 357 0
2017-12-09 09:15:07 GMT 53.04921 1.90071 36,000 283 357 0
2017-12-09 09:15:05 GMT 53.04849 1.90582 36,000 283 357 0
2017-12-09 09:15:03 GMT 53.04744 1.91350 36,000 283 357 0
2017-12-09 09:15:00 GMT 53.04680 1.91803 36,000 284 357 0
2017-12-09 09:14:58 GMT 53.04613 1.92269 36,000 284 357 0
2017-12-09 09:14:56 GMT 53.04524 1.92917 36,000 284 357 0
2017-12-09 09:14:54 GMT 53.04433 1.93565 36,000 284 357 0
2017-12-09 09:14:52 GMT 53.04334 1.94285 36,000 283 357 0
2017-12-09 09:14:52 GMT 53.04350 1.94160 36,000 284 357 0
2017-12-09 09:14:49 GMT 53.04260 1.94827 36,000 283 357 0
2017-12-09 09:14:47 GMT 53.04199 1.95243 36,000 283 357 0
2017-12-09 09:14:45 GMT 53.04134 1.95729 36,000 283 357 0
2017-12-09 09:14:43 GMT 53.04008 1.96632 36,000 283 357 0
2017-12-09 09:14:41 GMT 53.03929 1.97182 36,000 283 357 0
2017-12-09 09:14:39 GMT 53.03856 1.97716 36,000 283 357 0
2017-12-09 09:14:37 GMT 53.03783 1.98257 36,000 283 357 0
2017-12-09 09:14:35 GMT 53.03746 1.98524 36,000 283 357 0
2017-12-09 09:14:33 GMT 53.03664 1.99112 36,000 283 357 0
2017-12-09 09:14:31 GMT 53.03622 1.99394 36,000 284 357 0
2017-12-09 09:14:29 GMT 53.03524 2.00100 36,000 284 357 0
2017-12-09 09:14:27 GMT 53.03454 2.00618 36,000 284 357 0
2017-12-09 09:14:25 GMT 53.03371 2.01207 36,000 284 358 0
2017-12-09 09:14:23 GMT 53.03279 2.01881 36,000 284 358 0
2017-12-09 09:14:21 GMT 53.03231 2.02227 36,000 284 358 0
2017-12-09 09:14:18 GMT 53.03105 2.03102 35,975 284 359 0
2017-12-09 09:14:16 GMT 53.03037 2.03590 35,975 284 359 0
2017-12-09 09:14:14 GMT 53.02975 2.04040 36,000 283 360 0
2017-12-09 09:14:12 GMT 53.02899 2.04605 35,975 283 360 0
2017-12-09 09:14:12 GMT 53.02899 2.04605 35,975 283 360 0
2017-12-09 09:14:10 GMT 53.02808 2.05261 35,975 283 360 0
2017-12-09 09:14:07 GMT 53.02691 2.06096 36,000 283 360 0
2017-12-09 09:14:05 GMT 53.02626 2.06567 35,975 283 360 0
2017-12-09 09:14:03 GMT 53.02533 2.07237 35,975 283 360 0
2017-12-09 09:14:03 GMT 53.02533 2.07237 35,975 283 360 0
2017-12-09 09:14:01 GMT 53.02486 2.07587 35,975 283 360 0
2017-12-09 09:13:58 GMT 53.02337 2.08677 35,975 283 360 0
2017-12-09 09:13:56 GMT 53.02277 2.09101 36,000 283 361 0
2017-12-09 09:13:54 GMT 53.02184 2.09800 36,000 283 361 0
2017-12-09 09:13:52 GMT 53.02132 2.10176 36,000 283 361 0
2017-12-09 09:13:50 GMT 53.02048 2.10800 36,000 283 361 0
2017-12-09 09:13:48 GMT 53.01970 2.11342 36,000 283 361 0
2017-12-09 09:13:45 GMT 53.01904 2.11848 36,000 283 361 0
2017-12-09 09:13:43 GMT 53.01830 2.12389 36,000 283 361 0
2017-12-09 09:13:41 GMT 53.01718 2.13198 36,000 283 362 0
2017-12-09 09:13:39 GMT 53.01639 2.13747 36,000 283 362 0
2017-12-09 09:13:37 GMT 53.01606 2.14006 36,000 283 362 0
2017-12-09 09:13:35 GMT 53.01526 2.14584 36,000 283 362 0
2017-12-09 09:13:33 GMT 53.01411 2.15418 36,000 283 362 0
2017-12-09 09:13:31 GMT 53.01375 2.15660 36,000 283 362 0
2017-12-09 09:13:29 GMT 53.01252 2.16556 36,000 283 363 0
2017-12-09 09:13:27 GMT 53.01215 2.16815 36,000 283 363 0
2017-12-09 09:13:25 GMT 53.01141 2.17365 36,000 283 363 0
2017-12-09 09:13:23 GMT 53.01100 2.17659 36,000 283 363 0
2017-12-09 09:13:21 GMT 53.00972 2.18574 36,000 284 363 0
2017-12-09 09:13:21 GMT 53.00958 2.18681 36,000 284 363 0
2017-12-09 09:13:19 GMT 53.00917 2.18964 36,000 284 363 0
2017-12-09 09:13:17 GMT 53.00801 2.19805 36,000 284 363 0
2017-12-09 09:13:15 GMT 53.00766 2.20047 36,000 284 363 0
2017-12-09 09:13:12 GMT 53.00642 2.20940 36,000 283 364 0
2017-12-09 09:13:10 GMT 53.00587 2.21343 36,000 284 364 0
2017-12-09 09:13:08 GMT 53.00487 2.22046 36,000 284 364 0
2017-12-09 09:13:06 GMT 53.00391 2.22755 36,000 284 364 0
2017-12-09 09:13:04 GMT 53.00317 2.23281 36,000 284 364 0
2017-12-09 09:13:01 GMT 53.00198 2.24121 36,000 284 365 0
2017-12-09 09:12:59 GMT 53.00162 2.24388 36,000 284 365 0
2017-12-09 09:12:57 GMT 53.00065 2.25071 36,000 284 365 64
2017-12-09 09:12:55 GMT 52.99991 2.25612 36,000 284 366 64
2017-12-09 09:12:53 GMT 52.99910 2.26181 35,975 284 366 64
2017-12-09 09:12:50 GMT 52.99837 2.26711 35,975 284 366 128
2017-12-09 09:12:48 GMT 52.99741 2.27379 35,975 284 366 128
2017-12-09 09:12:46 GMT 52.99649 2.28035 35,975 284 367 128
2017-12-09 09:12:44 GMT 52.99585 2.28485 35,975 284 367 0
2017-12-09 09:12:42 GMT 52.99516 2.28973 35,975 284 367 64
2017-12-09 09:12:40 GMT 52.99402 2.29790 35,950 284 367 0
2017-12-09 09:12:38 GMT 52.99361 2.30064 35,950 284 367 0
2017-12-09 09:12:36 GMT 52.99219 2.31049 35,975 284 367 0
2017-12-09 09:12:34 GMT 52.99139 2.31631 35,975 284 367 0
2017-12-09 09:12:33 GMT 52.99182 2.31331 35,975 284 367 0
2017-12-09 09:12:31 GMT 52.99083 2.32016 35,975 284 366 64
2017-12-09 09:12:29 GMT 52.99008 2.32529 35,975 284 366 128
2017-12-09 09:12:27 GMT 52.98930 2.33086 35,975 284 363 576
2017-12-09 09:12:25 GMT 52.98841 2.33711 35,975 284 365 256
2017-12-09 09:12:23 GMT 52.98761 2.34276 35,950 284 364 320
2017-12-09 09:12:21 GMT 52.98683 2.34825 35,950 284 364 512
2017-12-09 09:12:21 GMT 52.98683 2.34825 35,950 284 364 512
2017-12-09 09:12:19 GMT 52.98627 2.35225 35,925 284 363 704
2017-12-09 09:12:16 GMT 52.98500 2.36107 35,875 284 363 1216
2017-12-09 09:12:14 GMT 52.98399 2.36816 35,850 284 363 1216
2017-12-09 09:12:12 GMT 52.98308 2.37473 35,800 284 363 1216
2017-12-09 09:12:10 GMT 52.98267 2.37740 35,775 284 363 1280
2017-12-09 09:12:08 GMT 52.98208 2.38152 35,725 284 363 1280
2017-12-09 09:12:06 GMT 52.98042 2.39311 35,650 284 364 1152
2017-12-09 09:12:05 GMT 52.98083 2.39044 35,675 284 364 1152
2017-12-09 09:12:03 GMT 52.97974 2.39807 35,600 284 364 1152
2017-12-09 09:12:01 GMT 52.97932 2.40074 35,575 284 364 1216
2017-12-09 09:11:59 GMT 52.97812 2.40915 35,525 284 364 1280
2017-12-09 09:11:57 GMT 52.97789 2.41064 35,500 284 364 1280
2017-12-09 09:11:54 GMT 52.97645 2.42044 35,425 284 364 1216
2017-12-09 09:11:52 GMT 52.97561 2.42594 35,375 285 365 1088
2017-12-09 09:11:50 GMT 52.97440 2.43402 35,325 285 365 1088
2017-12-09 09:11:50 GMT 52.97440 2.43402 35,325 285 365 1088
2017-12-09 09:11:48 GMT 52.97398 2.43669 35,300 285 365 1088
2017-12-09 09:11:46 GMT 52.97300 2.44320 35,250 285 365 1152
2017-12-09 09:11:44 GMT 52.97186 2.45056 35,200 285 365 1152
2017-12-09 09:11:42 GMT 52.97105 2.45560 35,150 285 365 1152
2017-12-09 09:11:41 GMT 52.97123 2.45450 35,175 285 365 1152
2017-12-09 09:11:39 GMT 52.96998 2.46258 35,100 285 365 1152
2017-12-09 09:11:37 GMT 52.96928 2.46706 35,075 285 366 1088
2017-12-09 09:11:37 GMT 52.96928 2.46706 35,075 285 366 1216
2017-12-09 09:11:37 GMT 52.96928 2.46706 35,075 285 366 1088
2017-12-09 09:11:35 GMT 52.96844 2.47240 35,025 285 366 1088
2017-12-09 09:11:32 GMT 52.96742 2.47917 34,975 285 366 1152
2017-12-09 09:11:30 GMT 52.96637 2.48573 34,950 285 366 1216
2017-12-09 09:11:28 GMT 52.96550 2.49161 34,900 285 367 1280
2017-12-09 09:11:26 GMT 52.96504 2.49443 34,875 285 367 1280
2017-12-09 09:11:24 GMT 52.96420 2.50002 34,825 285 366 1216
2017-12-09 09:11:22 GMT 52.96290 2.50873 34,750 285 366 1088
2017-12-09 09:11:20 GMT 52.96211 2.51396 34,725 285 366 960
2017-12-09 09:11:18 GMT 52.96122 2.51971 34,675 285 366 960
2017-12-09 09:11:16 GMT 52.96085 2.52238 34,675 285 366 960
2017-12-09 09:11:14 GMT 52.95992 2.52842 34,625 284 366 960
2017-12-09 09:11:12 GMT 52.95871 2.53659 34,575 284 366 832
2017-12-09 09:11:10 GMT 52.95787 2.54200 34,550 284 366 768
2017-12-09 09:11:08 GMT 52.95750 2.54467 34,525 284 366 832
2017-12-09 09:11:06 GMT 52.95661 2.55063 34,500 284 365 896
2017-12-09 09:11:06 GMT 52.95661 2.55063 34,500 284 365 896
2017-12-09 09:11:04 GMT 52.95543 2.55852 34,450 284 365 960
2017-12-09 09:11:02 GMT 52.95456 2.56462 34,425 284 365 960
2017-12-09 09:11:00 GMT 52.95415 2.56722 34,400 284 365 960
2017-12-09 09:10:58 GMT 52.95296 2.57538 34,350 284 365 768
2017-12-09 09:10:56 GMT 52.95213 2.58087 34,325 284 365 640
2017-12-09 09:10:54 GMT 52.95168 2.58375 34,325 284 365 576
2017-12-09 09:10:52 GMT 52.95089 2.58924 34,300 284 365 576
2017-12-09 09:10:50 GMT 52.94977 2.59678 34,275 284 364 640
2017-12-09 09:10:48 GMT 52.94912 2.60109 34,250 284 364 704
2017-12-09 09:10:46 GMT 52.94810 2.60823 34,225 284 364 896
2017-12-09 09:10:44 GMT 52.94774 2.61063 34,200 284 364 896
2017-12-09 09:10:42 GMT 52.94675 2.61741 34,150 284 364 1088
2017-12-09 09:10:40 GMT 52.94582 2.62393 34,100 284 365 1344
2017-12-09 09:10:40 GMT 52.94582 2.62393 34,100 284 365 1344
2017-12-09 09:10:38 GMT 52.94521 2.62817 34,075 284 365 1408
2017-12-09 09:10:36 GMT 52.94465 2.63209 34,050 284 365 1408
2017-12-09 09:10:34 GMT 52.94367 2.63870 33,975 284 365 1472
2017-12-09 09:10:32 GMT 52.94311 2.64267 33,950 284 365 1536
2017-12-09 09:10:30 GMT 52.94197 2.65083 33,875 284 366 1600
2017-12-09 09:10:28 GMT 52.94142 2.65457 33,850 284 366 1536
2017-12-09 09:10:26 GMT 52.94083 2.65877 33,800 284 367 1344
2017-12-09 09:10:24 GMT 52.93982 2.66609 33,750 284 367 960
2017-12-09 09:10:22 GMT 52.93921 2.67015 33,725 284 368 896
2017-12-09 09:10:20 GMT 52.93863 2.67426 33,675 284 368 704
2017-12-09 09:10:17 GMT 52.93730 2.68388 33,650 284 367 576
2017-12-09 09:10:15 GMT 52.93648 2.68959 33,625 284 367 448
2017-12-09 09:10:13 GMT 52.93574 2.69463 33,600 284 367 448
2017-12-09 09:10:11 GMT 52.93483 2.70111 33,600 284 366 256
2017-12-09 09:10:08 GMT 52.93378 2.70866 33,575 284 366 320
2017-12-09 09:10:06 GMT 52.93199 2.72163 33,550 283 365 640
2017-12-09 09:10:03 GMT 52.93181 2.72286 33,525 284 364 704
2017-12-09 09:10:01 GMT 52.93101 2.72869 33,500 284 364 1024
2017-12-09 09:09:59 GMT 52.93021 2.73430 33,475 284 364 1024
2017-12-09 09:09:57 GMT 52.92947 2.73952 33,450 284 364 1024
2017-12-09 09:09:55 GMT 52.92892 2.74345 33,425 283 364 1088
2017-12-09 09:09:55 GMT 52.92892 2.74345 33,425 284 364 1088
2017-12-09 09:09:52 GMT 52.92785 2.75137 33,375 283 364 1088
2017-12-09 09:09:52 GMT 52.92801 2.75001 33,375 283 364 1088
2017-12-09 09:09:50 GMT 52.92706 2.75686 33,325 283 364 1088
2017-12-09 09:09:48 GMT 52.92622 2.76314 33,275 283 364 1024
2017-12-09 09:09:46 GMT 52.92566 2.76706 33,250 283 364 1024
2017-12-09 09:09:44 GMT 52.92496 2.77209 33,225 283 364 960
2017-12-09 09:09:42 GMT 52.92421 2.77771 33,200 283 364 960
2017-12-09 09:09:40 GMT 52.92319 2.78503 33,150 283 364 896
2017-12-09 09:09:40 GMT 52.92319 2.78503 33,150 283 364 896
2017-12-09 09:09:38 GMT 52.92263 2.78888 33,125 283 364 896
2017-12-09 09:09:36 GMT 52.92174 2.79549 33,100 283 364 832
2017-12-09 09:09:34 GMT 52.92082 2.80205 33,050 283 362 768
2017-12-09 09:09:34 GMT 52.92082 2.80205 33,050 283 364 768
2017-12-09 09:09:32 GMT 52.92012 2.80732 33,025 283 362 768
2017-12-09 09:09:30 GMT 52.91927 2.81342 33,000 283 362 832
2017-12-09 09:09:30 GMT 52.91947 2.81211 33,000 283 362 832
2017-12-09 09:09:27 GMT 52.91817 2.82150 32,950 283 362 1024
2017-12-09 09:09:24 GMT 52.91723 2.82827 32,925 283 362 1024
2017-12-09 09:09:21 GMT 52.91607 2.83690 32,850 283 361 960
2017-12-09 09:09:19 GMT 52.91546 2.84130 32,825 283 361 832
2017-12-09 09:09:17 GMT 52.91495 2.84507 32,825 283 361 768
2017-12-09 09:09:15 GMT 52.91383 2.85307 32,775 283 361 384
2017-12-09 09:09:13 GMT 52.91332 2.85700 32,750 283 360 256
2017-12-09 09:09:11 GMT 52.91216 2.86523 32,750 283 359 192
2017-12-09 09:09:09 GMT 52.91160 2.86963 32,750 283 358 128
2017-12-09 09:09:09 GMT 52.91160 2.86963 32,750 283 358 128
2017-12-09 09:09:06 GMT 52.91044 2.87787 32,725 283 357 192
2017-12-09 09:09:04 GMT 52.90979 2.88284 32,725 283 356 320
2017-12-09 09:09:01 GMT 52.90857 2.89160 32,700 283 355 576
2017-12-09 09:08:59 GMT 52.90811 2.89529 32,700 283 355 704
2017-12-09 09:08:57 GMT 52.90741 2.90039 32,675 283 355 832
2017-12-09 09:08:55 GMT 52.90666 2.90596 32,625 283 354 1280
2017-12-09 09:08:53 GMT 52.90592 2.91130 32,600 283 354 1344
2017-12-09 09:08:51 GMT 52.90535 2.91565 32,550 283 355 1408
2017-12-09 09:08:51 GMT 52.90513 2.91703 32,550 283 355 1344
2017-12-09 09:08:49 GMT 52.90429 2.92385 32,475 283 355 1280
2017-12-09 09:08:47 GMT 52.90410 2.92542 32,475 283 355 1216
2017-12-09 09:08:45 GMT 52.90292 2.93365 32,400 283 355 1088
2017-12-09 09:08:43 GMT 52.90238 2.93767 32,375 283 355 704
2017-12-09 09:08:40 GMT 52.90140 2.94465 32,325 283 355 704
2017-12-09 09:08:38 GMT 52.90071 2.94983 32,300 283 354 576
2017-12-09 09:08:36 GMT 52.90004 2.95486 32,300 283 353 640
2017-12-09 09:08:34 GMT 52.89898 2.96254 32,250 283 353 512
2017-12-09 09:08:32 GMT 52.89867 2.96486 32,250 283 353 512
2017-12-09 09:08:30 GMT 52.89761 2.97272 32,225 283 352 640
2017-12-09 09:08:28 GMT 52.89684 2.97839 32,200 283 351 832
2017-12-09 09:08:26 GMT 52.89652 2.98090 32,175 283 351 960
2017-12-09 09:08:24 GMT 52.89568 2.98726 32,150 283 351 1088
2017-12-09 09:08:22 GMT 52.89470 2.99456 32,100 283 351 1024
2017-12-09 09:08:20 GMT 52.89433 2.99715 32,075 283 351 1024
2017-12-09 09:08:18 GMT 52.89368 3.00217 32,050 283 351 1024
2017-12-09 09:08:16 GMT 52.89299 3.00736 32,000 283 351 960
2017-12-09 09:08:16 GMT 52.89299 3.00736 32,000 283 351 960
2017-12-09 09:08:14 GMT 52.89219 3.01331 31,975 283 350 960
2017-12-09 09:08:12 GMT 52.89163 3.01763 31,950 283 350 960
2017-12-09 09:08:10 GMT 52.89056 3.02559 31,900 283 350 960
2017-12-09 09:08:08 GMT 52.89001 3.02986 31,875 283 349 960
2017-12-09 09:08:06 GMT 52.88937 3.03444 31,825 283 349 960
2017-12-09 09:08:04 GMT 52.88846 3.04149 31,775 283 348 1088
2017-12-09 09:08:02 GMT 52.88809 3.04415 31,775 283 348 1152
2017-12-09 09:08:00 GMT 52.88708 3.05160 31,700 283 347 1216
2017-12-09 09:07:58 GMT 52.88655 3.05553 31,675 283 347 1280
2017-12-09 09:07:56 GMT 52.88617 3.05824 31,650 283 347 1344
2017-12-09 09:07:54 GMT 52.88484 3.06770 31,575 283 347 1536
2017-12-09 09:07:51 GMT 52.88411 3.07281 31,525 283 347 1600
2017-12-09 09:07:49 GMT 52.88319 3.07960 31,450 283 347 1792
2017-12-09 09:07:45 GMT 52.88195 3.08857 31,325 283 348 1856
2017-12-09 09:07:42 GMT 52.88069 3.09752 31,225 284 350 1920
2017-12-09 09:07:39 GMT 52.87994 3.10295 31,150 284 351 1920
2017-12-09 09:07:37 GMT 52.87884 3.11081 31,050 283 351 1856
2017-12-09 09:07:35 GMT 52.87825 3.11493 31,000 283 351 1856
2017-12-09 09:07:33 GMT 52.87775 3.11859 30,950 283 351 1856
2017-12-09 09:07:31 GMT 52.87701 3.12500 30,875 284 353 1856
2017-12-09 09:07:29 GMT 52.87624 3.12958 30,800 284 353 1856
2017-12-09 09:07:27 GMT 52.87523 3.13644 30,725 284 354 1984
2017-12-09 09:07:25 GMT 52.87440 3.14295 30,650 284 354 1984
2017-12-09 09:07:21 GMT 52.87308 3.15163 30,525 284 355 1920
2017-12-09 09:07:19 GMT 52.87236 3.15716 30,450 284 356 1792
2017-12-09 09:07:17 GMT 52.87133 3.16406 30,375 284 356 1728
2017-12-09 09:07:15 GMT 52.87077 3.16791 30,325 284 357 1664
2017-12-09 09:07:12 GMT 52.86983 3.17543 30,250 284 357 1600
2017-12-09 09:07:10 GMT 52.86914 3.17952 30,200 284 357 1408
2017-12-09 09:07:08 GMT 52.86812 3.18698 30,125 284 358 1216
2017-12-09 09:07:06 GMT 52.86717 3.19351 30,075 284 357 1088
2017-12-09 09:07:04 GMT 52.86658 3.19778 30,050 284 357 896
2017-12-09 09:07:02 GMT 52.86589 3.20259 30,000 284 357 1024
2017-12-09 09:07:01 GMT 52.86528 3.20715 29,975 284 357 1024
2017-12-09 09:07:00 GMT 52.86507 3.20854 29,975 284 357 1024
2017-12-09 09:06:58 GMT 52.86447 3.21274 29,950 284 356 896
2017-12-09 09:06:56 GMT 52.86374 3.21815 29,900 284 356 896
2017-12-09 09:06:54 GMT 52.86309 3.22253 29,875 284 355 896
2017-12-09 09:06:52 GMT 52.86235 3.22786 29,850 284 355 896
2017-12-09 09:06:50 GMT 52.86179 3.23202 29,825 284 355 896
2017-12-09 09:06:48 GMT 52.86067 3.23987 29,775 284 354 1024
2017-12-09 09:06:46 GMT 52.85989 3.24547 29,725 284 354 1216
2017-12-09 09:06:44 GMT 52.85880 3.25340 29,675 283 353 1472
2017-12-09 09:06:44 GMT 52.85930 3.24966 29,700 283 353 1408
2017-12-09 09:06:42 GMT 52.85866 3.25447 29,650 283 353 1728
2017-12-09 09:06:40 GMT 52.85755 3.26208 29,575 283 353 1792
2017-12-09 09:06:38 GMT 52.85718 3.26474 29,550 283 353 1920
2017-12-09 09:06:35 GMT 52.85614 3.27232 29,450 283 354 2048
2017-12-09 09:06:33 GMT 52.85490 3.28133 29,325 283 357 2304
2017-12-09 09:06:31 GMT 52.85454 3.28407 29,275 283 357 2304
2017-12-09 09:06:28 GMT 52.85353 3.29140 29,175 283 358 2304
2017-12-09 09:06:25 GMT 52.85262 3.29773 29,075 283 359 2368
2017-12-09 09:06:23 GMT 52.85165 3.30467 28,975 283 360 2560
2017-12-09 09:06:21 GMT 52.85092 3.31009 28,875 283 361 2688
2017-12-09 09:06:18 GMT 52.84959 3.31936 28,725 284 363 2560
2017-12-09 09:06:14 GMT 52.84799 3.33099 28,525 284 364 2368
2017-12-09 09:06:11 GMT 52.84703 3.33788 28,425 284 365 2112
2017-12-09 09:06:09 GMT 52.84589 3.34557 28,325 284 366 1728
2017-12-09 09:06:06 GMT 52.84536 3.34973 28,275 284 366 1920
2017-12-09 09:06:04 GMT 52.84415 3.35815 28,175 284 366 1728
2017-12-09 09:06:02 GMT 52.84323 3.36472 28,100 284 367 1472
2017-12-09 09:06:00 GMT 52.84303 3.36613 28,075 284 367 1472
2017-12-09 09:05:58 GMT 52.84168 3.37563 28,000 284 367 1152
2017-12-09 09:05:56 GMT 52.84126 3.37837 27,975 284 366 1024
2017-12-09 09:05:54 GMT 52.84044 3.38440 27,925 284 366 1088
2017-12-09 09:05:52 GMT 52.83944 3.39117 27,875 284 366 1152
2017-12-09 09:05:49 GMT 52.83829 3.39951 27,825 284 365 1280
2017-12-09 09:05:47 GMT 52.83795 3.40199 27,800 284 365 1280
2017-12-09 09:05:47 GMT 52.83795 3.40199 27,800 284 365 1280
2017-12-09 09:05:45 GMT 52.83691 3.40935 27,750 284 365 1536
2017-12-09 09:05:42 GMT 52.83568 3.41805 27,650 284 365 1728
2017-12-09 09:05:40 GMT 52.83513 3.42186 27,600 284 365 1792
2017-12-09 09:05:40 GMT 52.83513 3.42186 27,600 284 365 1856
2017-12-09 09:05:38 GMT 52.83456 3.42601 27,575 284 365 1856
2017-12-09 09:05:36 GMT 52.83376 3.43127 27,500 284 366 1792
2017-12-09 09:05:34 GMT 52.83293 3.43765 27,425 284 366 1792
2017-12-09 09:05:32 GMT 52.83206 3.44360 27,350 284 366 1664
2017-12-09 09:05:30 GMT 52.83096 3.45116 27,275 284 366 1664
2017-12-09 09:05:28 GMT 52.83069 3.45337 27,250 284 366 1664
2017-12-09 09:05:26 GMT 52.82968 3.46046 27,175 284 366 1664
2017-12-09 09:05:24 GMT 52.82909 3.46481 27,125 284 367 1664
2017-12-09 09:05:22 GMT 52.82822 3.47084 27,075 284 367 1664
2017-12-09 09:05:19 GMT 52.82707 3.47900 26,975 284 367 1792
2017-12-09 09:05:17 GMT 52.82643 3.48343 26,925 284 367 1728
2017-12-09 09:05:15 GMT 52.82552 3.48991 26,850 284 367 1536
2017-12-09 09:05:12 GMT 52.82427 3.49868 26,775 284 367 1408
2017-12-09 09:05:10 GMT 52.82364 3.50281 26,725 284 367 1344
2017-12-09 09:05:08 GMT 52.82264 3.50982 26,675 284 367 1280
2017-12-09 09:05:05 GMT 52.82181 3.51555 26,625 284 366 1280
2017-12-09 09:05:03 GMT 52.82096 3.52135 26,575 284 366 1280
2017-12-09 09:05:01 GMT 52.82012 3.52779 26,525 284 366 1280
2017-12-09 09:04:59 GMT 52.81901 3.53485 26,475 284 366 1216
2017-12-09 09:04:57 GMT 52.81826 3.54027 26,425 284 366 1152
2017-12-09 09:04:56 GMT 52.81808 3.54136 26,425 284 365 1088
2017-12-09 09:04:54 GMT 52.81663 3.55141 26,350 284 365 1088
2017-12-09 09:04:52 GMT 52.81650 3.55247 26,325 284 365 1088
2017-12-09 09:04:50 GMT 52.81544 3.55957 26,275 284 365 1088
2017-12-09 09:04:48 GMT 52.81468 3.56475 26,250 284 364 1024
2017-12-09 09:04:46 GMT 52.81430 3.56742 26,225 284 363 960
2017-12-09 09:04:44 GMT 52.81300 3.57652 26,175 284 363 960
2017-12-09 09:04:42 GMT 52.81206 3.58276 26,125 284 362 1024
2017-12-09 09:04:40 GMT 52.81175 3.58515 26,100 284 361 1024
2017-12-09 09:04:40 GMT 52.81175 3.58515 26,100 284 361 1024
2017-12-09 09:04:38 GMT 52.81091 3.59104 26,075 284 361 960
2017-12-09 09:04:36 GMT 52.81014 3.59627 26,050 284 360 896
2017-12-09 09:04:32 GMT 52.80853 3.60748 25,975 284 360 832
2017-12-09 09:04:30 GMT 52.80794 3.61160 25,950 284 358 704
2017-12-09 09:04:28 GMT 52.80693 3.61862 25,925 284 358 704
2017-12-09 09:04:25 GMT 52.80602 3.62495 25,875 284 357 896
2017-12-09 09:04:22 GMT 52.80481 3.63326 25,825 284 355 1024
2017-12-09 09:04:20 GMT 52.80386 3.63983 25,800 284 355 1088
2017-12-09 09:04:17 GMT 52.80318 3.64479 25,750 284 354 1088
2017-12-09 09:04:15 GMT 52.80225 3.65107 25,700 284 354 1152
2017-12-09 09:04:13 GMT 52.80171 3.65501 25,675 284 353 1216
2017-12-09 09:04:10 GMT 52.80034 3.66455 25,600 284 353 1344
2017-12-09 09:04:07 GMT 52.79933 3.67180 25,525 284 352 1536
2017-12-09 09:04:04 GMT 52.79815 3.67987 25,450 284 352 1792
2017-12-09 09:04:02 GMT 52.79718 3.68698 25,350 284 352 1856
2017-12-09 09:04:00 GMT 52.79662 3.69094 25,300 284 352 1856
2017-12-09 09:03:58 GMT 52.79582 3.69659 25,250 284 352 1920
2017-12-09 09:03:56 GMT 52.79508 3.70184 25,175 284 352 1984
2017-12-09 09:03:54 GMT 52.79452 3.70553 25,125 284 352 2048
2017-12-09 09:03:52 GMT 52.79384 3.71048 25,050 284 353 2112
2017-12-09 09:03:50 GMT 52.79298 3.71660 24,975 284 353 2176
2017-12-09 09:03:48 GMT 52.79201 3.72335 24,875 284 353 2112
2017-12-09 09:03:46 GMT 52.79160 3.72620 24,825 284 353 2112
2017-12-09 09:03:45 GMT 52.79137 3.72780 24,800 284 354 2048
2017-12-09 09:03:43 GMT 52.79040 3.73459 24,725 284 354 1792
2017-12-09 09:03:41 GMT 52.78963 3.73993 24,650 284 354 1792
2017-12-09 09:03:39 GMT 52.78903 3.74405 24,600 284 354 1792
2017-12-09 09:03:37 GMT 52.78772 3.75324 24,475 284 354 1728
2017-12-09 09:03:35 GMT 52.78758 3.75426 24,475 284 354 1664
2017-12-09 09:03:33 GMT 52.78633 3.76321 24,375 284 353 2048
2017-12-09 09:03:31 GMT 52.78587 3.76625 24,350 284 354 1600
2017-12-09 09:03:29 GMT 52.78491 3.77304 24,250 284 353 1728
2017-12-09 09:03:27 GMT 52.78432 3.77716 24,225 284 353 1856
2017-12-09 09:03:25 GMT 52.78353 3.78275 24,150 284 353 2048
2017-12-09 09:03:23 GMT 52.78290 3.78708 24,100 284 354 2368
2017-12-09 09:03:21 GMT 52.78181 3.79468 23,975 284 354 2176
2017-12-09 09:03:19 GMT 52.78111 3.79982 23,900 284 354 2304
2017-12-09 09:03:17 GMT 52.78055 3.80362 23,850 284 354 2304
2017-12-09 09:03:14 GMT 52.77911 3.81359 23,700 287 350 2368
2017-12-09 09:03:10 GMT 52.77799 3.82144 23,600 284 354 1664
2017-12-09 09:03:08 GMT 52.77741 3.82553 23,550 284 354 1664
2017-12-09 09:03:06 GMT 52.77676 3.83011 23,475 284 354 1600
2017-12-09 09:03:04 GMT 52.77548 3.83911 23,400 284 353 1472
2017-12-09 09:03:04 GMT 52.77562 3.83804 23,400 284 353 1472
2017-12-09 09:03:01 GMT 52.77450 3.84561 23,325 284 352 1600
2017-12-09 09:02:59 GMT 52.77393 3.84964 23,275 284 352 1600
2017-12-09 09:02:57 GMT 52.77297 3.85612 23,200 284 351 1856
2017-12-09 09:02:55 GMT 52.77210 3.86208 23,125 284 352 2048
2017-12-09 09:02:53 GMT 52.77110 3.86852 23,050 289 349 2432
2017-12-09 09:02:52 GMT 52.77134 3.86711 23,075 284 351 2176
2017-12-09 09:02:50 GMT 52.77059 3.87221 23,000 286 350 2304
2017-12-09 09:02:48 GMT 52.76976 3.87739 22,925 287 350 2368
2017-12-09 09:02:46 GMT 52.76868 3.88359 22,825 288 349 2432
2017-12-09 09:02:44 GMT 52.76724 3.89120 22,675 289 348 2496
2017-12-09 09:02:42 GMT 52.76646 3.89488 22,625 290 348 2560
2017-12-09 09:02:40 GMT 52.76566 3.89873 22,550 292 347 2752
2017-12-09 09:02:38 GMT 52.76463 3.90335 22,450 292 347 2688
2017-12-09 09:02:35 GMT 52.76207 3.91404 22,250 293 347 2688
2017-12-09 09:02:33 GMT 52.76124 3.91733 22,200 293 347 2560
2017-12-09 09:02:29 GMT 52.75909 3.92593 22,050 293 348 2304
2017-12-09 09:02:27 GMT 52.75781 3.93089 21,950 293 348 2176
2017-12-09 09:02:25 GMT 52.75667 3.93546 21,875 293 348 2240
2017-12-09 09:02:23 GMT 52.75539 3.94066 21,800 293 348 2304
2017-12-09 09:02:21 GMT 52.75332 3.94872 21,675 293 348 2304
2017-12-09 09:02:19 GMT 52.75244 3.95218 21,625 293 349 2240
2017-12-09 09:02:19 GMT 52.75207 3.95367 21,600 293 349 1984
2017-12-09 09:02:17 GMT 52.75118 3.95729 21,525 293 349 1856
2017-12-09 09:02:15 GMT 52.74983 3.96253 21,450 293 349 1856
2017-12-09 09:02:12 GMT 52.74820 3.96889 21,375 293 348 1664
2017-12-09 09:02:10 GMT 52.74742 3.97201 21,350 293 348 1600
2017-12-09 09:02:08 GMT 52.74611 3.97721 21,275 293 348 1408
2017-12-09 09:02:05 GMT 52.74410 3.98498 21,200 293 346 1088
2017-12-09 09:02:03 GMT 52.74252 3.99126 21,150 293 344 896
2017-12-09 09:02:01 GMT 52.74156 3.99490 21,125 293 344 896
2017-12-09 09:01:58 GMT 52.73963 4.00240 21,075 293 342 896
2017-12-09 09:01:55 GMT 52.73753 4.01077 21,025 293 340 896
2017-12-09 09:01:52 GMT 52.73624 4.01582 20,975 293 339 1024
2017-12-09 09:01:50 GMT 52.73497 4.02077 20,950 293 338 1280
2017-12-09 09:01:48 GMT 52.73364 4.02595 20,900 293 335 1536
2017-12-09 09:01:44 GMT 52.73149 4.03450 20,775 293 334 1856
2017-12-09 09:01:42 GMT 52.73023 4.03952 20,725 293 334 2112
2017-12-09 09:01:40 GMT 52.72852 4.04633 20,600 293 333 2368
2017-12-09 09:01:38 GMT 52.72723 4.05136 20,525 293 333 2496
2017-12-09 09:01:36 GMT 52.72682 4.05289 20,500 293 334 2624
2017-12-09 09:01:33 GMT 52.72511 4.05961 20,350 293 335 2624
2017-12-09 09:01:31 GMT 52.72320 4.06714 20,225 293 335 2432
2017-12-09 09:01:29 GMT 52.72206 4.07158 20,125 293 335 2432
2017-12-09 09:01:27 GMT 52.72147 4.07387 20,075 293 335 2240
2017-12-09 09:01:25 GMT 52.71971 4.08071 19,975 294 334 2176
2017-12-09 09:01:23 GMT 52.71873 4.08456 19,900 294 334 2240
2017-12-09 09:01:21 GMT 52.71739 4.08989 19,825 294 333 2112
2017-12-09 09:01:19 GMT 52.71652 4.09317 19,775 294 333 2048
2017-12-09 09:01:17 GMT 52.71506 4.09882 19,675 294 333 2112
2017-12-09 09:01:15 GMT 52.71350 4.10484 19,575 294 333 2048
2017-12-09 09:01:13 GMT 52.71203 4.11061 19,475 294 332 1792
2017-12-09 09:01:10 GMT 52.71121 4.11377 19,425 294 332 1728
2017-12-09 09:01:08 GMT 52.70943 4.12064 19,375 294 331 1408
2017-12-09 09:01:06 GMT 52.70892 4.12254 19,325 294 331 1280
2017-12-09 09:01:04 GMT 52.70709 4.12949 19,275 294 328 1216
2017-12-09 09:01:02 GMT 52.70627 4.13269 19,225 294 328 1216
2017-12-09 09:01:00 GMT 52.70531 4.13643 19,200 294 327 1088
2017-12-09 09:00:56 GMT 52.70284 4.14597 19,125 293 321 1088
2017-12-09 09:00:56 GMT 52.70284 4.14597 19,125 294 323 1152
2017-12-09 09:00:52 GMT 52.70058 4.15479 19,050 293 321 1088
2017-12-09 09:00:51 GMT 52.69936 4.15947 19,000 293 320 1088
2017-12-09 09:00:50 GMT 52.69848 4.16288 18,975 293 320 1088
2017-12-09 09:00:48 GMT 52.69792 4.16515 18,950 293 318 1088
2017-12-09 09:00:46 GMT 52.69684 4.16931 18,925 293 315 1024
2017-12-09 09:00:43 GMT 52.69462 4.17794 18,850 293 313 1024
2017-12-09 09:00:41 GMT 52.69432 4.17908 18,825 293 312 960
2017-12-09 09:00:39 GMT 52.69221 4.18739 18,775 293 307 960
2017-12-09 09:00:37 GMT 52.69127 4.19105 18,750 293 308 960
2017-12-09 09:00:35 GMT 52.69048 4.19411 18,725 293 306 896
2017-12-09 09:00:35 GMT 52.69098 4.19220 18,725 293 307 960
2017-12-09 09:00:33 GMT 52.68970 4.19731 18,700 293 306 896
2017-12-09 09:00:31 GMT 52.68810 4.20353 18,650 293 302 832
2017-12-09 09:00:29 GMT 52.68708 4.20737 18,625 294 298 960
2017-12-09 09:00:26 GMT 52.68521 4.21471 18,550 294 298 1088
2017-12-09 09:00:24 GMT 52.68425 4.21844 18,525 293 292 1344
2017-12-09 09:00:22 GMT 52.68338 4.22173 18,475 293 295 1472
2017-12-09 09:00:20 GMT 52.68205 4.22699 18,425 293 294 1600
2017-12-09 09:00:17 GMT 52.68095 4.23119 18,375 293 292 1344
2017-12-09 09:00:15 GMT 52.67967 4.23614 18,300 293 290 1344
2017-12-09 09:00:13 GMT 52.67856 4.24049 18,250 294 289 1600
2017-12-09 09:00:11 GMT 52.67795 4.24284 18,225 294 289 1600
2017-12-09 09:00:09 GMT 52.67642 4.24881 18,125 294 285 2176
2017-12-09 09:00:09 GMT 52.67615 4.24965 18,125 293 286 1920
2017-12-09 09:00:07 GMT 52.67569 4.25148 18,075 293 286 1856
2017-12-09 09:00:05 GMT 52.67479 4.25508 18,000 293 284 2304
2017-12-09 09:00:02 GMT 52.67285 4.26254 17,900 294 284 2624
2017-12-09 09:00:00 GMT 52.67204 4.26568 17,800 294 283 2560
2017-12-09 08:59:58 GMT 52.67092 4.26999 17,700 294 283 2560
2017-12-09 08:59:56 GMT 52.66990 4.27400 17,600 293 284 2304
2017-12-09 08:59:54 GMT 52.66859 4.27902 17,500 293 283 1920
2017-12-09 08:59:52 GMT 52.66785 4.28192 17,450 293 282 1984
2017-12-09 08:59:50 GMT 52.66685 4.28574 17,375 293 281 1920
2017-12-09 08:59:48 GMT 52.66580 4.28985 17,300 293 280 2176
2017-12-09 08:59:46 GMT 52.66489 4.29359 17,250 293 281 1920
2017-12-09 08:59:42 GMT 52.66255 4.30275 17,075 293 278 2112
2017-12-09 08:59:40 GMT 52.66168 4.30618 17,000 293 278 2112
2017-12-09 08:59:40 GMT 52.66143 4.30719 16,975 293 277 2240
2017-12-09 08:59:38 GMT 52.66095 4.30901 16,950 293 278 2112
2017-12-09 08:59:36 GMT 52.65943 4.31496 16,825 293 277 2304
2017-12-09 08:59:36 GMT 52.65971 4.31396 16,850 293 277 2304
2017-12-09 08:59:34 GMT 52.65891 4.31692 16,775 293 276 2176
2017-12-09 08:59:32 GMT 52.65784 4.32116 16,700 293 276 2176
2017-12-09 08:59:28 GMT 52.65598 4.32853 16,550 293 275 2304
2017-12-09 08:59:27 GMT 52.65561 4.33003 16,500 293 274 2176
2017-12-09 08:59:26 GMT 52.65528 4.33120 16,475 293 274 2432
2017-12-09 08:59:24 GMT 52.65384 4.33693 16,350 293 273 2368
2017-12-09 08:59:22 GMT 52.65257 4.34181 16,250 293 273 2304
2017-12-09 08:59:21 GMT 52.65257 4.34181 16,250 293 273 2304
2017-12-09 08:59:19 GMT 52.65170 4.34541 16,175 293 273 2368
2017-12-09 08:59:17 GMT 52.65056 4.34982 16,075 293 272 2496
2017-12-09 08:59:15 GMT 52.64960 4.35349 16,000 293 271 2496
2017-12-09 08:59:15 GMT 52.64960 4.35349 16,000 293 271 2496
2017-12-09 08:59:13 GMT 52.64886 4.35647 15,925 293 270 2368
2017-12-09 08:59:13 GMT 52.64886 4.35647 15,925 293 270 2368
2017-12-09 08:59:11 GMT 52.64749 4.36195 15,800 293 270 2368
2017-12-09 08:59:08 GMT 52.64588 4.36824 15,650 293 269 2496
2017-12-09 08:59:05 GMT 52.64488 4.37225 15,550 293 269 2624
2017-12-09 08:59:03 GMT 52.64369 4.37695 15,450 293 268 2688
2017-12-09 08:59:01 GMT 52.64290 4.37993 15,350 293 268 2944
2017-12-09 08:59:01 GMT 52.64314 4.37897 15,375 293 268 2816
2017-12-09 08:58:59 GMT 52.64216 4.38300 15,275 293 268 2880
2017-12-09 08:58:57 GMT 52.64044 4.38957 15,100 293 269 3264
2017-12-09 08:58:55 GMT 52.63945 4.39351 14,975 293 271 2944
2017-12-09 08:58:53 GMT 52.63871 4.39657 14,875 293 270 3328
2017-12-09 08:58:53 GMT 52.63871 4.39657 14,875 293 270 3328
2017-12-09 08:58:50 GMT 52.63736 4.40191 14,725 293 270 3264
2017-12-09 08:58:48 GMT 52.63646 4.40536 14,600 293 271 3072
2017-12-09 08:58:46 GMT 52.63577 4.40811 14,525 293 271 2944
2017-12-09 08:58:43 GMT 52.63440 4.41345 14,375 293 271 2880
2017-12-09 08:58:41 GMT 52.63316 4.41833 14,250 293 270 2496
2017-12-09 08:58:37 GMT 52.63108 4.42655 14,050 293 269 2560
2017-12-09 08:58:37 GMT 52.63108 4.42655 14,050 293 269 2560
2017-12-09 08:58:35 GMT 52.63000 4.43092 13,950 293 269 2560
2017-12-09 08:58:33 GMT 52.62982 4.43169 13,950 293 268 2496
2017-12-09 08:58:31 GMT 52.62799 4.43886 13,775 293 268 2432
2017-12-09 08:58:28 GMT 52.62707 4.44260 13,675 293 267 2432
2017-12-09 08:58:26 GMT 52.62611 4.44634 13,600 293 266 2560
2017-12-09 08:58:26 GMT 52.62611 4.44634 13,600 293 266 2560
2017-12-09 08:58:24 GMT 52.62521 4.44993 13,500 293 265 2496
2017-12-09 08:58:21 GMT 52.62382 4.45534 13,375 293 264 2624
2017-12-09 08:58:19 GMT 52.62241 4.46091 13,225 293 264 2688
2017-12-09 08:58:17 GMT 52.62158 4.46419 13,150 293 263 2688
2017-12-09 08:58:14 GMT 52.62060 4.46814 13,050 293 263 2816
2017-12-09 08:58:12 GMT 52.61934 4.47293 12,925 293 262 2880
2017-12-09 08:58:12 GMT 52.61934 4.47293 12,925 293 262 2880
2017-12-09 08:58:10 GMT 52.61865 4.47563 12,850 293 262 2880
2017-12-09 08:58:08 GMT 52.61723 4.48112 12,700 294 263 2880
2017-12-09 08:58:06 GMT 52.61632 4.48462 12,600 294 262 3008
2017-12-09 08:58:06 GMT 52.61632 4.48462 12,600 294 262 3008
2017-12-09 08:58:03 GMT 52.61545 4.48807 12,500 294 262 3136
2017-12-09 08:58:01 GMT 52.61458 4.49142 12,400 294 261 3200
2017-12-09 08:57:59 GMT 52.61339 4.49570 12,250 294 262 3200
2017-12-09 08:57:57 GMT 52.61208 4.50055 12,125 295 262 3072
2017-12-09 08:57:54 GMT 52.61046 4.50615 11,950 297 262 2944
2017-12-09 08:57:52 GMT 52.61014 4.50722 11,925 302 262 2880
2017-12-09 08:57:50 GMT 52.60873 4.51161 11,800 302 262 2880
2017-12-09 08:57:48 GMT 52.60739 4.51515 11,675 307 262 2816
2017-12-09 08:57:46 GMT 52.60556 4.51923 11,550 311 263 2880
2017-12-09 08:57:43 GMT 52.60301 4.52401 11,400 316 264 2752
2017-12-09 08:57:41 GMT 52.60110 4.52700 11,275 320 264 2752
2017-12-09 08:57:39 GMT 52.59942 4.52935 11,200 325 264 2816
2017-12-09 08:57:37 GMT 52.59770 4.53155 11,100 325 264 2816
2017-12-09 08:57:35 GMT 52.59514 4.53461 10,975 326 262 2880
2017-12-09 08:57:33 GMT 52.59449 4.53531 10,950 326 263 2816
2017-12-09 08:57:33 GMT 52.59398 4.53590 10,925 326 263 2816
2017-12-09 08:57:29 GMT 52.59018 4.54025 10,725 326 262 2880
2017-12-09 08:57:27 GMT 52.58881 4.54186 10,650 326 262 3136
2017-12-09 08:57:25 GMT 52.58532 4.54575 10,450 326 261 3072
2017-12-09 08:57:23 GMT 52.58441 4.54681 10,400 326 261 3072
2017-12-09 08:57:20 GMT 52.58047 4.55131 10,200 326 261 3136
2017-12-09 08:57:18 GMT 52.57910 4.55292 10,125 326 261 3136
2017-12-09 08:57:16 GMT 52.57649 4.55582 9,975 326 261 3200
2017-12-09 08:57:14 GMT 52.57549 4.55696 9,900 326 260 3264
2017-12-09 08:57:12 GMT 52.57400 4.55870 9,825 326 260 3392
2017-12-09 08:57:10 GMT 52.57112 4.56192 9,650 326 261 3392
2017-12-09 08:57:08 GMT 52.56853 4.56482 9,500 326 261 3392
2017-12-09 08:57:04 GMT 52.56451 4.56945 9,250 326 261 3136
2017-12-09 08:57:04 GMT 52.56451 4.56945 9,250 326 261 3136
2017-12-09 08:57:02 GMT 52.56399 4.57001 9,225 326 261 3136
2017-12-09 08:56:58 GMT 52.55901 4.57565 8,950 326 260 3072
2017-12-09 08:56:56 GMT 52.55794 4.57683 8,900 326 260 3008
2017-12-09 08:56:54 GMT 52.55557 4.57965 8,775 326 259 2944
2017-12-09 08:56:52 GMT 52.55361 4.58185 8,675 326 259 2880
2017-12-09 08:56:50 GMT 52.55136 4.58443 8,550 326 258 2816
2017-12-09 08:56:48 GMT 52.54947 4.58656 8,450 326 258 2880
2017-12-09 08:56:46 GMT 52.54756 4.58875 8,350 325 254 3328
2017-12-09 08:56:44 GMT 52.54550 4.59114 8,250 326 256 2944
2017-12-09 08:56:42 GMT 52.54257 4.59450 8,100 326 255 3200
2017-12-09 08:56:40 GMT 52.54151 4.59566 8,025 326 254 3264
2017-12-09 08:56:37 GMT 52.53831 4.59930 7,850 326 254 3392
2017-12-09 08:56:34 GMT 52.53513 4.60296 7,650 325 254 3328
2017-12-09 08:56:32 GMT 52.53415 4.60414 7,575 325 254 3328
2017-12-09 08:56:29 GMT 52.53076 4.60800 7,375 325 254 3520
2017-12-09 08:56:26 GMT 52.52880 4.61033 7,250 325 254 3456
2017-12-09 08:56:24 GMT 52.52708 4.61230 7,150 325 254 3392
2017-12-09 08:56:22 GMT 52.52408 4.61578 6,950 325 254 3072
2017-12-09 08:56:20 GMT 52.52211 4.61800 6,850 325 254 3072
2017-12-09 08:56:18 GMT 52.51987 4.62067 6,725 325 252 3072
2017-12-09 08:56:16 GMT 52.51849 4.62219 6,650 326 252 3520
2017-12-09 08:56:14 GMT 52.51662 4.62441 6,525 326 252 3136
2017-12-09 08:56:11 GMT 52.51451 4.62677 6,400 326 251 3264
2017-12-09 08:56:11 GMT 52.51451 4.62677 6,400 326 252 3520
2017-12-09 08:56:08 GMT 52.51041 4.63144 6,175 326 250 2880
2017-12-09 08:56:06 GMT 52.50944 4.63254 6,125 326 249 2816
2017-12-09 08:56:04 GMT 52.50659 4.63576 5,975 326 247 2944
2017-12-09 08:56:01 GMT 52.50444 4.63821 5,850 326 247 3136
2017-12-09 08:55:58 GMT 52.50178 4.64119 5,700 326 246 2944
2017-12-09 08:55:56 GMT 52.50028 4.64294 5,625 326 245 3584
2017-12-09 08:55:54 GMT 52.49826 4.64523 5,500 326 245 3328
2017-12-09 08:55:51 GMT 52.49496 4.64886 5,275 326 244 3328
2017-12-09 08:55:49 GMT 52.49291 4.65122 5,150 326 244 3328
2017-12-09 08:55:47 GMT 52.49105 4.65326 5,025 327 243 3392
2017-12-09 08:55:45 GMT 52.48929 4.65523 4,925 327 244 3008
2017-12-09 08:55:43 GMT 52.48728 4.65734 4,800 327 242 3136
2017-12-09 08:55:41 GMT 52.48499 4.65977 4,675 327 242 3008
2017-12-09 08:55:38 GMT 52.48210 4.66293 4,525 328 241 1280
2017-12-09 08:55:36 GMT 52.48119 4.66385 4,475 328 242 2432
2017-12-09 08:55:34 GMT 52.47918 4.66597 4,400 328 241 1856
2017-12-09 08:55:32 GMT 52.47665 4.66866 4,300 328 241 1600
2017-12-09 08:55:30 GMT 52.47514 4.67018 4,250 328 241 1600
2017-12-09 08:55:28 GMT 52.47253 4.67293 4,175 328 241 1280
2017-12-09 08:55:25 GMT 52.46988 4.67575 4,100 328 241 1280
2017-12-09 08:55:23 GMT 52.46847 4.67719 4,075 328 240 1088
2017-12-09 08:55:20 GMT 52.46576 4.68002 4,000 328 239 1216
2017-12-09 08:55:18 GMT 52.46333 4.68254 3,950 328 238 1216
2017-12-09 08:55:16 GMT 52.46242 4.68353 3,925 328 238 1216
2017-12-09 08:55:14 GMT 52.46028 4.68575 3,875 328 238 896
2017-12-09 08:55:10 GMT 52.45618 4.69006 3,800 328 239 1344
2017-12-09 08:55:08 GMT 52.45477 4.69147 3,750 328 238 1280
2017-12-09 08:55:05 GMT 52.45241 4.69391 3,700 328 237 1280
2017-12-09 08:55:03 GMT 52.45070 4.69574 3,675 328 237 1088
2017-12-09 08:55:00 GMT 52.44668 4.69995 3,575 328 236 1280
2017-12-09 08:54:58 GMT 52.44543 4.70129 3,525 327 236 1152
2017-12-09 08:54:56 GMT 52.44356 4.70325 3,500 328 235 1088
2017-12-09 08:54:54 GMT 52.44132 4.70558 3,450 328 235 1152
2017-12-09 08:54:50 GMT 52.43751 4.70940 3,350 330 237 960
2017-12-09 08:54:50 GMT 52.43709 4.70984 3,350 330 237 960
2017-12-09 08:54:48 GMT 52.43614 4.71085 3,325 333 237 704
2017-12-09 08:54:46 GMT 52.43328 4.71321 3,300 337 237 512
2017-12-09 08:54:43 GMT 52.43104 4.71470 3,275 343 237 896
2017-12-09 08:54:41 GMT 52.42799 4.71634 3,225 346 235 960
2017-12-09 08:54:39 GMT 52.42699 4.71672 3,225 351 230 704
2017-12-09 08:54:37 GMT 52.42476 4.71737 3,175 354 227 960
2017-12-09 08:54:35 GMT 52.42289 4.71776 3,150 356 224 960
2017-12-09 08:54:33 GMT 52.41971 4.71809 3,100 0 220 768
2017-12-09 08:54:30 GMT 52.41788 4.71802 3,075 2 216 960
2017-12-09 08:54:28 GMT 52.41535 4.71784 3,025 3 212 832
2017-12-09 08:54:26 GMT 52.41437 4.71776 3,025 3 212 832
2017-12-09 08:54:24 GMT 52.41181 4.71753 2,975 3 210 896
2017-12-09 08:54:22 GMT 52.40982 4.71733 2,950 3 207 832
2017-12-09 08:54:20 GMT 52.40837 4.71722 2,925 3 206 1216
2017-12-09 08:54:18 GMT 52.40609 4.71698 2,875 3 201 1344
2017-12-09 08:54:16 GMT 52.40334 4.71675 2,800 3 187 960
2017-12-09 08:54:14 GMT 52.40231 4.71664 2,800 3 194 512
2017-12-09 08:54:12 GMT 52.40046 4.71651 2,750 3 191 576
2017-12-09 08:54:10 GMT 52.39861 4.71634 2,725 3 185 1216
2017-12-09 08:54:07 GMT 52.39645 4.71612 2,675 3 180 1408
2017-12-09 08:54:05 GMT 52.39478 4.71596 2,625 3 178 1472
2017-12-09 08:54:02 GMT 52.39166 4.71565 2,525 4 148 3200
2017-12-09 08:54:00 GMT 52.39087 4.71557 2,500 2 174 1600
2017-12-09 08:53:58 GMT 52.38877 4.71541 2,450 3 169 1536
2017-12-09 08:53:56 GMT 52.38794 4.71535 2,400 3 168 1600
2017-12-09 08:53:54 GMT 52.38598 4.71518 2,350 3 165 1536
2017-12-09 08:53:51 GMT 52.38356 4.71486 2,250 3 162 1472
2017-12-09 08:53:49 GMT 52.38213 4.71474 2,200 3 159 1472
2017-12-09 08:53:47 GMT 52.38011 4.71455 2,125 3 156 1344
2017-12-09 08:53:44 GMT 52.37825 4.71431 2,075 4 153 1472
2017-12-09 08:53:41 GMT 52.37602 4.71408 1,975 4 149 2048
2017-12-09 08:53:38 GMT 52.37406 4.71384 1,875 4 147 3264
2017-12-09 08:53:36 GMT 52.37266 4.71368 1,750 4 148 3264
2017-12-09 08:53:34 GMT 52.37183 4.71352 1,675 4 149 3328
2017-12-09 08:53:31 GMT 52.36968 4.71329 1,500 4 149 3264
2017-12-09 08:53:29 GMT 52.36801 4.71306 1,375 4 151 3200
2017-12-09 08:53:26 GMT 52.36610 4.71283 1,225 4 153 3008
2017-12-09 08:53:23 GMT 52.36419 4.71258 1,075 4 153 3136
2017-12-09 08:53:18 GMT 52.36070 4.71204 800 4 154 2944
2017-12-09 08:53:16 GMT 52.35892 4.71184 700 4 154 2944
2017-12-09 08:53:14 GMT 52.35672 4.71153 525 4 154 2944
2017-12-09 08:53:10 GMT 52.35375 4.71123 350 4 157 2752
2017-12-09 08:53:08 GMT 52.35310 4.71115 325 4 157 2560
2017-12-09 08:53:06 GMT 52.35159 4.71092 200 3 158 2304
2017-12-09 08:52:58 GMT 52.34654 4.71046 0 2 155 0
2017-12-09 08:52:53 GMT 52.34303 4.71014 0 2 135 0
2017-12-09 08:52:48 GMT 52.34044 4.70992 0 2 110 0
2017-12-09 08:52:38 GMT 52.33638 4.70955 0 2 57 0
2017-12-09 08:52:33 GMT 52.33520 4.70945 0 0 35 0
2017-12-09 08:52:27 GMT 52.33434 4.70951 0 345 28 0
2017-12-09 08:52:17 GMT 52.33340 4.71041 0 312 25 0
2017-12-09 08:52:10 GMT 52.33285 4.71140 0 312 23 0
2017-12-09 08:52:04 GMT 52.33249 4.71205 0 309 22 0
2017-12-09 08:51:58 GMT 52.33206 4.71286 0 312 21 0
2017-12-09 08:51:56 GMT 52.33200 4.71298 0 309 21 0
2017-12-09 08:51:47 GMT 52.33150 4.71396 0 300 19 0
2017-12-09 08:51:39 GMT 52.33136 4.71499 0 241 18 0
2017-12-09 08:51:33 GMT 52.33150 4.71572 0 267 18 0
2017-12-09 08:51:31 GMT 52.33151 4.71590 0 270 19 0
2017-12-09 08:51:25 GMT 52.33137 4.71670 0 309 18 0
2017-12-09 08:51:22 GMT 52.33117 4.71710 0 312 22 0
2017-12-09 08:51:15 GMT 52.33082 4.71772 0 312 25 0
2017-12-09 08:51:12 GMT 52.33062 4.71814 0 312 27 0
2017-12-09 08:51:08 GMT 52.33027 4.71878 0 312 29 0
2017-12-09 08:51:06 GMT 52.33011 4.71905 0 312 29 0
2017-12-09 08:51:00 GMT 52.32955 4.71996 0 309 28 0
2017-12-09 08:50:53 GMT 52.32896 4.72120 0 312 30 0
2017-12-09 08:50:46 GMT 52.32843 4.72218 0 312 29 0
2017-12-09 08:50:38 GMT 52.32773 4.72347 0 312 26 0
2017-12-09 08:50:32 GMT 52.32721 4.72446 0 312 25 0
2017-12-09 08:50:30 GMT 52.32715 4.72456 0 312 25 0
2017-12-09 08:50:20 GMT 52.32630 4.72597 0 320 26 0
2017-12-09 08:50:16 GMT 52.32607 4.72628 0 320 30 0
2017-12-09 08:50:09 GMT 52.32527 4.72738 0 320 32 0
2017-12-09 08:50:07 GMT 52.32510 4.72763 0 317 32 0
2017-12-09 08:49:59 GMT 52.32424 4.72883 0 317 31 0
2017-12-09 08:49:48 GMT 52.32318 4.73032 0 320 29 0
2017-12-09 08:49:42 GMT 52.32245 4.73131 0 317 27 0
2017-12-09 08:49:38 GMT 52.32225 4.73166 0 320 26 0
2017-12-09 08:49:34 GMT 52.32188 4.73217 0 320 25 0
2017-12-09 08:49:25 GMT 52.32120 4.73318 0 317 23 0
2017-12-09 08:49:17 GMT 52.32080 4.73407 0 289 22 0
2017-12-09 08:49:07 GMT 52.32055 4.73589 0 272 24 0
2017-12-09 08:48:56 GMT 52.32046 4.73844 0 272 22 0
2017-12-09 08:48:40 GMT 52.32041 4.74007 0 272 20 0
2017-12-09 08:48:38 GMT 52.32040 4.74041 0 272 20 0
2017-12-09 08:48:30 GMT 52.32035 4.74144 0 272 17 0
2017-12-09 08:48:24 GMT 52.32033 4.74222 0 272 17 0
2017-12-09 08:48:20 GMT 52.32029 4.74262 0 286 18 0
2017-12-09 08:48:17 GMT 52.32022 4.74296 0 317 17 0
2017-12-09 08:48:08 GMT 52.31969 4.74333 0 2 18 0
2017-12-09 08:48:00 GMT 52.31907 4.74327 0 5 21 0
2017-12-09 08:47:48 GMT 52.31792 4.74317 0 2 23 0
2017-12-09 08:47:40 GMT 52.31710 4.74310 0 2 21 0
2017-12-09 08:47:31 GMT 52.31636 4.74302 0 5 19 0
2017-12-09 08:47:29 GMT 52.31617 4.74299 0 2 18 0
2017-12-09 08:47:10 GMT 52.31492 4.74319 0 303 15 0
2017-12-09 08:47:05 GMT 52.31477 4.74372 0 270 14 0
2017-12-09 08:46:59 GMT 52.31479 4.74452 0 267 20 0
2017-12-09 08:46:48 GMT 52.31485 4.74608 0 267 23 0
2017-12-09 08:46:43 GMT 52.31487 4.74690 0 267 22 0
2017-12-09 08:46:36 GMT 52.31491 4.74793 0 267 20 0
2017-12-09 08:46:32 GMT 52.31493 4.74847 0 267 18 0
2017-12-09 08:46:28 GMT 52.31494 4.74904 0 267 16 0
2017-12-09 08:46:21 GMT 52.31496 4.74978 0 264 20 0
2017-12-09 08:46:17 GMT 52.31500 4.75044 0 264 22 0
2017-12-09 08:46:14 GMT 52.31501 4.75082 0 267 24 0
2017-12-09 08:46:04 GMT 52.31506 4.75246 0 267 22 0
2017-12-09 08:45:54 GMT 52.31512 4.75401 0 267 26 0
2017-12-09 08:45:45 GMT 52.31518 4.75573 0 267 26 0
2017-12-09 08:45:35 GMT 52.31524 4.75760 0 267 25 0
2017-12-09 08:45:25 GMT 52.31530 4.75943 0 267 24 0
2017-12-09 08:45:11 GMT 52.31538 4.76169 0 264 22 0
2017-12-09 08:45:05 GMT 52.31540 4.76259 0 267 21 0
2017-12-09 08:44:51 GMT 52.31547 4.76446 0 267 18 0
2017-12-09 08:44:33 GMT 52.31556 4.76652 0 267 15 0
2017-12-09 08:44:23 GMT 52.31559 4.76767 0 267 12 0
2017-12-09 08:44:13 GMT 52.31561 4.76839 0 267 10 0
2017-12-09 08:44:02 GMT 52.31564 4.76919 0 264 15 0
2017-12-09 08:43:50 GMT 52.31571 4.77095 0 267 26 0
2017-12-09 08:43:41 GMT 52.31575 4.77234 0 267 24 0
2017-12-09 08:43:32 GMT 52.31577 4.77392 0 284 23 0
2017-12-09 08:43:27 GMT 52.31563 4.77464 0 303 22 0
2017-12-09 08:43:10 GMT 52.31444 4.77642 0 345 19 0
2017-12-09 08:42:56 GMT 52.31329 4.77650 0 5 21 0
2017-12-09 08:42:54 GMT 52.31314 4.77648 0 2 21 0
2017-12-09 08:42:50 GMT 52.31279 4.77644 0 2 23 0
2017-12-09 08:42:29 GMT 52.31075 4.77627 0 2 22 0
2017-12-09 08:42:21 GMT 52.30997 4.77619 0 5 22 0
2017-12-09 08:42:03 GMT 52.30841 4.77606 0 5 18 0
2017-12-09 08:41:50 GMT 52.30752 4.77596 0 2 15 0
2017-12-09 08:41:38 GMT 52.30671 4.77583 0 30 12 0
2017-12-09 08:41:28 GMT 52.30646 4.77535 0 81 10 0
2017-12-09 08:41:21 GMT 52.30644 4.77482 0 84 11 0
2017-12-09 08:41:11 GMT 52.30641 4.77398 0 92 10 0
2017-12-09 08:40:59 GMT 52.30647 4.77332 0 106 7 0
2017-12-09 08:40:49 GMT 52.30655 4.77299 0 98 5 0
2017-12-09 08:40:25 GMT 52.30660 4.77270 0 61 0 0
2017-12-09 08:39:40 GMT 52.30660 4.77270 0 61 0 0
2017-12-09 08:39:15 GMT 52.30658 4.77270 0 61 0 0
2017-12-09 08:39:05 GMT 52.30658 4.77268 0 61 0 0
2017-12-09 08:38:35 GMT 52.30660 4.77270 0 61 0 0
2017-12-09 08:38:04 GMT 52.30660 4.77270 0 61 0 0
2017-12-09 08:37:09 GMT 52.30658 4.77270 0 61 0 0
2017-12-09 08:36:39 GMT 52.30660 4.77268 0 61 0 0
2017-12-09 08:36:02 GMT 52.30660 4.77270 0 61 0 0

Making use of Plane Finder data

You are free to use the raw flight data, aircraft information and images provided in this report for your own purposes provided the data is correctly attributed to Plane Finder. We ask that you please credit Plane Finder and link to planefinder.net in close proximity to the content.

Optionally one of the following logos (no smaller then 150x24px) can be used and must link to planefinder.net

Embedding the Plane Finder map

You are welcome to embed the Plane Finder playback map on your website to offer visitors a more interactive experience. We suggest using the following HTML code:

<iframe src="//planefinder.net/data/report/EI603-EI-CVA-7700-squawk-2017-12-09/map" width="800" height="600" seamless="seamless"></iframe>

Where our data comes from

Plane Finder has a global network of data feeds and antenna radars that receive data broadcast directly from aircraft. The primary technologies used are ADS-B and MLAT. We also show feeds from the FAA and a FLARM glider feed.

Click here to find out more about the Plane Finder network.

How we collect our data